<?xml version="1.0" encoding="UTF-8" standalone="no" ?>
<gpx xmlns="http://www.topografix.com/GPX/1/1" xmlns:xsi="http://www.w3.org/2001/XMLSchema-instance" xsi:schemaLocation="http://www.topografix.com/GPX/1/1 http://www.topografix.com/GPX/1/1/gpx.xsd" version="1.1" creator="VisuGPX - https://www.visugpx.com">
  <metadata>
    <name>Le Reveston La Madone d\'Utelle</name>
    <desc><![CDATA[Très belle balade de 15km agréméntée par la visite des ruines du Reveston et du Sanctuaire de la Madone d\'Utelle]]></desc>
  </metadata>
  <trk>
    <name><![CDATA[Le Reveston La Madone d\'Utelle_1]]></name>
    <trkseg>
      <trkpt lat="43.90555" lon="7.19613">
        <ele>213.7</ele>
        <time>2013-04-12T07:13:17Z</time>
      </trkpt>
      <trkpt lat="43.90565" lon="7.19611">
        <ele>215</ele>
        <time>2013-04-12T07:13:31Z</time>
      </trkpt>
      <trkpt lat="43.90573" lon="7.1961">
        <ele>215.3</ele>
        <time>2013-04-12T07:13:42Z</time>
      </trkpt>
      <trkpt lat="43.90566" lon="7.19614">
        <ele>218.2</ele>
        <time>2013-04-12T07:19:47Z</time>
      </trkpt>
      <trkpt lat="43.90559" lon="7.19629">
        <ele>218.3</ele>
        <time>2013-04-12T07:20:00Z</time>
      </trkpt>
      <trkpt lat="43.90551" lon="7.19635">
        <ele>220.3</ele>
        <time>2013-04-12T07:20:12Z</time>
      </trkpt>
      <trkpt lat="43.90559" lon="7.19637">
        <ele>224.7</ele>
        <time>2013-04-12T07:20:38Z</time>
      </trkpt>
      <trkpt lat="43.90559" lon="7.19648">
        <ele>231.4</ele>
        <time>2013-04-12T07:21:11Z</time>
      </trkpt>
      <trkpt lat="43.90555" lon="7.1966">
        <ele>234.4</ele>
        <time>2013-04-12T07:21:28Z</time>
      </trkpt>
      <trkpt lat="43.90556" lon="7.19672">
        <ele>238.2</ele>
        <time>2013-04-12T07:21:39Z</time>
      </trkpt>
      <trkpt lat="43.90565" lon="7.1967">
        <ele>243</ele>
        <time>2013-04-12T07:22:33Z</time>
      </trkpt>
      <trkpt lat="43.90564" lon="7.19684">
        <ele>245.5</ele>
        <time>2013-04-12T07:22:52Z</time>
      </trkpt>
      <trkpt lat="43.9057" lon="7.19691">
        <ele>247.8</ele>
        <time>2013-04-12T07:23:03Z</time>
      </trkpt>
      <trkpt lat="43.90572" lon="7.1968">
        <ele>249.3</ele>
        <time>2013-04-12T07:23:21Z</time>
      </trkpt>
      <trkpt lat="43.9058" lon="7.19677">
        <ele>255.2</ele>
        <time>2013-04-12T07:23:35Z</time>
      </trkpt>
      <trkpt lat="43.90584" lon="7.1969">
        <ele>259.3</ele>
        <time>2013-04-12T07:24:00Z</time>
      </trkpt>
      <trkpt lat="43.90587" lon="7.19702">
        <ele>262.1</ele>
        <time>2013-04-12T07:24:19Z</time>
      </trkpt>
      <trkpt lat="43.90586" lon="7.19716">
        <ele>264.4</ele>
        <time>2013-04-12T07:24:32Z</time>
      </trkpt>
      <trkpt lat="43.90585" lon="7.19727">
        <ele>266.7</ele>
        <time>2013-04-12T07:24:46Z</time>
      </trkpt>
      <trkpt lat="43.90582" lon="7.19743">
        <ele>269.6</ele>
        <time>2013-04-12T07:24:58Z</time>
      </trkpt>
      <trkpt lat="43.9059" lon="7.19741">
        <ele>274</ele>
        <time>2013-04-12T07:26:27Z</time>
      </trkpt>
      <trkpt lat="43.90605" lon="7.19725">
        <ele>278</ele>
        <time>2013-04-12T07:27:17Z</time>
      </trkpt>
      <trkpt lat="43.90601" lon="7.19737">
        <ele>279.8</ele>
        <time>2013-04-12T07:27:44Z</time>
      </trkpt>
      <trkpt lat="43.906" lon="7.19749">
        <ele>283</ele>
        <time>2013-04-12T07:27:57Z</time>
      </trkpt>
      <trkpt lat="43.90597" lon="7.19764">
        <ele>283.7</ele>
        <time>2013-04-12T07:28:16Z</time>
      </trkpt>
      <trkpt lat="43.9059" lon="7.19784">
        <ele>291.1</ele>
        <time>2013-04-12T07:28:33Z</time>
      </trkpt>
      <trkpt lat="43.90591" lon="7.19802">
        <ele>298.1</ele>
        <time>2013-04-12T07:29:18Z</time>
      </trkpt>
      <trkpt lat="43.90586" lon="7.19811">
        <ele>299.9</ele>
        <time>2013-04-12T07:29:32Z</time>
      </trkpt>
      <trkpt lat="43.90578" lon="7.19814">
        <ele>306.4</ele>
        <time>2013-04-12T07:29:49Z</time>
      </trkpt>
      <trkpt lat="43.90571" lon="7.19807">
        <ele>309.9</ele>
        <time>2013-04-12T07:30:04Z</time>
      </trkpt>
      <trkpt lat="43.90562" lon="7.19805">
        <ele>315.3</ele>
        <time>2013-04-12T07:30:18Z</time>
      </trkpt>
      <trkpt lat="43.90554" lon="7.19807">
        <ele>316.5</ele>
        <time>2013-04-12T07:30:34Z</time>
      </trkpt>
      <trkpt lat="43.90552" lon="7.19819">
        <ele>319.3</ele>
        <time>2013-04-12T07:30:43Z</time>
      </trkpt>
      <trkpt lat="43.90561" lon="7.19834">
        <ele>324.8</ele>
        <time>2013-04-12T07:31:41Z</time>
      </trkpt>
      <trkpt lat="43.90568" lon="7.19842">
        <ele>323.8</ele>
        <time>2013-04-12T07:31:54Z</time>
      </trkpt>
      <trkpt lat="43.90582" lon="7.19855">
        <ele>326.1</ele>
        <time>2013-04-12T07:32:20Z</time>
      </trkpt>
      <trkpt lat="43.90573" lon="7.19851">
        <ele>334.1</ele>
        <time>2013-04-12T07:32:50Z</time>
      </trkpt>
      <trkpt lat="43.90566" lon="7.19848">
        <ele>337</ele>
        <time>2013-04-12T07:33:01Z</time>
      </trkpt>
      <trkpt lat="43.90568" lon="7.19859">
        <ele>340.1</ele>
        <time>2013-04-12T07:33:24Z</time>
      </trkpt>
      <trkpt lat="43.90576" lon="7.19864">
        <ele>344.2</ele>
        <time>2013-04-12T07:33:37Z</time>
      </trkpt>
      <trkpt lat="43.90584" lon="7.19871">
        <ele>346.1</ele>
        <time>2013-04-12T07:33:52Z</time>
      </trkpt>
      <trkpt lat="43.90591" lon="7.19879">
        <ele>347.7</ele>
        <time>2013-04-12T07:34:08Z</time>
      </trkpt>
      <trkpt lat="43.90598" lon="7.1987">
        <ele>353.5</ele>
        <time>2013-04-12T07:34:27Z</time>
      </trkpt>
      <trkpt lat="43.90606" lon="7.19866">
        <ele>357</ele>
        <time>2013-04-12T07:34:47Z</time>
      </trkpt>
      <trkpt lat="43.90607" lon="7.19877">
        <ele>355.6</ele>
        <time>2013-04-12T07:35:01Z</time>
      </trkpt>
      <trkpt lat="43.90625" lon="7.19862">
        <ele>360</ele>
        <time>2013-04-12T07:35:43Z</time>
      </trkpt>
      <trkpt lat="43.9064" lon="7.19848">
        <ele>360.7</ele>
        <time>2013-04-12T07:36:23Z</time>
      </trkpt>
      <trkpt lat="43.90648" lon="7.19843">
        <ele>365</ele>
        <time>2013-04-12T07:36:50Z</time>
      </trkpt>
      <trkpt lat="43.90649" lon="7.19856">
        <ele>377.1</ele>
        <time>2013-04-12T07:37:22Z</time>
      </trkpt>
      <trkpt lat="43.90656" lon="7.1985">
        <ele>378.5</ele>
        <time>2013-04-12T07:37:34Z</time>
      </trkpt>
      <trkpt lat="43.90666" lon="7.19843">
        <ele>382.4</ele>
        <time>2013-04-12T07:38:03Z</time>
      </trkpt>
      <trkpt lat="43.90678" lon="7.19835">
        <ele>384.4</ele>
        <time>2013-04-12T07:38:31Z</time>
      </trkpt>
      <trkpt lat="43.90687" lon="7.1983">
        <ele>388.1</ele>
        <time>2013-04-12T07:38:47Z</time>
      </trkpt>
      <trkpt lat="43.90711" lon="7.19821">
        <ele>395.2</ele>
        <time>2013-04-12T07:39:30Z</time>
      </trkpt>
      <trkpt lat="43.90712" lon="7.19835">
        <ele>397.2</ele>
        <time>2013-04-12T07:39:57Z</time>
      </trkpt>
      <trkpt lat="43.90708" lon="7.19846">
        <ele>398.1</ele>
        <time>2013-04-12T07:40:10Z</time>
      </trkpt>
      <trkpt lat="43.90701" lon="7.19859">
        <ele>403.9</ele>
        <time>2013-04-12T07:40:31Z</time>
      </trkpt>
      <trkpt lat="43.90691" lon="7.19869">
        <ele>410.2</ele>
        <time>2013-04-12T07:40:49Z</time>
      </trkpt>
      <trkpt lat="43.90686" lon="7.19878">
        <ele>413.6</ele>
        <time>2013-04-12T07:41:23Z</time>
      </trkpt>
      <trkpt lat="43.90683" lon="7.19889">
        <ele>414.8</ele>
        <time>2013-04-12T07:41:33Z</time>
      </trkpt>
      <trkpt lat="43.90678" lon="7.19898">
        <ele>416.5</ele>
        <time>2013-04-12T07:41:41Z</time>
      </trkpt>
      <trkpt lat="43.90687" lon="7.19897">
        <ele>420.2</ele>
        <time>2013-04-12T07:42:12Z</time>
      </trkpt>
      <trkpt lat="43.90695" lon="7.19895">
        <ele>421.6</ele>
        <time>2013-04-12T07:42:51Z</time>
      </trkpt>
      <trkpt lat="43.90704" lon="7.19894">
        <ele>423.5</ele>
        <time>2013-04-12T07:43:01Z</time>
      </trkpt>
      <trkpt lat="43.90697" lon="7.19906">
        <ele>428.9</ele>
        <time>2013-04-12T07:43:51Z</time>
      </trkpt>
      <trkpt lat="43.90692" lon="7.19919">
        <ele>431.8</ele>
        <time>2013-04-12T07:44:05Z</time>
      </trkpt>
      <trkpt lat="43.90693" lon="7.1995">
        <ele>439.8</ele>
        <time>2013-04-12T07:44:34Z</time>
      </trkpt>
      <trkpt lat="43.90698" lon="7.19959">
        <ele>443.7</ele>
        <time>2013-04-12T07:44:43Z</time>
      </trkpt>
      <trkpt lat="43.90703" lon="7.19969">
        <ele>447.3</ele>
        <time>2013-04-12T07:44:55Z</time>
      </trkpt>
      <trkpt lat="43.90712" lon="7.19979">
        <ele>450.2</ele>
        <time>2013-04-12T07:45:13Z</time>
      </trkpt>
      <trkpt lat="43.90716" lon="7.19991">
        <ele>450.5</ele>
        <time>2013-04-12T07:45:21Z</time>
      </trkpt>
      <trkpt lat="43.9072" lon="7.20003">
        <ele>451.1</ele>
        <time>2013-04-12T07:45:29Z</time>
      </trkpt>
      <trkpt lat="43.90722" lon="7.2002">
        <ele>454.8</ele>
        <time>2013-04-12T07:45:44Z</time>
      </trkpt>
      <trkpt lat="43.90724" lon="7.20032">
        <ele>457</ele>
        <time>2013-04-12T07:45:54Z</time>
      </trkpt>
      <trkpt lat="43.90727" lon="7.20042">
        <ele>461.1</ele>
        <time>2013-04-12T07:46:06Z</time>
      </trkpt>
      <trkpt lat="43.90733" lon="7.20051">
        <ele>463.6</ele>
        <time>2013-04-12T07:46:18Z</time>
      </trkpt>
      <trkpt lat="43.90739" lon="7.20061">
        <ele>462.2</ele>
        <time>2013-04-12T07:46:28Z</time>
      </trkpt>
      <trkpt lat="43.90741" lon="7.20074">
        <ele>462.8</ele>
        <time>2013-04-12T07:46:37Z</time>
      </trkpt>
      <trkpt lat="43.90743" lon="7.20086">
        <ele>462.6</ele>
        <time>2013-04-12T07:46:45Z</time>
      </trkpt>
      <trkpt lat="43.9075" lon="7.20096">
        <ele>464.6</ele>
        <time>2013-04-12T07:46:56Z</time>
      </trkpt>
      <trkpt lat="43.90757" lon="7.20104">
        <ele>466.6</ele>
        <time>2013-04-12T07:47:07Z</time>
      </trkpt>
      <trkpt lat="43.9076" lon="7.20117">
        <ele>469.1</ele>
        <time>2013-04-12T07:47:17Z</time>
      </trkpt>
      <trkpt lat="43.90762" lon="7.20129">
        <ele>469.3</ele>
        <time>2013-04-12T07:47:26Z</time>
      </trkpt>
      <trkpt lat="43.90766" lon="7.20141">
        <ele>469.7</ele>
        <time>2013-04-12T07:47:35Z</time>
      </trkpt>
      <trkpt lat="43.90772" lon="7.20152">
        <ele>471.3</ele>
        <time>2013-04-12T07:47:46Z</time>
      </trkpt>
      <trkpt lat="43.90776" lon="7.20165">
        <ele>471.6</ele>
        <time>2013-04-12T07:47:59Z</time>
      </trkpt>
      <trkpt lat="43.90781" lon="7.20177">
        <ele>472.3</ele>
        <time>2013-04-12T07:48:08Z</time>
      </trkpt>
      <trkpt lat="43.90788" lon="7.20199">
        <ele>474.9</ele>
        <time>2013-04-12T07:48:29Z</time>
      </trkpt>
      <trkpt lat="43.90791" lon="7.20212">
        <ele>476.7</ele>
        <time>2013-04-12T07:48:40Z</time>
      </trkpt>
      <trkpt lat="43.90796" lon="7.20225">
        <ele>477.3</ele>
        <time>2013-04-12T07:48:56Z</time>
      </trkpt>
      <trkpt lat="43.90804" lon="7.20238">
        <ele>480.1</ele>
        <time>2013-04-12T07:49:13Z</time>
      </trkpt>
      <trkpt lat="43.9081" lon="7.20249">
        <ele>481.5</ele>
        <time>2013-04-12T07:49:39Z</time>
      </trkpt>
      <trkpt lat="43.90812" lon="7.20265">
        <ele>484.6</ele>
        <time>2013-04-12T07:49:54Z</time>
      </trkpt>
      <trkpt lat="43.90816" lon="7.20277">
        <ele>486.7</ele>
        <time>2013-04-12T07:50:06Z</time>
      </trkpt>
      <trkpt lat="43.90823" lon="7.20299">
        <ele>488.4</ele>
        <time>2013-04-12T07:50:23Z</time>
      </trkpt>
      <trkpt lat="43.90825" lon="7.2031">
        <ele>490.2</ele>
        <time>2013-04-12T07:50:32Z</time>
      </trkpt>
      <trkpt lat="43.90826" lon="7.20324">
        <ele>492.1</ele>
        <time>2013-04-12T07:50:42Z</time>
      </trkpt>
      <trkpt lat="43.90836" lon="7.20325">
        <ele>494.6</ele>
        <time>2013-04-12T07:50:56Z</time>
      </trkpt>
      <trkpt lat="43.90845" lon="7.20323">
        <ele>498</ele>
        <time>2013-04-12T07:51:20Z</time>
      </trkpt>
      <trkpt lat="43.90853" lon="7.20322">
        <ele>499.5</ele>
        <time>2013-04-12T07:51:40Z</time>
      </trkpt>
      <trkpt lat="43.9086" lon="7.20329">
        <ele>499.7</ele>
        <time>2013-04-12T07:51:51Z</time>
      </trkpt>
      <trkpt lat="43.90862" lon="7.2034">
        <ele>506</ele>
        <time>2013-04-12T07:52:17Z</time>
      </trkpt>
      <trkpt lat="43.90868" lon="7.20348">
        <ele>507.6</ele>
        <time>2013-04-12T07:52:36Z</time>
      </trkpt>
      <trkpt lat="43.90863" lon="7.20357">
        <ele>512.6</ele>
        <time>2013-04-12T07:53:04Z</time>
      </trkpt>
      <trkpt lat="43.90867" lon="7.20368">
        <ele>513.4</ele>
        <time>2013-04-12T07:53:23Z</time>
      </trkpt>
      <trkpt lat="43.90863" lon="7.20384">
        <ele>519.6</ele>
        <time>2013-04-12T07:53:55Z</time>
      </trkpt>
      <trkpt lat="43.9087" lon="7.20392">
        <ele>521.8</ele>
        <time>2013-04-12T07:54:11Z</time>
      </trkpt>
      <trkpt lat="43.90877" lon="7.204">
        <ele>522.8</ele>
        <time>2013-04-12T07:54:27Z</time>
      </trkpt>
      <trkpt lat="43.90886" lon="7.20403">
        <ele>528.9</ele>
        <time>2013-04-12T07:54:49Z</time>
      </trkpt>
      <trkpt lat="43.90896" lon="7.20405">
        <ele>533</ele>
        <time>2013-04-12T07:55:06Z</time>
      </trkpt>
      <trkpt lat="43.90904" lon="7.20405">
        <ele>534.1</ele>
        <time>2013-04-12T07:55:17Z</time>
      </trkpt>
      <trkpt lat="43.90913" lon="7.20403">
        <ele>537.3</ele>
        <time>2013-04-12T07:55:28Z</time>
      </trkpt>
      <trkpt lat="43.90923" lon="7.204">
        <ele>541.5</ele>
        <time>2013-04-12T07:55:35Z</time>
      </trkpt>
      <trkpt lat="43.90932" lon="7.20398">
        <ele>544.7</ele>
        <time>2013-04-12T07:55:44Z</time>
      </trkpt>
      <trkpt lat="43.90943" lon="7.20392">
        <ele>545.2</ele>
        <time>2013-04-12T07:55:55Z</time>
      </trkpt>
      <trkpt lat="43.90948" lon="7.20381">
        <ele>546.6</ele>
        <time>2013-04-12T07:56:07Z</time>
      </trkpt>
      <trkpt lat="43.90957" lon="7.20377">
        <ele>546.3</ele>
        <time>2013-04-12T07:56:14Z</time>
      </trkpt>
      <trkpt lat="43.90964" lon="7.2037">
        <ele>548.6</ele>
        <time>2013-04-12T07:56:24Z</time>
      </trkpt>
      <trkpt lat="43.90974" lon="7.20365">
        <ele>552.5</ele>
        <time>2013-04-12T07:56:34Z</time>
      </trkpt>
      <trkpt lat="43.90983" lon="7.20357">
        <ele>554.5</ele>
        <time>2013-04-12T07:56:44Z</time>
      </trkpt>
      <trkpt lat="43.90993" lon="7.2035">
        <ele>557.4</ele>
        <time>2013-04-12T07:56:53Z</time>
      </trkpt>
      <trkpt lat="43.91001" lon="7.20346">
        <ele>557.9</ele>
        <time>2013-04-12T07:57:00Z</time>
      </trkpt>
      <trkpt lat="43.9101" lon="7.20341">
        <ele>560.1</ele>
        <time>2013-04-12T07:57:10Z</time>
      </trkpt>
      <trkpt lat="43.9102" lon="7.20335">
        <ele>561.9</ele>
        <time>2013-04-12T07:57:21Z</time>
      </trkpt>
      <trkpt lat="43.9103" lon="7.20331">
        <ele>562.4</ele>
        <time>2013-04-12T07:57:35Z</time>
      </trkpt>
      <trkpt lat="43.91039" lon="7.2033">
        <ele>563</ele>
        <time>2013-04-12T07:58:07Z</time>
      </trkpt>
      <trkpt lat="43.91047" lon="7.2033">
        <ele>562.3</ele>
        <time>2013-04-12T07:58:26Z</time>
      </trkpt>
      <trkpt lat="43.91057" lon="7.20333">
        <ele>562.4</ele>
        <time>2013-04-12T07:58:36Z</time>
      </trkpt>
      <trkpt lat="43.91065" lon="7.20338">
        <ele>564.5</ele>
        <time>2013-04-12T07:58:45Z</time>
      </trkpt>
      <trkpt lat="43.91072" lon="7.20345">
        <ele>564.6</ele>
        <time>2013-04-12T07:59:04Z</time>
      </trkpt>
      <trkpt lat="43.9108" lon="7.20354">
        <ele>562.9</ele>
        <time>2013-04-12T07:59:18Z</time>
      </trkpt>
      <trkpt lat="43.91086" lon="7.20362">
        <ele>563</ele>
        <time>2013-04-12T07:59:27Z</time>
      </trkpt>
      <trkpt lat="43.9109" lon="7.20374">
        <ele>562</ele>
        <time>2013-04-12T07:59:35Z</time>
      </trkpt>
      <trkpt lat="43.91097" lon="7.20385">
        <ele>563.2</ele>
        <time>2013-04-12T07:59:55Z</time>
      </trkpt>
      <trkpt lat="43.91104" lon="7.20395">
        <ele>564.8</ele>
        <time>2013-04-12T08:00:04Z</time>
      </trkpt>
      <trkpt lat="43.91111" lon="7.20401">
        <ele>567.9</ele>
        <time>2013-04-12T08:00:15Z</time>
      </trkpt>
      <trkpt lat="43.91114" lon="7.20412">
        <ele>568</ele>
        <time>2013-04-12T08:00:27Z</time>
      </trkpt>
      <trkpt lat="43.91116" lon="7.20425">
        <ele>570.3</ele>
        <time>2013-04-12T08:00:46Z</time>
      </trkpt>
      <trkpt lat="43.91121" lon="7.20448">
        <ele>573.6</ele>
        <time>2013-04-12T08:01:08Z</time>
      </trkpt>
      <trkpt lat="43.91128" lon="7.20456">
        <ele>576.4</ele>
        <time>2013-04-12T08:01:27Z</time>
      </trkpt>
      <trkpt lat="43.91136" lon="7.20462">
        <ele>579.6</ele>
        <time>2013-04-12T08:01:48Z</time>
      </trkpt>
      <trkpt lat="43.91144" lon="7.20457">
        <ele>580.8</ele>
        <time>2013-04-12T08:01:56Z</time>
      </trkpt>
      <trkpt lat="43.9114" lon="7.20468">
        <ele>582.8</ele>
        <time>2013-04-12T08:02:22Z</time>
      </trkpt>
      <trkpt lat="43.91145" lon="7.20476">
        <ele>582.7</ele>
        <time>2013-04-12T08:02:43Z</time>
      </trkpt>
      <trkpt lat="43.91139" lon="7.20484">
        <ele>588</ele>
        <time>2013-04-12T08:04:32Z</time>
      </trkpt>
      <trkpt lat="43.91142" lon="7.20496">
        <ele>587.3</ele>
        <time>2013-04-12T08:05:36Z</time>
      </trkpt>
      <trkpt lat="43.91148" lon="7.20505">
        <ele>586.2</ele>
        <time>2013-04-12T08:05:46Z</time>
      </trkpt>
      <trkpt lat="43.91151" lon="7.20517">
        <ele>585.2</ele>
        <time>2013-04-12T08:05:53Z</time>
      </trkpt>
      <trkpt lat="43.91153" lon="7.20533">
        <ele>585.7</ele>
        <time>2013-04-12T08:06:06Z</time>
      </trkpt>
      <trkpt lat="43.91157" lon="7.20544">
        <ele>584.4</ele>
        <time>2013-04-12T08:06:14Z</time>
      </trkpt>
      <trkpt lat="43.91159" lon="7.20556">
        <ele>585.2</ele>
        <time>2013-04-12T08:06:22Z</time>
      </trkpt>
      <trkpt lat="43.91162" lon="7.20568">
        <ele>585.8</ele>
        <time>2013-04-12T08:06:43Z</time>
      </trkpt>
      <trkpt lat="43.91165" lon="7.20579">
        <ele>587.5</ele>
        <time>2013-04-12T08:06:54Z</time>
      </trkpt>
      <trkpt lat="43.9117" lon="7.20597">
        <ele>588.5</ele>
        <time>2013-04-12T08:08:02Z</time>
      </trkpt>
      <trkpt lat="43.91175" lon="7.20607">
        <ele>589.4</ele>
        <time>2013-04-12T08:08:09Z</time>
      </trkpt>
      <trkpt lat="43.91176" lon="7.20619">
        <ele>589.9</ele>
        <time>2013-04-12T08:08:17Z</time>
      </trkpt>
      <trkpt lat="43.91178" lon="7.2063">
        <ele>590</ele>
        <time>2013-04-12T08:08:26Z</time>
      </trkpt>
      <trkpt lat="43.9118" lon="7.20642">
        <ele>589.9</ele>
        <time>2013-04-12T08:08:36Z</time>
      </trkpt>
      <trkpt lat="43.91184" lon="7.20654">
        <ele>590.9</ele>
        <time>2013-04-12T08:08:51Z</time>
      </trkpt>
      <trkpt lat="43.91186" lon="7.20665">
        <ele>591.1</ele>
        <time>2013-04-12T08:09:01Z</time>
      </trkpt>
      <trkpt lat="43.91187" lon="7.20684">
        <ele>591.7</ele>
        <time>2013-04-12T08:09:23Z</time>
      </trkpt>
      <trkpt lat="43.9119" lon="7.20706">
        <ele>592.1</ele>
        <time>2013-04-12T08:10:00Z</time>
      </trkpt>
      <trkpt lat="43.9119" lon="7.20718">
        <ele>592.5</ele>
        <time>2013-04-12T08:10:18Z</time>
      </trkpt>
      <trkpt lat="43.91191" lon="7.20729">
        <ele>591.7</ele>
        <time>2013-04-12T08:10:27Z</time>
      </trkpt>
      <trkpt lat="43.91189" lon="7.20741">
        <ele>596.2</ele>
        <time>2013-04-12T08:11:36Z</time>
      </trkpt>
      <trkpt lat="43.91182" lon="7.20745">
        <ele>607</ele>
        <time>2013-04-12T08:12:44Z</time>
      </trkpt>
      <trkpt lat="43.91179" lon="7.20768">
        <ele>616</ele>
        <time>2013-04-12T08:14:11Z</time>
      </trkpt>
      <trkpt lat="43.91173" lon="7.20778">
        <ele>621.4</ele>
        <time>2013-04-12T08:15:46Z</time>
      </trkpt>
      <trkpt lat="43.91165" lon="7.20783">
        <ele>628.4</ele>
        <time>2013-04-12T08:16:24Z</time>
      </trkpt>
      <trkpt lat="43.91167" lon="7.20795">
        <ele>630.4</ele>
        <time>2013-04-12T08:16:35Z</time>
      </trkpt>
      <trkpt lat="43.91176" lon="7.20802">
        <ele>634</ele>
        <time>2013-04-12T08:16:58Z</time>
      </trkpt>
      <trkpt lat="43.91184" lon="7.20812">
        <ele>637.9</ele>
        <time>2013-04-12T08:19:21Z</time>
      </trkpt>
      <trkpt lat="43.91191" lon="7.2082">
        <ele>638.7</ele>
        <time>2013-04-12T08:19:35Z</time>
      </trkpt>
      <trkpt lat="43.91197" lon="7.20829">
        <ele>641</ele>
        <time>2013-04-12T08:19:47Z</time>
      </trkpt>
      <trkpt lat="43.91204" lon="7.20839">
        <ele>641.8</ele>
        <time>2013-04-12T08:20:01Z</time>
      </trkpt>
      <trkpt lat="43.91208" lon="7.20849">
        <ele>640.6</ele>
        <time>2013-04-12T08:20:17Z</time>
      </trkpt>
      <trkpt lat="43.9121" lon="7.20861">
        <ele>640.8</ele>
        <time>2013-04-12T08:20:24Z</time>
      </trkpt>
      <trkpt lat="43.91211" lon="7.20873">
        <ele>641</ele>
        <time>2013-04-12T08:20:35Z</time>
      </trkpt>
      <trkpt lat="43.91214" lon="7.20884">
        <ele>640.4</ele>
        <time>2013-04-12T08:20:47Z</time>
      </trkpt>
      <trkpt lat="43.91219" lon="7.209">
        <ele>639.8</ele>
        <time>2013-04-12T08:20:59Z</time>
      </trkpt>
      <trkpt lat="43.91221" lon="7.20911">
        <ele>639.9</ele>
        <time>2013-04-12T08:21:06Z</time>
      </trkpt>
      <trkpt lat="43.91226" lon="7.20923">
        <ele>641.4</ele>
        <time>2013-04-12T08:21:16Z</time>
      </trkpt>
      <trkpt lat="43.91233" lon="7.2093">
        <ele>642.5</ele>
        <time>2013-04-12T08:21:25Z</time>
      </trkpt>
      <trkpt lat="43.91242" lon="7.20944">
        <ele>647</ele>
        <time>2013-04-12T08:21:59Z</time>
      </trkpt>
      <trkpt lat="43.91249" lon="7.20953">
        <ele>646.7</ele>
        <time>2013-04-12T08:22:08Z</time>
      </trkpt>
      <trkpt lat="43.91257" lon="7.20961">
        <ele>648.1</ele>
        <time>2013-04-12T08:22:26Z</time>
      </trkpt>
      <trkpt lat="43.91263" lon="7.20968">
        <ele>650.3</ele>
        <time>2013-04-12T08:22:43Z</time>
      </trkpt>
      <trkpt lat="43.91272" lon="7.20975">
        <ele>651.5</ele>
        <time>2013-04-12T08:22:54Z</time>
      </trkpt>
      <trkpt lat="43.91278" lon="7.20983">
        <ele>651.2</ele>
        <time>2013-04-12T08:23:06Z</time>
      </trkpt>
      <trkpt lat="43.91285" lon="7.20988">
        <ele>651.9</ele>
        <time>2013-04-12T08:23:14Z</time>
      </trkpt>
      <trkpt lat="43.91291" lon="7.20997">
        <ele>654.5</ele>
        <time>2013-04-12T08:23:27Z</time>
      </trkpt>
      <trkpt lat="43.91295" lon="7.2101">
        <ele>655.2</ele>
        <time>2013-04-12T08:23:42Z</time>
      </trkpt>
      <trkpt lat="43.91302" lon="7.2102">
        <ele>657.5</ele>
        <time>2013-04-12T08:23:57Z</time>
      </trkpt>
      <trkpt lat="43.91308" lon="7.21029">
        <ele>659.5</ele>
        <time>2013-04-12T08:24:27Z</time>
      </trkpt>
      <trkpt lat="43.91317" lon="7.2103">
        <ele>662.5</ele>
        <time>2013-04-12T08:24:48Z</time>
      </trkpt>
      <trkpt lat="43.91325" lon="7.21033">
        <ele>663.4</ele>
        <time>2013-04-12T08:25:06Z</time>
      </trkpt>
      <trkpt lat="43.91337" lon="7.21027">
        <ele>668.7</ele>
        <time>2013-04-12T08:25:29Z</time>
      </trkpt>
      <trkpt lat="43.91346" lon="7.21021">
        <ele>673.4</ele>
        <time>2013-04-12T08:25:34Z</time>
      </trkpt>
      <trkpt lat="43.91355" lon="7.21015">
        <ele>678.3</ele>
        <time>2013-04-12T08:26:00Z</time>
      </trkpt>
      <trkpt lat="43.91363" lon="7.21011">
        <ele>681.1</ele>
        <time>2013-04-12T08:26:09Z</time>
      </trkpt>
      <trkpt lat="43.91371" lon="7.21021">
        <ele>681.9</ele>
        <time>2013-04-12T08:26:41Z</time>
      </trkpt>
      <trkpt lat="43.91379" lon="7.21028">
        <ele>681.5</ele>
        <time>2013-04-12T08:26:50Z</time>
      </trkpt>
      <trkpt lat="43.91387" lon="7.21032">
        <ele>682.1</ele>
        <time>2013-04-12T08:27:03Z</time>
      </trkpt>
      <trkpt lat="43.91396" lon="7.21032">
        <ele>684</ele>
        <time>2013-04-12T08:27:13Z</time>
      </trkpt>
      <trkpt lat="43.91405" lon="7.21031">
        <ele>685.4</ele>
        <time>2013-04-12T08:27:24Z</time>
      </trkpt>
      <trkpt lat="43.91414" lon="7.21034">
        <ele>687.1</ele>
        <time>2013-04-12T08:27:33Z</time>
      </trkpt>
      <trkpt lat="43.91423" lon="7.2104">
        <ele>684.7</ele>
        <time>2013-04-12T08:27:44Z</time>
      </trkpt>
      <trkpt lat="43.91429" lon="7.21047">
        <ele>683.8</ele>
        <time>2013-04-12T08:27:53Z</time>
      </trkpt>
      <trkpt lat="43.91438" lon="7.21048">
        <ele>683.5</ele>
        <time>2013-04-12T08:28:16Z</time>
      </trkpt>
      <trkpt lat="43.91446" lon="7.21041">
        <ele>685</ele>
        <time>2013-04-12T08:28:25Z</time>
      </trkpt>
      <trkpt lat="43.91454" lon="7.21037">
        <ele>686.1</ele>
        <time>2013-04-12T08:28:33Z</time>
      </trkpt>
      <trkpt lat="43.9146" lon="7.21025">
        <ele>688.3</ele>
        <time>2013-04-12T08:28:41Z</time>
      </trkpt>
      <trkpt lat="43.91468" lon="7.2102">
        <ele>692.5</ele>
        <time>2013-04-12T08:28:50Z</time>
      </trkpt>
      <trkpt lat="43.91477" lon="7.21018">
        <ele>695.5</ele>
        <time>2013-04-12T08:29:02Z</time>
      </trkpt>
      <trkpt lat="43.91484" lon="7.21011">
        <ele>695.9</ele>
        <time>2013-04-12T08:29:40Z</time>
      </trkpt>
      <trkpt lat="43.91487" lon="7.21">
        <ele>711.4</ele>
        <time>2013-04-12T08:32:45Z</time>
      </trkpt>
      <trkpt lat="43.91479" lon="7.21002">
        <ele>720</ele>
        <time>2013-04-12T08:33:17Z</time>
      </trkpt>
      <trkpt lat="43.91471" lon="7.21002">
        <ele>726.1</ele>
        <time>2013-04-12T08:33:27Z</time>
      </trkpt>
      <trkpt lat="43.91464" lon="7.20995">
        <ele>730.8</ele>
        <time>2013-04-12T08:33:43Z</time>
      </trkpt>
      <trkpt lat="43.91456" lon="7.20991">
        <ele>736.1</ele>
        <time>2013-04-12T08:34:10Z</time>
      </trkpt>
      <trkpt lat="43.91448" lon="7.20983">
        <ele>739.6</ele>
        <time>2013-04-12T08:34:20Z</time>
      </trkpt>
      <trkpt lat="43.91441" lon="7.20973">
        <ele>743.4</ele>
        <time>2013-04-12T08:34:35Z</time>
      </trkpt>
      <trkpt lat="43.91446" lon="7.2096">
        <ele>739</ele>
        <time>2013-04-12T08:35:41Z</time>
      </trkpt>
      <trkpt lat="43.91455" lon="7.20959">
        <ele>737.8</ele>
        <time>2013-04-12T08:35:57Z</time>
      </trkpt>
      <trkpt lat="43.91463" lon="7.20961">
        <ele>740.4</ele>
        <time>2013-04-12T08:36:06Z</time>
      </trkpt>
      <trkpt lat="43.91471" lon="7.20964">
        <ele>742.8</ele>
        <time>2013-04-12T08:36:19Z</time>
      </trkpt>
      <trkpt lat="43.91478" lon="7.2097">
        <ele>744.4</ele>
        <time>2013-04-12T08:36:26Z</time>
      </trkpt>
      <trkpt lat="43.91486" lon="7.20968">
        <ele>748.2</ele>
        <time>2013-04-12T08:36:35Z</time>
      </trkpt>
      <trkpt lat="43.91494" lon="7.20963">
        <ele>747.3</ele>
        <time>2013-04-12T08:36:42Z</time>
      </trkpt>
      <trkpt lat="43.915" lon="7.20955">
        <ele>749</ele>
        <time>2013-04-12T08:36:53Z</time>
      </trkpt>
      <trkpt lat="43.91508" lon="7.20949">
        <ele>752.4</ele>
        <time>2013-04-12T08:37:08Z</time>
      </trkpt>
      <trkpt lat="43.91512" lon="7.20939">
        <ele>749</ele>
        <time>2013-04-12T08:37:34Z</time>
      </trkpt>
      <trkpt lat="43.91556" lon="7.20943">
        <ele>748.3</ele>
        <time>2013-04-12T08:39:17Z</time>
      </trkpt>
      <trkpt lat="43.91567" lon="7.20945">
        <ele>752.3</ele>
        <time>2013-04-12T08:39:30Z</time>
      </trkpt>
      <trkpt lat="43.91575" lon="7.20949">
        <ele>757.1</ele>
        <time>2013-04-12T08:39:45Z</time>
      </trkpt>
      <trkpt lat="43.91583" lon="7.20951">
        <ele>756.8</ele>
        <time>2013-04-12T08:40:00Z</time>
      </trkpt>
      <trkpt lat="43.91589" lon="7.20943">
        <ele>759.2</ele>
        <time>2013-04-12T08:43:14Z</time>
      </trkpt>
      <trkpt lat="43.916" lon="7.20945">
        <ele>761.6</ele>
        <time>2013-04-12T08:43:34Z</time>
      </trkpt>
      <trkpt lat="43.91608" lon="7.20946">
        <ele>761.5</ele>
        <time>2013-04-12T08:43:42Z</time>
      </trkpt>
      <trkpt lat="43.91616" lon="7.20949">
        <ele>762.2</ele>
        <time>2013-04-12T08:43:50Z</time>
      </trkpt>
      <trkpt lat="43.91624" lon="7.2095">
        <ele>763.5</ele>
        <time>2013-04-12T08:44:01Z</time>
      </trkpt>
      <trkpt lat="43.9164" lon="7.20946">
        <ele>765</ele>
        <time>2013-04-12T08:44:20Z</time>
      </trkpt>
      <trkpt lat="43.91652" lon="7.2094">
        <ele>766.3</ele>
        <time>2013-04-12T08:44:37Z</time>
      </trkpt>
      <trkpt lat="43.91662" lon="7.20935">
        <ele>771.2</ele>
        <time>2013-04-12T08:44:51Z</time>
      </trkpt>
      <trkpt lat="43.91676" lon="7.20928">
        <ele>774.7</ele>
        <time>2013-04-12T08:45:09Z</time>
      </trkpt>
      <trkpt lat="43.91685" lon="7.20925">
        <ele>776.5</ele>
        <time>2013-04-12T08:45:23Z</time>
      </trkpt>
      <trkpt lat="43.91695" lon="7.20927">
        <ele>779.7</ele>
        <time>2013-04-12T08:45:43Z</time>
      </trkpt>
      <trkpt lat="43.91709" lon="7.20922">
        <ele>784.3</ele>
        <time>2013-04-12T08:46:23Z</time>
      </trkpt>
      <trkpt lat="43.91732" lon="7.20906">
        <ele>790.7</ele>
        <time>2013-04-12T08:47:13Z</time>
      </trkpt>
      <trkpt lat="43.91742" lon="7.20913">
        <ele>793.2</ele>
        <time>2013-04-12T08:47:28Z</time>
      </trkpt>
      <trkpt lat="43.91749" lon="7.2092">
        <ele>796.1</ele>
        <time>2013-04-12T08:47:41Z</time>
      </trkpt>
      <trkpt lat="43.91757" lon="7.20917">
        <ele>799.1</ele>
        <time>2013-04-12T08:48:07Z</time>
      </trkpt>
      <trkpt lat="43.91756" lon="7.20899">
        <ele>802.3</ele>
        <time>2013-04-12T08:48:29Z</time>
      </trkpt>
      <trkpt lat="43.91768" lon="7.2091">
        <ele>811.4</ele>
        <time>2013-04-12T08:49:09Z</time>
      </trkpt>
      <trkpt lat="43.91782" lon="7.2092">
        <ele>818.8</ele>
        <time>2013-04-12T08:49:37Z</time>
      </trkpt>
      <trkpt lat="43.91789" lon="7.20927">
        <ele>820.4</ele>
        <time>2013-04-12T08:49:48Z</time>
      </trkpt>
      <trkpt lat="43.9179" lon="7.20939">
        <ele>822.8</ele>
        <time>2013-04-12T08:49:59Z</time>
      </trkpt>
      <trkpt lat="43.91787" lon="7.20952">
        <ele>825.7</ele>
        <time>2013-04-12T08:50:13Z</time>
      </trkpt>
      <trkpt lat="43.91783" lon="7.20965">
        <ele>826.5</ele>
        <time>2013-04-12T08:50:25Z</time>
      </trkpt>
      <trkpt lat="43.91782" lon="7.20976">
        <ele>827</ele>
        <time>2013-04-12T08:50:35Z</time>
      </trkpt>
      <trkpt lat="43.91779" lon="7.20988">
        <ele>827.7</ele>
        <time>2013-04-12T08:50:45Z</time>
      </trkpt>
      <trkpt lat="43.91779" lon="7.21002">
        <ele>829.2</ele>
        <time>2013-04-12T08:50:57Z</time>
      </trkpt>
      <trkpt lat="43.9178" lon="7.21015">
        <ele>828.6</ele>
        <time>2013-04-12T08:51:06Z</time>
      </trkpt>
      <trkpt lat="43.9178" lon="7.21028">
        <ele>828.2</ele>
        <time>2013-04-12T08:51:15Z</time>
      </trkpt>
      <trkpt lat="43.91787" lon="7.21047">
        <ele>831.2</ele>
        <time>2013-04-12T08:51:35Z</time>
      </trkpt>
      <trkpt lat="43.9179" lon="7.21059">
        <ele>832.6</ele>
        <time>2013-04-12T08:51:48Z</time>
      </trkpt>
      <trkpt lat="43.91793" lon="7.2107">
        <ele>833</ele>
        <time>2013-04-12T08:51:58Z</time>
      </trkpt>
      <trkpt lat="43.91798" lon="7.21081">
        <ele>833.1</ele>
        <time>2013-04-12T08:52:12Z</time>
      </trkpt>
      <trkpt lat="43.91799" lon="7.21093">
        <ele>834.4</ele>
        <time>2013-04-12T08:52:21Z</time>
      </trkpt>
      <trkpt lat="43.91802" lon="7.21104">
        <ele>836.5</ele>
        <time>2013-04-12T08:52:47Z</time>
      </trkpt>
      <trkpt lat="43.91811" lon="7.21108">
        <ele>839</ele>
        <time>2013-04-12T08:52:57Z</time>
      </trkpt>
      <trkpt lat="43.91824" lon="7.21113">
        <ele>842.5</ele>
        <time>2013-04-12T08:53:12Z</time>
      </trkpt>
      <trkpt lat="43.91832" lon="7.21117">
        <ele>844.5</ele>
        <time>2013-04-12T08:53:19Z</time>
      </trkpt>
      <trkpt lat="43.91841" lon="7.21121">
        <ele>847.2</ele>
        <time>2013-04-12T08:53:30Z</time>
      </trkpt>
      <trkpt lat="43.9185" lon="7.21123">
        <ele>852.1</ele>
        <time>2013-04-12T08:53:41Z</time>
      </trkpt>
      <trkpt lat="43.91859" lon="7.21126">
        <ele>854</ele>
        <time>2013-04-12T08:53:51Z</time>
      </trkpt>
      <trkpt lat="43.91873" lon="7.21142">
        <ele>855.5</ele>
        <time>2013-04-12T08:54:06Z</time>
      </trkpt>
      <trkpt lat="43.91881" lon="7.21147">
        <ele>857.1</ele>
        <time>2013-04-12T08:54:14Z</time>
      </trkpt>
      <trkpt lat="43.91891" lon="7.21155">
        <ele>859.9</ele>
        <time>2013-04-12T08:54:26Z</time>
      </trkpt>
      <trkpt lat="43.91897" lon="7.21164">
        <ele>860.5</ele>
        <time>2013-04-12T08:54:34Z</time>
      </trkpt>
      <trkpt lat="43.91901" lon="7.21175">
        <ele>863.3</ele>
        <time>2013-04-12T08:54:43Z</time>
      </trkpt>
      <trkpt lat="43.91908" lon="7.21183">
        <ele>861.3</ele>
        <time>2013-04-12T08:55:14Z</time>
      </trkpt>
      <trkpt lat="43.91913" lon="7.21195">
        <ele>861.6</ele>
        <time>2013-04-12T08:55:25Z</time>
      </trkpt>
      <trkpt lat="43.91919" lon="7.21208">
        <ele>862.7</ele>
        <time>2013-04-12T08:55:34Z</time>
      </trkpt>
      <trkpt lat="43.91926" lon="7.21215">
        <ele>863.6</ele>
        <time>2013-04-12T08:55:42Z</time>
      </trkpt>
      <trkpt lat="43.91934" lon="7.21223">
        <ele>865.5</ele>
        <time>2013-04-12T08:55:54Z</time>
      </trkpt>
      <trkpt lat="43.91941" lon="7.21231">
        <ele>866.1</ele>
        <time>2013-04-12T08:56:03Z</time>
      </trkpt>
      <trkpt lat="43.91948" lon="7.21238">
        <ele>867.1</ele>
        <time>2013-04-12T08:56:10Z</time>
      </trkpt>
      <trkpt lat="43.91954" lon="7.21245">
        <ele>867.7</ele>
        <time>2013-04-12T08:56:17Z</time>
      </trkpt>
      <trkpt lat="43.91961" lon="7.21253">
        <ele>867.2</ele>
        <time>2013-04-12T08:56:31Z</time>
      </trkpt>
      <trkpt lat="43.91966" lon="7.21263">
        <ele>866</ele>
        <time>2013-04-12T08:56:39Z</time>
      </trkpt>
      <trkpt lat="43.91971" lon="7.21277">
        <ele>864.1</ele>
        <time>2013-04-12T08:56:50Z</time>
      </trkpt>
      <trkpt lat="43.91975" lon="7.21287">
        <ele>863.9</ele>
        <time>2013-04-12T08:57:04Z</time>
      </trkpt>
      <trkpt lat="43.9198" lon="7.21321">
        <ele>865.2</ele>
        <time>2013-04-12T08:57:33Z</time>
      </trkpt>
      <trkpt lat="43.91977" lon="7.21346">
        <ele>868.7</ele>
        <time>2013-04-12T08:58:00Z</time>
      </trkpt>
      <trkpt lat="43.91977" lon="7.21365">
        <ele>870.5</ele>
        <time>2013-04-12T08:58:18Z</time>
      </trkpt>
      <trkpt lat="43.91975" lon="7.21376">
        <ele>871.2</ele>
        <time>2013-04-12T08:58:49Z</time>
      </trkpt>
      <trkpt lat="43.91972" lon="7.21388">
        <ele>870.8</ele>
        <time>2013-04-12T08:59:01Z</time>
      </trkpt>
      <trkpt lat="43.91973" lon="7.21402">
        <ele>871.5</ele>
        <time>2013-04-12T08:59:11Z</time>
      </trkpt>
      <trkpt lat="43.91984" lon="7.21431">
        <ele>873.6</ele>
        <time>2013-04-12T08:59:43Z</time>
      </trkpt>
      <trkpt lat="43.91987" lon="7.21446">
        <ele>875.1</ele>
        <time>2013-04-12T08:59:59Z</time>
      </trkpt>
      <trkpt lat="43.91994" lon="7.21461">
        <ele>876.4</ele>
        <time>2013-04-12T09:00:13Z</time>
      </trkpt>
      <trkpt lat="43.92005" lon="7.21485">
        <ele>878.7</ele>
        <time>2013-04-12T09:00:33Z</time>
      </trkpt>
      <trkpt lat="43.92009" lon="7.21496">
        <ele>878.7</ele>
        <time>2013-04-12T09:00:44Z</time>
      </trkpt>
      <trkpt lat="43.92009" lon="7.21508">
        <ele>880.4</ele>
        <time>2013-04-12T09:00:54Z</time>
      </trkpt>
      <trkpt lat="43.92006" lon="7.21532">
        <ele>882.8</ele>
        <time>2013-04-12T09:01:13Z</time>
      </trkpt>
      <trkpt lat="43.92004" lon="7.21543">
        <ele>885.5</ele>
        <time>2013-04-12T09:01:24Z</time>
      </trkpt>
      <trkpt lat="43.92001" lon="7.21562">
        <ele>886.5</ele>
        <time>2013-04-12T09:02:46Z</time>
      </trkpt>
      <trkpt lat="43.91998" lon="7.21583">
        <ele>889.2</ele>
        <time>2013-04-12T09:03:04Z</time>
      </trkpt>
      <trkpt lat="43.91988" lon="7.21625">
        <ele>896.9</ele>
        <time>2013-04-12T09:03:44Z</time>
      </trkpt>
      <trkpt lat="43.91985" lon="7.21646">
        <ele>899.9</ele>
        <time>2013-04-12T09:04:00Z</time>
      </trkpt>
      <trkpt lat="43.91985" lon="7.21657">
        <ele>901.4</ele>
        <time>2013-04-12T09:04:08Z</time>
      </trkpt>
      <trkpt lat="43.91987" lon="7.21672">
        <ele>902.4</ele>
        <time>2013-04-12T09:04:20Z</time>
      </trkpt>
      <trkpt lat="43.9199" lon="7.21683">
        <ele>902.4</ele>
        <time>2013-04-12T09:04:28Z</time>
      </trkpt>
      <trkpt lat="43.91997" lon="7.21697">
        <ele>902.6</ele>
        <time>2013-04-12T09:04:39Z</time>
      </trkpt>
      <trkpt lat="43.92003" lon="7.21708">
        <ele>905.8</ele>
        <time>2013-04-12T09:04:48Z</time>
      </trkpt>
      <trkpt lat="43.92009" lon="7.2172">
        <ele>908.7</ele>
        <time>2013-04-12T09:04:58Z</time>
      </trkpt>
      <trkpt lat="43.92024" lon="7.21739">
        <ele>913.2</ele>
        <time>2013-04-12T09:05:32Z</time>
      </trkpt>
      <trkpt lat="43.92035" lon="7.21752">
        <ele>916.5</ele>
        <time>2013-04-12T09:05:51Z</time>
      </trkpt>
      <trkpt lat="43.92042" lon="7.21757">
        <ele>919.2</ele>
        <time>2013-04-12T09:06:08Z</time>
      </trkpt>
      <trkpt lat="43.92057" lon="7.21766">
        <ele>923.1</ele>
        <time>2013-04-12T09:06:28Z</time>
      </trkpt>
      <trkpt lat="43.92068" lon="7.2177">
        <ele>925.8</ele>
        <time>2013-04-12T09:06:43Z</time>
      </trkpt>
      <trkpt lat="43.92081" lon="7.21769">
        <ele>927.2</ele>
        <time>2013-04-12T09:06:57Z</time>
      </trkpt>
      <trkpt lat="43.92088" lon="7.21772">
        <ele>931.5</ele>
        <time>2013-04-12T09:07:09Z</time>
      </trkpt>
      <trkpt lat="43.92099" lon="7.2179">
        <ele>937</ele>
        <time>2013-04-12T09:07:46Z</time>
      </trkpt>
      <trkpt lat="43.92104" lon="7.218">
        <ele>937.1</ele>
        <time>2013-04-12T09:08:00Z</time>
      </trkpt>
      <trkpt lat="43.92105" lon="7.21815">
        <ele>937.5</ele>
        <time>2013-04-12T09:08:12Z</time>
      </trkpt>
      <trkpt lat="43.92104" lon="7.21826">
        <ele>938.4</ele>
        <time>2013-04-12T09:08:21Z</time>
      </trkpt>
      <trkpt lat="43.92115" lon="7.21831">
        <ele>942.9</ele>
        <time>2013-04-12T09:08:44Z</time>
      </trkpt>
      <trkpt lat="43.92121" lon="7.21842">
        <ele>943.4</ele>
        <time>2013-04-12T09:08:57Z</time>
      </trkpt>
      <trkpt lat="43.92127" lon="7.21848">
        <ele>943.9</ele>
        <time>2013-04-12T09:09:05Z</time>
      </trkpt>
      <trkpt lat="43.92134" lon="7.21857">
        <ele>945.5</ele>
        <time>2013-04-12T09:09:21Z</time>
      </trkpt>
      <trkpt lat="43.92132" lon="7.21876">
        <ele>947.6</ele>
        <time>2013-04-12T09:09:42Z</time>
      </trkpt>
      <trkpt lat="43.92133" lon="7.21889">
        <ele>949.5</ele>
        <time>2013-04-12T09:09:56Z</time>
      </trkpt>
      <trkpt lat="43.92137" lon="7.219">
        <ele>948.9</ele>
        <time>2013-04-12T09:10:04Z</time>
      </trkpt>
      <trkpt lat="43.92144" lon="7.21912">
        <ele>949.3</ele>
        <time>2013-04-12T09:10:14Z</time>
      </trkpt>
      <trkpt lat="43.92149" lon="7.21922">
        <ele>949.7</ele>
        <time>2013-04-12T09:11:06Z</time>
      </trkpt>
      <trkpt lat="43.92143" lon="7.2193">
        <ele>950.1</ele>
        <time>2013-04-12T09:12:16Z</time>
      </trkpt>
      <trkpt lat="43.92135" lon="7.21928">
        <ele>949.2</ele>
        <time>2013-04-12T09:15:06Z</time>
      </trkpt>
      <trkpt lat="43.92127" lon="7.21934">
        <ele>949.5</ele>
        <time>2013-04-12T09:15:14Z</time>
      </trkpt>
      <trkpt lat="43.92119" lon="7.21938">
        <ele>950.8</ele>
        <time>2013-04-12T09:15:26Z</time>
      </trkpt>
      <trkpt lat="43.9211" lon="7.21943">
        <ele>952.2</ele>
        <time>2013-04-12T09:15:37Z</time>
      </trkpt>
      <trkpt lat="43.92101" lon="7.21946">
        <ele>950.9</ele>
        <time>2013-04-12T09:15:50Z</time>
      </trkpt>
      <trkpt lat="43.92083" lon="7.21958">
        <ele>952.4</ele>
        <time>2013-04-12T09:16:20Z</time>
      </trkpt>
      <trkpt lat="43.92075" lon="7.21966">
        <ele>952.6</ele>
        <time>2013-04-12T09:16:31Z</time>
      </trkpt>
      <trkpt lat="43.92054" lon="7.21981">
        <ele>955.8</ele>
        <time>2013-04-12T09:17:14Z</time>
      </trkpt>
      <trkpt lat="43.92034" lon="7.21989">
        <ele>959</ele>
        <time>2013-04-12T09:18:11Z</time>
      </trkpt>
      <trkpt lat="43.92021" lon="7.21986">
        <ele>960.1</ele>
        <time>2013-04-12T09:18:24Z</time>
      </trkpt>
      <trkpt lat="43.92011" lon="7.21989">
        <ele>962.9</ele>
        <time>2013-04-12T09:18:32Z</time>
      </trkpt>
      <trkpt lat="43.92004" lon="7.21998">
        <ele>964.6</ele>
        <time>2013-04-12T09:18:42Z</time>
      </trkpt>
      <trkpt lat="43.91993" lon="7.22006">
        <ele>965</ele>
        <time>2013-04-12T09:18:53Z</time>
      </trkpt>
      <trkpt lat="43.91984" lon="7.22009">
        <ele>966.3</ele>
        <time>2013-04-12T09:19:01Z</time>
      </trkpt>
      <trkpt lat="43.91972" lon="7.22012">
        <ele>967.9</ele>
        <time>2013-04-12T09:19:19Z</time>
      </trkpt>
      <trkpt lat="43.91964" lon="7.22012">
        <ele>969</ele>
        <time>2013-04-12T09:19:27Z</time>
      </trkpt>
      <trkpt lat="43.91953" lon="7.22009">
        <ele>970.6</ele>
        <time>2013-04-12T09:19:36Z</time>
      </trkpt>
      <trkpt lat="43.91943" lon="7.22009">
        <ele>971.4</ele>
        <time>2013-04-12T09:19:44Z</time>
      </trkpt>
      <trkpt lat="43.91935" lon="7.22011">
        <ele>972.9</ele>
        <time>2013-04-12T09:19:53Z</time>
      </trkpt>
      <trkpt lat="43.91924" lon="7.22015">
        <ele>974.6</ele>
        <time>2013-04-12T09:20:03Z</time>
      </trkpt>
      <trkpt lat="43.91914" lon="7.22016">
        <ele>975.9</ele>
        <time>2013-04-12T09:20:12Z</time>
      </trkpt>
      <trkpt lat="43.91903" lon="7.22015">
        <ele>977.5</ele>
        <time>2013-04-12T09:20:25Z</time>
      </trkpt>
      <trkpt lat="43.91894" lon="7.22015">
        <ele>978.7</ele>
        <time>2013-04-12T09:21:13Z</time>
      </trkpt>
      <trkpt lat="43.9188" lon="7.2202">
        <ele>980.1</ele>
        <time>2013-04-12T09:21:41Z</time>
      </trkpt>
      <trkpt lat="43.91869" lon="7.22026">
        <ele>981.3</ele>
        <time>2013-04-12T09:21:51Z</time>
      </trkpt>
      <trkpt lat="43.9186" lon="7.2203">
        <ele>982.6</ele>
        <time>2013-04-12T09:21:58Z</time>
      </trkpt>
      <trkpt lat="43.91853" lon="7.22038">
        <ele>984</ele>
        <time>2013-04-12T09:22:05Z</time>
      </trkpt>
      <trkpt lat="43.91847" lon="7.22046">
        <ele>985.1</ele>
        <time>2013-04-12T09:22:12Z</time>
      </trkpt>
      <trkpt lat="43.91836" lon="7.22058">
        <ele>987.3</ele>
        <time>2013-04-12T09:22:24Z</time>
      </trkpt>
      <trkpt lat="43.91829" lon="7.22065">
        <ele>988.4</ele>
        <time>2013-04-12T09:22:33Z</time>
      </trkpt>
      <trkpt lat="43.91834" lon="7.2208">
        <ele>992.1</ele>
        <time>2013-04-12T09:22:51Z</time>
      </trkpt>
      <trkpt lat="43.91842" lon="7.22081">
        <ele>993.7</ele>
        <time>2013-04-12T09:23:00Z</time>
      </trkpt>
      <trkpt lat="43.91856" lon="7.22088">
        <ele>999.7</ele>
        <time>2013-04-12T09:23:55Z</time>
      </trkpt>
      <trkpt lat="43.91867" lon="7.22093">
        <ele>1001.1</ele>
        <time>2013-04-12T09:24:28Z</time>
      </trkpt>
      <trkpt lat="43.91895" lon="7.2211">
        <ele>1006.9</ele>
        <time>2013-04-12T09:25:06Z</time>
      </trkpt>
      <trkpt lat="43.91904" lon="7.22117">
        <ele>1007.4</ele>
        <time>2013-04-12T09:25:18Z</time>
      </trkpt>
      <trkpt lat="43.91924" lon="7.22132">
        <ele>1009.2</ele>
        <time>2013-04-12T09:25:43Z</time>
      </trkpt>
      <trkpt lat="43.91924" lon="7.2215">
        <ele>1013.7</ele>
        <time>2013-04-12T09:26:08Z</time>
      </trkpt>
      <trkpt lat="43.91913" lon="7.22153">
        <ele>1016.5</ele>
        <time>2013-04-12T09:26:32Z</time>
      </trkpt>
      <trkpt lat="43.919" lon="7.22156">
        <ele>1019.4</ele>
        <time>2013-04-12T09:26:50Z</time>
      </trkpt>
      <trkpt lat="43.91886" lon="7.22166">
        <ele>1024.5</ele>
        <time>2013-04-12T09:27:13Z</time>
      </trkpt>
      <trkpt lat="43.91867" lon="7.22196">
        <ele>1030.5</ele>
        <time>2013-04-12T09:28:04Z</time>
      </trkpt>
      <trkpt lat="43.91881" lon="7.22199">
        <ele>1032.6</ele>
        <time>2013-04-12T09:28:32Z</time>
      </trkpt>
      <trkpt lat="43.91889" lon="7.22203">
        <ele>1035.4</ele>
        <time>2013-04-12T09:28:44Z</time>
      </trkpt>
      <trkpt lat="43.91901" lon="7.22211">
        <ele>1040.2</ele>
        <time>2013-04-12T09:29:24Z</time>
      </trkpt>
      <trkpt lat="43.91906" lon="7.22221">
        <ele>1040.9</ele>
        <time>2013-04-12T09:29:32Z</time>
      </trkpt>
      <trkpt lat="43.91911" lon="7.2223">
        <ele>1043.2</ele>
        <time>2013-04-12T09:29:40Z</time>
      </trkpt>
      <trkpt lat="43.91912" lon="7.22242">
        <ele>1045.4</ele>
        <time>2013-04-12T09:29:56Z</time>
      </trkpt>
      <trkpt lat="43.91908" lon="7.22253">
        <ele>1045.7</ele>
        <time>2013-04-12T09:30:04Z</time>
      </trkpt>
      <trkpt lat="43.91902" lon="7.22265">
        <ele>1046.6</ele>
        <time>2013-04-12T09:30:14Z</time>
      </trkpt>
      <trkpt lat="43.91901" lon="7.2228">
        <ele>1050.7</ele>
        <time>2013-04-12T09:30:36Z</time>
      </trkpt>
      <trkpt lat="43.91898" lon="7.22291">
        <ele>1052.5</ele>
        <time>2013-04-12T09:30:46Z</time>
      </trkpt>
      <trkpt lat="43.91899" lon="7.22317">
        <ele>1054.7</ele>
        <time>2013-04-12T09:31:00Z</time>
      </trkpt>
      <trkpt lat="43.91903" lon="7.22335">
        <ele>1054.4</ele>
        <time>2013-04-12T09:31:07Z</time>
      </trkpt>
      <trkpt lat="43.91907" lon="7.22346">
        <ele>1055</ele>
        <time>2013-04-12T09:31:12Z</time>
      </trkpt>
      <trkpt lat="43.9191" lon="7.22363">
        <ele>1057</ele>
        <time>2013-04-12T09:31:23Z</time>
      </trkpt>
      <trkpt lat="43.9191" lon="7.22374">
        <ele>1057.2</ele>
        <time>2013-04-12T09:31:30Z</time>
      </trkpt>
      <trkpt lat="43.9191" lon="7.22388">
        <ele>1058</ele>
        <time>2013-04-12T09:31:38Z</time>
      </trkpt>
      <trkpt lat="43.91908" lon="7.22405">
        <ele>1059.2</ele>
        <time>2013-04-12T09:31:49Z</time>
      </trkpt>
      <trkpt lat="43.91907" lon="7.2242">
        <ele>1060.6</ele>
        <time>2013-04-12T09:31:58Z</time>
      </trkpt>
      <trkpt lat="43.91906" lon="7.22432">
        <ele>1061.1</ele>
        <time>2013-04-12T09:32:06Z</time>
      </trkpt>
      <trkpt lat="43.91902" lon="7.22443">
        <ele>1061.2</ele>
        <time>2013-04-12T09:32:12Z</time>
      </trkpt>
      <trkpt lat="43.91895" lon="7.22456">
        <ele>1062.8</ele>
        <time>2013-04-12T09:32:22Z</time>
      </trkpt>
      <trkpt lat="43.91887" lon="7.22466">
        <ele>1063.2</ele>
        <time>2013-04-12T09:32:33Z</time>
      </trkpt>
      <trkpt lat="43.91879" lon="7.22474">
        <ele>1062.1</ele>
        <time>2013-04-12T09:32:40Z</time>
      </trkpt>
      <trkpt lat="43.91862" lon="7.22485">
        <ele>1063.9</ele>
        <time>2013-04-12T09:32:55Z</time>
      </trkpt>
      <trkpt lat="43.91855" lon="7.2249">
        <ele>1064.1</ele>
        <time>2013-04-12T09:33:01Z</time>
      </trkpt>
      <trkpt lat="43.91845" lon="7.22499">
        <ele>1062.9</ele>
        <time>2013-04-12T09:33:09Z</time>
      </trkpt>
      <trkpt lat="43.91837" lon="7.22505">
        <ele>1062.6</ele>
        <time>2013-04-12T09:33:19Z</time>
      </trkpt>
      <trkpt lat="43.91829" lon="7.22515">
        <ele>1062.8</ele>
        <time>2013-04-12T09:33:27Z</time>
      </trkpt>
      <trkpt lat="43.91822" lon="7.22525">
        <ele>1061.7</ele>
        <time>2013-04-12T09:33:35Z</time>
      </trkpt>
      <trkpt lat="43.91815" lon="7.22533">
        <ele>1060.5</ele>
        <time>2013-04-12T09:33:42Z</time>
      </trkpt>
      <trkpt lat="43.91809" lon="7.22541">
        <ele>1060.7</ele>
        <time>2013-04-12T09:33:49Z</time>
      </trkpt>
      <trkpt lat="43.91802" lon="7.22549">
        <ele>1059.5</ele>
        <time>2013-04-12T09:33:56Z</time>
      </trkpt>
      <trkpt lat="43.91796" lon="7.22558">
        <ele>1059.9</ele>
        <time>2013-04-12T09:34:04Z</time>
      </trkpt>
      <trkpt lat="43.91785" lon="7.22562">
        <ele>1060.1</ele>
        <time>2013-04-12T09:34:15Z</time>
      </trkpt>
      <trkpt lat="43.91772" lon="7.22569">
        <ele>1059.5</ele>
        <time>2013-04-12T09:34:28Z</time>
      </trkpt>
      <trkpt lat="43.91765" lon="7.22574">
        <ele>1060.5</ele>
        <time>2013-04-12T09:34:37Z</time>
      </trkpt>
      <trkpt lat="43.9175" lon="7.22585">
        <ele>1060.5</ele>
        <time>2013-04-12T09:34:48Z</time>
      </trkpt>
      <trkpt lat="43.9174" lon="7.22593">
        <ele>1060.9</ele>
        <time>2013-04-12T09:34:56Z</time>
      </trkpt>
      <trkpt lat="43.91734" lon="7.22602">
        <ele>1059.3</ele>
        <time>2013-04-12T09:35:03Z</time>
      </trkpt>
      <trkpt lat="43.91727" lon="7.22614">
        <ele>1056.7</ele>
        <time>2013-04-12T09:35:12Z</time>
      </trkpt>
      <trkpt lat="43.91722" lon="7.22624">
        <ele>1056</ele>
        <time>2013-04-12T09:35:19Z</time>
      </trkpt>
      <trkpt lat="43.91711" lon="7.22643">
        <ele>1053</ele>
        <time>2013-04-12T09:35:32Z</time>
      </trkpt>
      <trkpt lat="43.91706" lon="7.22657">
        <ele>1051.8</ele>
        <time>2013-04-12T09:35:41Z</time>
      </trkpt>
      <trkpt lat="43.91703" lon="7.2267">
        <ele>1050.4</ele>
        <time>2013-04-12T09:35:50Z</time>
      </trkpt>
      <trkpt lat="43.91699" lon="7.22683">
        <ele>1050.2</ele>
        <time>2013-04-12T09:35:58Z</time>
      </trkpt>
      <trkpt lat="43.91693" lon="7.22694">
        <ele>1049.3</ele>
        <time>2013-04-12T09:36:06Z</time>
      </trkpt>
      <trkpt lat="43.91687" lon="7.22711">
        <ele>1047.6</ele>
        <time>2013-04-12T09:36:19Z</time>
      </trkpt>
      <trkpt lat="43.91689" lon="7.22729">
        <ele>1044.5</ele>
        <time>2013-04-12T09:36:30Z</time>
      </trkpt>
      <trkpt lat="43.91686" lon="7.22742">
        <ele>1043.7</ele>
        <time>2013-04-12T09:36:45Z</time>
      </trkpt>
      <trkpt lat="43.91684" lon="7.22755">
        <ele>1043</ele>
        <time>2013-04-12T09:36:54Z</time>
      </trkpt>
      <trkpt lat="43.91678" lon="7.22769">
        <ele>1043</ele>
        <time>2013-04-12T09:37:04Z</time>
      </trkpt>
      <trkpt lat="43.9167" lon="7.22775">
        <ele>1041.7</ele>
        <time>2013-04-12T09:37:12Z</time>
      </trkpt>
      <trkpt lat="43.9166" lon="7.22789">
        <ele>1041.1</ele>
        <time>2013-04-12T09:37:24Z</time>
      </trkpt>
      <trkpt lat="43.91653" lon="7.22796">
        <ele>1041</ele>
        <time>2013-04-12T09:37:30Z</time>
      </trkpt>
      <trkpt lat="43.91648" lon="7.22806">
        <ele>1040.1</ele>
        <time>2013-04-12T09:37:38Z</time>
      </trkpt>
      <trkpt lat="43.91643" lon="7.22816">
        <ele>1038.5</ele>
        <time>2013-04-12T09:37:45Z</time>
      </trkpt>
      <trkpt lat="43.91641" lon="7.22829">
        <ele>1038</ele>
        <time>2013-04-12T09:37:53Z</time>
      </trkpt>
      <trkpt lat="43.91638" lon="7.2284">
        <ele>1040</ele>
        <time>2013-04-12T09:38:02Z</time>
      </trkpt>
      <trkpt lat="43.91634" lon="7.22851">
        <ele>1040.3</ele>
        <time>2013-04-12T09:38:11Z</time>
      </trkpt>
      <trkpt lat="43.9163" lon="7.22862">
        <ele>1041.4</ele>
        <time>2013-04-12T09:38:20Z</time>
      </trkpt>
      <trkpt lat="43.91625" lon="7.22875">
        <ele>1042.5</ele>
        <time>2013-04-12T09:38:31Z</time>
      </trkpt>
      <trkpt lat="43.91619" lon="7.22885">
        <ele>1043.5</ele>
        <time>2013-04-12T09:38:40Z</time>
      </trkpt>
      <trkpt lat="43.91616" lon="7.22896">
        <ele>1044.2</ele>
        <time>2013-04-12T09:38:48Z</time>
      </trkpt>
      <trkpt lat="43.91612" lon="7.22908">
        <ele>1045.4</ele>
        <time>2013-04-12T09:38:57Z</time>
      </trkpt>
      <trkpt lat="43.91606" lon="7.22918">
        <ele>1045.9</ele>
        <time>2013-04-12T09:39:04Z</time>
      </trkpt>
      <trkpt lat="43.91601" lon="7.22929">
        <ele>1045.9</ele>
        <time>2013-04-12T09:39:12Z</time>
      </trkpt>
      <trkpt lat="43.916" lon="7.22941">
        <ele>1045.9</ele>
        <time>2013-04-12T09:39:20Z</time>
      </trkpt>
      <trkpt lat="43.916" lon="7.22954">
        <ele>1046.4</ele>
        <time>2013-04-12T09:39:28Z</time>
      </trkpt>
      <trkpt lat="43.91601" lon="7.22974">
        <ele>1048.9</ele>
        <time>2013-04-12T09:39:42Z</time>
      </trkpt>
      <trkpt lat="43.91601" lon="7.22987">
        <ele>1050.4</ele>
        <time>2013-04-12T09:39:51Z</time>
      </trkpt>
      <trkpt lat="43.91602" lon="7.22999">
        <ele>1052.9</ele>
        <time>2013-04-12T09:40:01Z</time>
      </trkpt>
      <trkpt lat="43.91605" lon="7.2301">
        <ele>1053.6</ele>
        <time>2013-04-12T09:40:09Z</time>
      </trkpt>
      <trkpt lat="43.91608" lon="7.23021">
        <ele>1053.8</ele>
        <time>2013-04-12T09:40:16Z</time>
      </trkpt>
      <trkpt lat="43.91611" lon="7.23032">
        <ele>1054.6</ele>
        <time>2013-04-12T09:40:24Z</time>
      </trkpt>
      <trkpt lat="43.91617" lon="7.23047">
        <ele>1057.3</ele>
        <time>2013-04-12T09:40:36Z</time>
      </trkpt>
      <trkpt lat="43.91623" lon="7.23066">
        <ele>1058.3</ele>
        <time>2013-04-12T09:40:55Z</time>
      </trkpt>
      <trkpt lat="43.91624" lon="7.23078">
        <ele>1057.7</ele>
        <time>2013-04-12T09:41:04Z</time>
      </trkpt>
      <trkpt lat="43.91621" lon="7.23093">
        <ele>1058.8</ele>
        <time>2013-04-12T09:41:24Z</time>
      </trkpt>
      <trkpt lat="43.91617" lon="7.23104">
        <ele>1059.5</ele>
        <time>2013-04-12T09:41:53Z</time>
      </trkpt>
      <trkpt lat="43.91609" lon="7.23102">
        <ele>1058.2</ele>
        <time>2013-04-12T09:42:20Z</time>
      </trkpt>
      <trkpt lat="43.916" lon="7.231">
        <ele>1057.5</ele>
        <time>2013-04-12T09:42:33Z</time>
      </trkpt>
      <trkpt lat="43.9159" lon="7.23099">
        <ele>1056</ele>
        <time>2013-04-12T09:42:40Z</time>
      </trkpt>
      <trkpt lat="43.91581" lon="7.23101">
        <ele>1056.6</ele>
        <time>2013-04-12T09:42:46Z</time>
      </trkpt>
      <trkpt lat="43.91571" lon="7.23108">
        <ele>1057.2</ele>
        <time>2013-04-12T09:42:56Z</time>
      </trkpt>
      <trkpt lat="43.91564" lon="7.23115">
        <ele>1057.6</ele>
        <time>2013-04-12T09:43:03Z</time>
      </trkpt>
      <trkpt lat="43.91556" lon="7.23124">
        <ele>1058</ele>
        <time>2013-04-12T09:43:11Z</time>
      </trkpt>
      <trkpt lat="43.91544" lon="7.23133">
        <ele>1057.3</ele>
        <time>2013-04-12T09:43:22Z</time>
      </trkpt>
      <trkpt lat="43.91535" lon="7.23137">
        <ele>1056.9</ele>
        <time>2013-04-12T09:43:28Z</time>
      </trkpt>
      <trkpt lat="43.91527" lon="7.23143">
        <ele>1058.3</ele>
        <time>2013-04-12T09:43:35Z</time>
      </trkpt>
      <trkpt lat="43.91519" lon="7.23146">
        <ele>1057.9</ele>
        <time>2013-04-12T09:43:44Z</time>
      </trkpt>
      <trkpt lat="43.91499" lon="7.23153">
        <ele>1058.1</ele>
        <time>2013-04-12T09:43:59Z</time>
      </trkpt>
      <trkpt lat="43.91486" lon="7.23154">
        <ele>1058.8</ele>
        <time>2013-04-12T09:44:10Z</time>
      </trkpt>
      <trkpt lat="43.91476" lon="7.23158">
        <ele>1059.8</ele>
        <time>2013-04-12T09:44:24Z</time>
      </trkpt>
      <trkpt lat="43.91464" lon="7.2316">
        <ele>1062.3</ele>
        <time>2013-04-12T09:44:39Z</time>
      </trkpt>
      <trkpt lat="43.91454" lon="7.23155">
        <ele>1066</ele>
        <time>2013-04-12T09:44:52Z</time>
      </trkpt>
      <trkpt lat="43.91445" lon="7.23152">
        <ele>1067.8</ele>
        <time>2013-04-12T09:45:04Z</time>
      </trkpt>
      <trkpt lat="43.91436" lon="7.23149">
        <ele>1070.2</ele>
        <time>2013-04-12T09:45:16Z</time>
      </trkpt>
      <trkpt lat="43.91425" lon="7.23141">
        <ele>1070.6</ele>
        <time>2013-04-12T09:45:40Z</time>
      </trkpt>
      <trkpt lat="43.91416" lon="7.23135">
        <ele>1072.2</ele>
        <time>2013-04-12T09:45:59Z</time>
      </trkpt>
      <trkpt lat="43.91409" lon="7.23128">
        <ele>1073.7</ele>
        <time>2013-04-12T09:46:09Z</time>
      </trkpt>
      <trkpt lat="43.91404" lon="7.23142">
        <ele>1079.7</ele>
        <time>2013-04-12T09:46:36Z</time>
      </trkpt>
      <trkpt lat="43.91401" lon="7.23152">
        <ele>1082.1</ele>
        <time>2013-04-12T09:47:03Z</time>
      </trkpt>
      <trkpt lat="43.91395" lon="7.23143">
        <ele>1083.4</ele>
        <time>2013-04-12T09:47:15Z</time>
      </trkpt>
      <trkpt lat="43.91388" lon="7.23137">
        <ele>1085</ele>
        <time>2013-04-12T09:47:25Z</time>
      </trkpt>
      <trkpt lat="43.91379" lon="7.23125">
        <ele>1087.2</ele>
        <time>2013-04-12T09:47:40Z</time>
      </trkpt>
      <trkpt lat="43.91376" lon="7.2314">
        <ele>1089.9</ele>
        <time>2013-04-12T09:48:06Z</time>
      </trkpt>
      <trkpt lat="43.91367" lon="7.23137">
        <ele>1093.3</ele>
        <time>2013-04-12T09:48:54Z</time>
      </trkpt>
      <trkpt lat="43.91359" lon="7.2313">
        <ele>1095.8</ele>
        <time>2013-04-12T09:49:03Z</time>
      </trkpt>
      <trkpt lat="43.91356" lon="7.23141">
        <ele>1099.4</ele>
        <time>2013-04-12T09:49:21Z</time>
      </trkpt>
      <trkpt lat="43.91354" lon="7.23153">
        <ele>1101.1</ele>
        <time>2013-04-12T09:49:31Z</time>
      </trkpt>
      <trkpt lat="43.91349" lon="7.23143">
        <ele>1103</ele>
        <time>2013-04-12T09:50:01Z</time>
      </trkpt>
      <trkpt lat="43.9134" lon="7.23135">
        <ele>1104.3</ele>
        <time>2013-04-12T09:50:14Z</time>
      </trkpt>
      <trkpt lat="43.91336" lon="7.23145">
        <ele>1104.9</ele>
        <time>2013-04-12T09:50:30Z</time>
      </trkpt>
      <trkpt lat="43.91333" lon="7.23157">
        <ele>1107.1</ele>
        <time>2013-04-12T09:50:44Z</time>
      </trkpt>
      <trkpt lat="43.91328" lon="7.23147">
        <ele>1108.3</ele>
        <time>2013-04-12T09:50:53Z</time>
      </trkpt>
      <trkpt lat="43.91319" lon="7.23141">
        <ele>1109.3</ele>
        <time>2013-04-12T09:51:06Z</time>
      </trkpt>
      <trkpt lat="43.91313" lon="7.23133">
        <ele>1110.4</ele>
        <time>2013-04-12T09:51:18Z</time>
      </trkpt>
      <trkpt lat="43.91314" lon="7.23145">
        <ele>1113.2</ele>
        <time>2013-04-12T09:51:35Z</time>
      </trkpt>
      <trkpt lat="43.91304" lon="7.23151">
        <ele>1117</ele>
        <time>2013-04-12T09:51:57Z</time>
      </trkpt>
      <trkpt lat="43.91294" lon="7.23152">
        <ele>1119.4</ele>
        <time>2013-04-12T09:52:12Z</time>
      </trkpt>
      <trkpt lat="43.9129" lon="7.23164">
        <ele>1123.8</ele>
        <time>2013-04-12T09:53:25Z</time>
      </trkpt>
      <trkpt lat="43.91281" lon="7.23144">
        <ele>1126</ele>
        <time>2013-04-12T09:55:00Z</time>
      </trkpt>
      <trkpt lat="43.91278" lon="7.23133">
        <ele>1126.2</ele>
        <time>2013-04-12T09:55:10Z</time>
      </trkpt>
      <trkpt lat="43.91269" lon="7.23137">
        <ele>1127.7</ele>
        <time>2013-04-12T09:55:31Z</time>
      </trkpt>
      <trkpt lat="43.9127" lon="7.2315">
        <ele>1131.6</ele>
        <time>2013-04-12T09:55:43Z</time>
      </trkpt>
      <trkpt lat="43.91269" lon="7.23163">
        <ele>1134.4</ele>
        <time>2013-04-12T09:55:53Z</time>
      </trkpt>
      <trkpt lat="43.9126" lon="7.23159">
        <ele>1140.8</ele>
        <time>2013-04-12T09:56:17Z</time>
      </trkpt>
      <trkpt lat="43.91255" lon="7.23146">
        <ele>1143.4</ele>
        <time>2013-04-12T09:56:30Z</time>
      </trkpt>
      <trkpt lat="43.9125" lon="7.23155">
        <ele>1144.3</ele>
        <time>2013-04-12T09:56:53Z</time>
      </trkpt>
      <trkpt lat="43.91247" lon="7.23169">
        <ele>1146.2</ele>
        <time>2013-04-12T09:57:04Z</time>
      </trkpt>
      <trkpt lat="43.91243" lon="7.23179">
        <ele>1148.2</ele>
        <time>2013-04-12T09:57:12Z</time>
      </trkpt>
      <trkpt lat="43.91239" lon="7.23169">
        <ele>1149.5</ele>
        <time>2013-04-12T09:57:23Z</time>
      </trkpt>
      <trkpt lat="43.91235" lon="7.23159">
        <ele>1150.2</ele>
        <time>2013-04-12T09:57:33Z</time>
      </trkpt>
      <trkpt lat="43.91231" lon="7.23173">
        <ele>1153.6</ele>
        <time>2013-04-12T09:57:54Z</time>
      </trkpt>
      <trkpt lat="43.91228" lon="7.23184">
        <ele>1153.8</ele>
        <time>2013-04-12T09:58:01Z</time>
      </trkpt>
      <trkpt lat="43.91223" lon="7.23195">
        <ele>1153.3</ele>
        <time>2013-04-12T09:58:09Z</time>
      </trkpt>
      <trkpt lat="43.91216" lon="7.23201">
        <ele>1154.5</ele>
        <time>2013-04-12T09:58:18Z</time>
      </trkpt>
      <trkpt lat="43.91208" lon="7.23204">
        <ele>1153.7</ele>
        <time>2013-04-12T09:58:26Z</time>
      </trkpt>
      <trkpt lat="43.91191" lon="7.23213">
        <ele>1155</ele>
        <time>2013-04-12T09:58:52Z</time>
      </trkpt>
      <trkpt lat="43.9118" lon="7.23215">
        <ele>1155.7</ele>
        <time>2013-04-12T09:59:12Z</time>
      </trkpt>
      <trkpt lat="43.91165" lon="7.2322">
        <ele>1157.8</ele>
        <time>2013-04-12T09:59:23Z</time>
      </trkpt>
      <trkpt lat="43.91154" lon="7.23218">
        <ele>1158.6</ele>
        <time>2013-04-12T09:59:31Z</time>
      </trkpt>
      <trkpt lat="43.91145" lon="7.23213">
        <ele>1160.2</ele>
        <time>2013-04-12T09:59:39Z</time>
      </trkpt>
      <trkpt lat="43.91138" lon="7.23205">
        <ele>1160.6</ele>
        <time>2013-04-12T09:59:46Z</time>
      </trkpt>
      <trkpt lat="43.91132" lon="7.23194">
        <ele>1161.1</ele>
        <time>2013-04-12T09:59:54Z</time>
      </trkpt>
      <trkpt lat="43.91125" lon="7.23182">
        <ele>1162.6</ele>
        <time>2013-04-12T10:00:03Z</time>
      </trkpt>
      <trkpt lat="43.9112" lon="7.23172">
        <ele>1164.7</ele>
        <time>2013-04-12T10:00:10Z</time>
      </trkpt>
      <trkpt lat="43.91117" lon="7.23159">
        <ele>1167.8</ele>
        <time>2013-04-12T10:00:18Z</time>
      </trkpt>
      <trkpt lat="43.91117" lon="7.23147">
        <ele>1169.5</ele>
        <time>2013-04-12T10:00:27Z</time>
      </trkpt>
      <trkpt lat="43.91122" lon="7.23138">
        <ele>1171.6</ele>
        <time>2013-04-12T10:05:20Z</time>
      </trkpt>
      <trkpt lat="43.91122" lon="7.23126">
        <ele>1173.2</ele>
        <time>2013-04-12T10:05:29Z</time>
      </trkpt>
      <trkpt lat="43.91124" lon="7.23113">
        <ele>1174.8</ele>
        <time>2013-04-12T10:05:38Z</time>
      </trkpt>
      <trkpt lat="43.91123" lon="7.23102">
        <ele>1176</ele>
        <time>2013-04-12T10:05:46Z</time>
      </trkpt>
      <trkpt lat="43.91117" lon="7.23094">
        <ele>1179.6</ele>
        <time>2013-04-12T10:05:55Z</time>
      </trkpt>
      <trkpt lat="43.91116" lon="7.23082">
        <ele>1182.7</ele>
        <time>2013-04-12T10:06:05Z</time>
      </trkpt>
      <trkpt lat="43.91114" lon="7.23071">
        <ele>1183.8</ele>
        <time>2013-04-12T10:06:12Z</time>
      </trkpt>
      <trkpt lat="43.9111" lon="7.23061">
        <ele>1185.8</ele>
        <time>2013-04-12T10:06:20Z</time>
      </trkpt>
      <trkpt lat="43.91105" lon="7.23047">
        <ele>1186.1</ele>
        <time>2013-04-12T10:06:29Z</time>
      </trkpt>
      <trkpt lat="43.91101" lon="7.23037">
        <ele>1186.8</ele>
        <time>2013-04-12T10:06:36Z</time>
      </trkpt>
      <trkpt lat="43.91093" lon="7.23023">
        <ele>1188.3</ele>
        <time>2013-04-12T10:06:46Z</time>
      </trkpt>
      <trkpt lat="43.91088" lon="7.23013">
        <ele>1188</ele>
        <time>2013-04-12T10:06:53Z</time>
      </trkpt>
      <trkpt lat="43.9108" lon="7.22999">
        <ele>1188.6</ele>
        <time>2013-04-12T10:07:03Z</time>
      </trkpt>
      <trkpt lat="43.91075" lon="7.22989">
        <ele>1188.9</ele>
        <time>2013-04-12T10:07:10Z</time>
      </trkpt>
      <trkpt lat="43.91071" lon="7.22975">
        <ele>1189.2</ele>
        <time>2013-04-12T10:07:18Z</time>
      </trkpt>
      <trkpt lat="43.91066" lon="7.2296">
        <ele>1188.8</ele>
        <time>2013-04-12T10:07:26Z</time>
      </trkpt>
      <trkpt lat="43.91062" lon="7.22947">
        <ele>1189.6</ele>
        <time>2013-04-12T10:07:34Z</time>
      </trkpt>
      <trkpt lat="43.91053" lon="7.22932">
        <ele>1189.9</ele>
        <time>2013-04-12T10:07:45Z</time>
      </trkpt>
      <trkpt lat="43.91046" lon="7.22922">
        <ele>1189.7</ele>
        <time>2013-04-12T10:07:53Z</time>
      </trkpt>
      <trkpt lat="43.91039" lon="7.22915">
        <ele>1189.2</ele>
        <time>2013-04-12T10:07:59Z</time>
      </trkpt>
      <trkpt lat="43.91027" lon="7.229">
        <ele>1188</ele>
        <time>2013-04-12T10:08:10Z</time>
      </trkpt>
      <trkpt lat="43.91021" lon="7.2289">
        <ele>1187.1</ele>
        <time>2013-04-12T10:08:16Z</time>
      </trkpt>
      <trkpt lat="43.91016" lon="7.22877">
        <ele>1187.6</ele>
        <time>2013-04-12T10:08:24Z</time>
      </trkpt>
      <trkpt lat="43.91012" lon="7.22862">
        <ele>1187.9</ele>
        <time>2013-04-12T10:08:32Z</time>
      </trkpt>
      <trkpt lat="43.91009" lon="7.22851">
        <ele>1188.5</ele>
        <time>2013-04-12T10:08:39Z</time>
      </trkpt>
      <trkpt lat="43.91007" lon="7.2284">
        <ele>1189.8</ele>
        <time>2013-04-12T10:08:46Z</time>
      </trkpt>
      <trkpt lat="43.91001" lon="7.22819">
        <ele>1189.9</ele>
        <time>2013-04-12T10:08:59Z</time>
      </trkpt>
      <trkpt lat="43.90997" lon="7.22809">
        <ele>1190.2</ele>
        <time>2013-04-12T10:09:06Z</time>
      </trkpt>
      <trkpt lat="43.90993" lon="7.22797">
        <ele>1190.4</ele>
        <time>2013-04-12T10:09:13Z</time>
      </trkpt>
      <trkpt lat="43.9099" lon="7.22786">
        <ele>1190.6</ele>
        <time>2013-04-12T10:09:19Z</time>
      </trkpt>
      <trkpt lat="43.90987" lon="7.22774">
        <ele>1191</ele>
        <time>2013-04-12T10:09:26Z</time>
      </trkpt>
      <trkpt lat="43.90983" lon="7.22761">
        <ele>1190.7</ele>
        <time>2013-04-12T10:09:34Z</time>
      </trkpt>
      <trkpt lat="43.90977" lon="7.22751">
        <ele>1190.4</ele>
        <time>2013-04-12T10:09:40Z</time>
      </trkpt>
      <trkpt lat="43.90973" lon="7.22741">
        <ele>1190.2</ele>
        <time>2013-04-12T10:09:46Z</time>
      </trkpt>
      <trkpt lat="43.9097" lon="7.22727">
        <ele>1191.2</ele>
        <time>2013-04-12T10:09:54Z</time>
      </trkpt>
      <trkpt lat="43.90968" lon="7.22713">
        <ele>1189.7</ele>
        <time>2013-04-12T10:10:08Z</time>
      </trkpt>
      <trkpt lat="43.90965" lon="7.22693">
        <ele>1189</ele>
        <time>2013-04-12T10:10:19Z</time>
      </trkpt>
      <trkpt lat="43.90964" lon="7.22678">
        <ele>1189.4</ele>
        <time>2013-04-12T10:10:27Z</time>
      </trkpt>
      <trkpt lat="43.90961" lon="7.22662">
        <ele>1190.6</ele>
        <time>2013-04-12T10:10:36Z</time>
      </trkpt>
      <trkpt lat="43.90956" lon="7.22634">
        <ele>1192.5</ele>
        <time>2013-04-12T10:10:51Z</time>
      </trkpt>
      <trkpt lat="43.90952" lon="7.22623">
        <ele>1192.5</ele>
        <time>2013-04-12T10:10:58Z</time>
      </trkpt>
      <trkpt lat="43.90947" lon="7.22612">
        <ele>1192.8</ele>
        <time>2013-04-12T10:11:05Z</time>
      </trkpt>
      <trkpt lat="43.90943" lon="7.226">
        <ele>1193.1</ele>
        <time>2013-04-12T10:11:12Z</time>
      </trkpt>
      <trkpt lat="43.90941" lon="7.22589">
        <ele>1192.3</ele>
        <time>2013-04-12T10:11:18Z</time>
      </trkpt>
      <trkpt lat="43.90938" lon="7.22576">
        <ele>1191.5</ele>
        <time>2013-04-12T10:11:25Z</time>
      </trkpt>
      <trkpt lat="43.90934" lon="7.22565">
        <ele>1190.8</ele>
        <time>2013-04-12T10:11:31Z</time>
      </trkpt>
      <trkpt lat="43.90929" lon="7.22555">
        <ele>1190.8</ele>
        <time>2013-04-12T10:11:37Z</time>
      </trkpt>
      <trkpt lat="43.90924" lon="7.22545">
        <ele>1190.8</ele>
        <time>2013-04-12T10:11:43Z</time>
      </trkpt>
      <trkpt lat="43.90919" lon="7.22535">
        <ele>1190.7</ele>
        <time>2013-04-12T10:11:49Z</time>
      </trkpt>
      <trkpt lat="43.90914" lon="7.22523">
        <ele>1192</ele>
        <time>2013-04-12T10:11:57Z</time>
      </trkpt>
      <trkpt lat="43.90909" lon="7.22513">
        <ele>1192.5</ele>
        <time>2013-04-12T10:12:03Z</time>
      </trkpt>
      <trkpt lat="43.90903" lon="7.22503">
        <ele>1193</ele>
        <time>2013-04-12T10:12:10Z</time>
      </trkpt>
      <trkpt lat="43.909" lon="7.22493">
        <ele>1193</ele>
        <time>2013-04-12T10:12:16Z</time>
      </trkpt>
      <trkpt lat="43.90896" lon="7.22465">
        <ele>1193</ele>
        <time>2013-04-12T10:12:30Z</time>
      </trkpt>
      <trkpt lat="43.90894" lon="7.22452">
        <ele>1193</ele>
        <time>2013-04-12T10:12:37Z</time>
      </trkpt>
      <trkpt lat="43.90886" lon="7.22445">
        <ele>1194</ele>
        <time>2013-04-12T10:12:48Z</time>
      </trkpt>
      <trkpt lat="43.90881" lon="7.22436">
        <ele>1194.9</ele>
        <time>2013-04-12T10:12:54Z</time>
      </trkpt>
      <trkpt lat="43.90874" lon="7.22427">
        <ele>1197.4</ele>
        <time>2013-04-12T10:14:23Z</time>
      </trkpt>
      <trkpt lat="43.90875" lon="7.22414">
        <ele>1198.9</ele>
        <time>2013-04-12T10:43:13Z</time>
      </trkpt>
      <trkpt lat="43.90874" lon="7.22401">
        <ele>1199.6</ele>
        <time>2013-04-12T10:43:22Z</time>
      </trkpt>
      <trkpt lat="43.90872" lon="7.22388">
        <ele>1199.2</ele>
        <time>2013-04-12T10:43:30Z</time>
      </trkpt>
      <trkpt lat="43.90873" lon="7.22376">
        <ele>1199.6</ele>
        <time>2013-04-12T10:43:38Z</time>
      </trkpt>
      <trkpt lat="43.90874" lon="7.22363">
        <ele>1198.8</ele>
        <time>2013-04-12T10:43:48Z</time>
      </trkpt>
      <trkpt lat="43.90873" lon="7.22351">
        <ele>1198.9</ele>
        <time>2013-04-12T10:43:55Z</time>
      </trkpt>
      <trkpt lat="43.90871" lon="7.22331">
        <ele>1200.1</ele>
        <time>2013-04-12T10:44:07Z</time>
      </trkpt>
      <trkpt lat="43.90868" lon="7.2231">
        <ele>1200.5</ele>
        <time>2013-04-12T10:44:20Z</time>
      </trkpt>
      <trkpt lat="43.90864" lon="7.22288">
        <ele>1199.7</ele>
        <time>2013-04-12T10:44:32Z</time>
      </trkpt>
      <trkpt lat="43.90863" lon="7.22277">
        <ele>1199.8</ele>
        <time>2013-04-12T10:44:39Z</time>
      </trkpt>
      <trkpt lat="43.90861" lon="7.22266">
        <ele>1199.8</ele>
        <time>2013-04-12T10:44:45Z</time>
      </trkpt>
      <trkpt lat="43.90859" lon="7.2225">
        <ele>1199.5</ele>
        <time>2013-04-12T10:44:54Z</time>
      </trkpt>
      <trkpt lat="43.9086" lon="7.22235">
        <ele>1199.8</ele>
        <time>2013-04-12T10:45:03Z</time>
      </trkpt>
      <trkpt lat="43.90859" lon="7.22222">
        <ele>1200.5</ele>
        <time>2013-04-12T10:45:12Z</time>
      </trkpt>
      <trkpt lat="43.90857" lon="7.22208">
        <ele>1200.1</ele>
        <time>2013-04-12T10:45:20Z</time>
      </trkpt>
      <trkpt lat="43.90856" lon="7.22195">
        <ele>1200.6</ele>
        <time>2013-04-12T10:45:28Z</time>
      </trkpt>
      <trkpt lat="43.90852" lon="7.22184">
        <ele>1201.1</ele>
        <time>2013-04-12T10:45:35Z</time>
      </trkpt>
      <trkpt lat="43.90844" lon="7.22175">
        <ele>1200.2</ele>
        <time>2013-04-12T10:45:43Z</time>
      </trkpt>
      <trkpt lat="43.90837" lon="7.22167">
        <ele>1199.4</ele>
        <time>2013-04-12T10:45:51Z</time>
      </trkpt>
      <trkpt lat="43.90828" lon="7.22161">
        <ele>1198</ele>
        <time>2013-04-12T10:46:06Z</time>
      </trkpt>
      <trkpt lat="43.9082" lon="7.22157">
        <ele>1196.2</ele>
        <time>2013-04-12T10:46:15Z</time>
      </trkpt>
      <trkpt lat="43.90814" lon="7.22148">
        <ele>1194.6</ele>
        <time>2013-04-12T10:46:25Z</time>
      </trkpt>
      <trkpt lat="43.90804" lon="7.22151">
        <ele>1191.6</ele>
        <time>2013-04-12T10:47:08Z</time>
      </trkpt>
      <trkpt lat="43.90801" lon="7.22163">
        <ele>1190.3</ele>
        <time>2013-04-12T10:47:16Z</time>
      </trkpt>
      <trkpt lat="43.90797" lon="7.22179">
        <ele>1188.4</ele>
        <time>2013-04-12T10:47:28Z</time>
      </trkpt>
      <trkpt lat="43.90795" lon="7.22192">
        <ele>1186.6</ele>
        <time>2013-04-12T10:47:36Z</time>
      </trkpt>
      <trkpt lat="43.90793" lon="7.22213">
        <ele>1185.2</ele>
        <time>2013-04-12T10:47:48Z</time>
      </trkpt>
      <trkpt lat="43.90793" lon="7.22228">
        <ele>1184.2</ele>
        <time>2013-04-12T10:47:57Z</time>
      </trkpt>
      <trkpt lat="43.90792" lon="7.22249">
        <ele>1182.1</ele>
        <time>2013-04-12T10:48:10Z</time>
      </trkpt>
      <trkpt lat="43.90791" lon="7.2226">
        <ele>1181.1</ele>
        <time>2013-04-12T10:48:18Z</time>
      </trkpt>
      <trkpt lat="43.90788" lon="7.22274">
        <ele>1178.8</ele>
        <time>2013-04-12T10:48:30Z</time>
      </trkpt>
      <trkpt lat="43.90782" lon="7.22265">
        <ele>1176.1</ele>
        <time>2013-04-12T10:48:45Z</time>
      </trkpt>
      <trkpt lat="43.90777" lon="7.22248">
        <ele>1173.1</ele>
        <time>2013-04-12T10:48:58Z</time>
      </trkpt>
      <trkpt lat="43.9077" lon="7.22237">
        <ele>1169.8</ele>
        <time>2013-04-12T10:49:10Z</time>
      </trkpt>
      <trkpt lat="43.90763" lon="7.2223">
        <ele>1166.2</ele>
        <time>2013-04-12T10:49:20Z</time>
      </trkpt>
      <trkpt lat="43.90757" lon="7.22222">
        <ele>1162</ele>
        <time>2013-04-12T10:49:30Z</time>
      </trkpt>
      <trkpt lat="43.9075" lon="7.22211">
        <ele>1157.9</ele>
        <time>2013-04-12T10:49:41Z</time>
      </trkpt>
      <trkpt lat="43.90742" lon="7.22209">
        <ele>1154.4</ele>
        <time>2013-04-12T10:49:52Z</time>
      </trkpt>
      <trkpt lat="43.9074" lon="7.22221">
        <ele>1151.1</ele>
        <time>2013-04-12T10:50:03Z</time>
      </trkpt>
      <trkpt lat="43.90737" lon="7.22234">
        <ele>1147.8</ele>
        <time>2013-04-12T10:50:13Z</time>
      </trkpt>
      <trkpt lat="43.90735" lon="7.22246">
        <ele>1145.7</ele>
        <time>2013-04-12T10:50:21Z</time>
      </trkpt>
      <trkpt lat="43.90734" lon="7.22258">
        <ele>1144</ele>
        <time>2013-04-12T10:50:39Z</time>
      </trkpt>
      <trkpt lat="43.9073" lon="7.22274">
        <ele>1142.8</ele>
        <time>2013-04-12T10:50:52Z</time>
      </trkpt>
      <trkpt lat="43.90727" lon="7.22289">
        <ele>1141.6</ele>
        <time>2013-04-12T10:51:01Z</time>
      </trkpt>
      <trkpt lat="43.90724" lon="7.22301">
        <ele>1138.9</ele>
        <time>2013-04-12T10:51:10Z</time>
      </trkpt>
      <trkpt lat="43.90723" lon="7.22313">
        <ele>1136.4</ele>
        <time>2013-04-12T10:51:18Z</time>
      </trkpt>
      <trkpt lat="43.90717" lon="7.22306">
        <ele>1131.2</ele>
        <time>2013-04-12T10:51:32Z</time>
      </trkpt>
      <trkpt lat="43.90712" lon="7.22297">
        <ele>1127.9</ele>
        <time>2013-04-12T10:51:41Z</time>
      </trkpt>
      <trkpt lat="43.90706" lon="7.22287">
        <ele>1126.1</ele>
        <time>2013-04-12T10:51:51Z</time>
      </trkpt>
      <trkpt lat="43.90702" lon="7.22276">
        <ele>1123</ele>
        <time>2013-04-12T10:52:00Z</time>
      </trkpt>
      <trkpt lat="43.90694" lon="7.22254">
        <ele>1118.6</ele>
        <time>2013-04-12T10:52:15Z</time>
      </trkpt>
      <trkpt lat="43.9069" lon="7.22245">
        <ele>1115.7</ele>
        <time>2013-04-12T10:52:24Z</time>
      </trkpt>
      <trkpt lat="43.90685" lon="7.22262">
        <ele>1112.3</ele>
        <time>2013-04-12T10:52:48Z</time>
      </trkpt>
      <trkpt lat="43.90679" lon="7.2228">
        <ele>1108.5</ele>
        <time>2013-04-12T10:53:03Z</time>
      </trkpt>
      <trkpt lat="43.90675" lon="7.22295">
        <ele>1106.9</ele>
        <time>2013-04-12T10:53:16Z</time>
      </trkpt>
      <trkpt lat="43.90672" lon="7.22306">
        <ele>1105.1</ele>
        <time>2013-04-12T10:53:24Z</time>
      </trkpt>
      <trkpt lat="43.90669" lon="7.22318">
        <ele>1102.6</ele>
        <time>2013-04-12T10:53:33Z</time>
      </trkpt>
      <trkpt lat="43.90665" lon="7.22336">
        <ele>1099.9</ele>
        <time>2013-04-12T10:53:45Z</time>
      </trkpt>
      <trkpt lat="43.90663" lon="7.22347">
        <ele>1099</ele>
        <time>2013-04-12T10:53:53Z</time>
      </trkpt>
      <trkpt lat="43.9066" lon="7.22362">
        <ele>1096.8</ele>
        <time>2013-04-12T10:54:02Z</time>
      </trkpt>
      <trkpt lat="43.90656" lon="7.22376">
        <ele>1094.3</ele>
        <time>2013-04-12T10:54:10Z</time>
      </trkpt>
      <trkpt lat="43.90653" lon="7.2239">
        <ele>1092.8</ele>
        <time>2013-04-12T10:54:18Z</time>
      </trkpt>
      <trkpt lat="43.90651" lon="7.22402">
        <ele>1091.1</ele>
        <time>2013-04-12T10:54:24Z</time>
      </trkpt>
      <trkpt lat="43.90647" lon="7.22414">
        <ele>1089.9</ele>
        <time>2013-04-12T10:54:31Z</time>
      </trkpt>
      <trkpt lat="43.90645" lon="7.22426">
        <ele>1088.3</ele>
        <time>2013-04-12T10:54:38Z</time>
      </trkpt>
      <trkpt lat="43.90642" lon="7.22438">
        <ele>1083.8</ele>
        <time>2013-04-12T10:56:12Z</time>
      </trkpt>
      <trkpt lat="43.90633" lon="7.22436">
        <ele>1080.5</ele>
        <time>2013-04-12T10:56:24Z</time>
      </trkpt>
      <trkpt lat="43.90625" lon="7.22439">
        <ele>1077.5</ele>
        <time>2013-04-12T10:56:38Z</time>
      </trkpt>
      <trkpt lat="43.90614" lon="7.22435">
        <ele>1071.8</ele>
        <time>2013-04-12T10:58:22Z</time>
      </trkpt>
      <trkpt lat="43.90609" lon="7.22426">
        <ele>1069.9</ele>
        <time>2013-04-12T10:58:34Z</time>
      </trkpt>
      <trkpt lat="43.90601" lon="7.22415">
        <ele>1065.1</ele>
        <time>2013-04-12T10:58:47Z</time>
      </trkpt>
      <trkpt lat="43.90592" lon="7.22413">
        <ele>1063.1</ele>
        <time>2013-04-12T10:58:58Z</time>
      </trkpt>
      <trkpt lat="43.90584" lon="7.22412">
        <ele>1058.4</ele>
        <time>2013-04-12T10:59:13Z</time>
      </trkpt>
      <trkpt lat="43.90576" lon="7.2241">
        <ele>1055.1</ele>
        <time>2013-04-12T10:59:24Z</time>
      </trkpt>
      <trkpt lat="43.90567" lon="7.2241">
        <ele>1050.2</ele>
        <time>2013-04-12T10:59:36Z</time>
      </trkpt>
      <trkpt lat="43.90556" lon="7.22414">
        <ele>1045.3</ele>
        <time>2013-04-12T10:59:54Z</time>
      </trkpt>
      <trkpt lat="43.90546" lon="7.22409">
        <ele>1038.2</ele>
        <time>2013-04-12T11:00:16Z</time>
      </trkpt>
      <trkpt lat="43.90539" lon="7.22404">
        <ele>1033.7</ele>
        <time>2013-04-12T11:00:32Z</time>
      </trkpt>
      <trkpt lat="43.9053" lon="7.22401">
        <ele>1029.2</ele>
        <time>2013-04-12T11:00:48Z</time>
      </trkpt>
      <trkpt lat="43.90522" lon="7.22399">
        <ele>1026.5</ele>
        <time>2013-04-12T11:01:01Z</time>
      </trkpt>
      <trkpt lat="43.90515" lon="7.22407">
        <ele>1025.1</ele>
        <time>2013-04-12T11:01:08Z</time>
      </trkpt>
      <trkpt lat="43.9051" lon="7.22398">
        <ele>1023</ele>
        <time>2013-04-12T11:01:18Z</time>
      </trkpt>
      <trkpt lat="43.90504" lon="7.22389">
        <ele>1018.3</ele>
        <time>2013-04-12T11:01:30Z</time>
      </trkpt>
      <trkpt lat="43.905" lon="7.22379">
        <ele>1014.7</ele>
        <time>2013-04-12T11:01:40Z</time>
      </trkpt>
      <trkpt lat="43.90491" lon="7.22383">
        <ele>1011.2</ele>
        <time>2013-04-12T11:01:53Z</time>
      </trkpt>
      <trkpt lat="43.90483" lon="7.22385">
        <ele>1009.9</ele>
        <time>2013-04-12T11:02:00Z</time>
      </trkpt>
      <trkpt lat="43.90474" lon="7.22382">
        <ele>1008.2</ele>
        <time>2013-04-12T11:02:07Z</time>
      </trkpt>
      <trkpt lat="43.90465" lon="7.22381">
        <ele>1007.5</ele>
        <time>2013-04-12T11:02:32Z</time>
      </trkpt>
      <trkpt lat="43.90455" lon="7.22373">
        <ele>1005.1</ele>
        <time>2013-04-12T11:02:58Z</time>
      </trkpt>
      <trkpt lat="43.90445" lon="7.22367">
        <ele>1003.3</ele>
        <time>2013-04-12T11:03:06Z</time>
      </trkpt>
      <trkpt lat="43.90432" lon="7.22361">
        <ele>1000.6</ele>
        <time>2013-04-12T11:03:16Z</time>
      </trkpt>
      <trkpt lat="43.90423" lon="7.22363">
        <ele>998.7</ele>
        <time>2013-04-12T11:03:24Z</time>
      </trkpt>
      <trkpt lat="43.90413" lon="7.22361">
        <ele>997.9</ele>
        <time>2013-04-12T11:03:31Z</time>
      </trkpt>
      <trkpt lat="43.90405" lon="7.22357">
        <ele>995</ele>
        <time>2013-04-12T11:05:39Z</time>
      </trkpt>
      <trkpt lat="43.90399" lon="7.22349">
        <ele>993.3</ele>
        <time>2013-04-12T11:05:49Z</time>
      </trkpt>
      <trkpt lat="43.9039" lon="7.22347">
        <ele>991.7</ele>
        <time>2013-04-12T11:05:56Z</time>
      </trkpt>
      <trkpt lat="43.90382" lon="7.22344">
        <ele>991.1</ele>
        <time>2013-04-12T11:06:03Z</time>
      </trkpt>
      <trkpt lat="43.90374" lon="7.22343">
        <ele>989.8</ele>
        <time>2013-04-12T11:06:11Z</time>
      </trkpt>
      <trkpt lat="43.90359" lon="7.22347">
        <ele>988.6</ele>
        <time>2013-04-12T11:06:22Z</time>
      </trkpt>
      <trkpt lat="43.90348" lon="7.22349">
        <ele>987.7</ele>
        <time>2013-04-12T11:06:30Z</time>
      </trkpt>
      <trkpt lat="43.90339" lon="7.22349">
        <ele>986.6</ele>
        <time>2013-04-12T11:06:36Z</time>
      </trkpt>
      <trkpt lat="43.90328" lon="7.22349">
        <ele>984.4</ele>
        <time>2013-04-12T11:06:44Z</time>
      </trkpt>
      <trkpt lat="43.90319" lon="7.2235">
        <ele>983.6</ele>
        <time>2013-04-12T11:06:50Z</time>
      </trkpt>
      <trkpt lat="43.90307" lon="7.22355">
        <ele>982.7</ele>
        <time>2013-04-12T11:06:59Z</time>
      </trkpt>
      <trkpt lat="43.90298" lon="7.22362">
        <ele>981</ele>
        <time>2013-04-12T11:07:07Z</time>
      </trkpt>
      <trkpt lat="43.90291" lon="7.22368">
        <ele>980.6</ele>
        <time>2013-04-12T11:07:13Z</time>
      </trkpt>
      <trkpt lat="43.90283" lon="7.22374">
        <ele>979.4</ele>
        <time>2013-04-12T11:07:20Z</time>
      </trkpt>
      <trkpt lat="43.90274" lon="7.22379">
        <ele>978.6</ele>
        <time>2013-04-12T11:07:27Z</time>
      </trkpt>
      <trkpt lat="43.90261" lon="7.22385">
        <ele>978.2</ele>
        <time>2013-04-12T11:07:36Z</time>
      </trkpt>
      <trkpt lat="43.90252" lon="7.2239">
        <ele>977</ele>
        <time>2013-04-12T11:07:46Z</time>
      </trkpt>
      <trkpt lat="43.90245" lon="7.22398">
        <ele>977.1</ele>
        <time>2013-04-12T11:07:53Z</time>
      </trkpt>
      <trkpt lat="43.90238" lon="7.22406">
        <ele>976.9</ele>
        <time>2013-04-12T11:08:00Z</time>
      </trkpt>
      <trkpt lat="43.90231" lon="7.22418">
        <ele>977.5</ele>
        <time>2013-04-12T11:08:09Z</time>
      </trkpt>
      <trkpt lat="43.90223" lon="7.22433">
        <ele>978.7</ele>
        <time>2013-04-12T11:08:20Z</time>
      </trkpt>
      <trkpt lat="43.90216" lon="7.22439">
        <ele>979.9</ele>
        <time>2013-04-12T11:11:13Z</time>
      </trkpt>
      <trkpt lat="43.90206" lon="7.22428">
        <ele>979.1</ele>
        <time>2013-04-12T11:11:27Z</time>
      </trkpt>
      <trkpt lat="43.90198" lon="7.2243">
        <ele>978.7</ele>
        <time>2013-04-12T11:11:38Z</time>
      </trkpt>
      <trkpt lat="43.90187" lon="7.22428">
        <ele>978.1</ele>
        <time>2013-04-12T11:11:53Z</time>
      </trkpt>
      <trkpt lat="43.90173" lon="7.22425">
        <ele>977.9</ele>
        <time>2013-04-12T11:12:04Z</time>
      </trkpt>
      <trkpt lat="43.9016" lon="7.22424">
        <ele>979.8</ele>
        <time>2013-04-12T11:12:22Z</time>
      </trkpt>
      <trkpt lat="43.90132" lon="7.2242">
        <ele>983.6</ele>
        <time>2013-04-12T11:13:01Z</time>
      </trkpt>
      <trkpt lat="43.90114" lon="7.2241">
        <ele>989.5</ele>
        <time>2013-04-12T11:14:09Z</time>
      </trkpt>
      <trkpt lat="43.90094" lon="7.22413">
        <ele>994</ele>
        <time>2013-04-12T11:14:41Z</time>
      </trkpt>
      <trkpt lat="43.90082" lon="7.22426">
        <ele>995.9</ele>
        <time>2013-04-12T11:15:13Z</time>
      </trkpt>
      <trkpt lat="43.90073" lon="7.2242">
        <ele>999.1</ele>
        <time>2013-04-12T11:15:29Z</time>
      </trkpt>
      <trkpt lat="43.9005" lon="7.22417">
        <ele>1007.2</ele>
        <time>2013-04-12T11:16:28Z</time>
      </trkpt>
      <trkpt lat="43.90045" lon="7.22427">
        <ele>1010.5</ele>
        <time>2013-04-12T11:16:37Z</time>
      </trkpt>
      <trkpt lat="43.90038" lon="7.22435">
        <ele>1011.4</ele>
        <time>2013-04-12T11:16:46Z</time>
      </trkpt>
      <trkpt lat="43.90032" lon="7.22443">
        <ele>1012</ele>
        <time>2013-04-12T11:16:57Z</time>
      </trkpt>
      <trkpt lat="43.90029" lon="7.22456">
        <ele>1014.8</ele>
        <time>2013-04-12T11:17:09Z</time>
      </trkpt>
      <trkpt lat="43.90023" lon="7.22466">
        <ele>1017.2</ele>
        <time>2013-04-12T11:17:24Z</time>
      </trkpt>
      <trkpt lat="43.90018" lon="7.22478">
        <ele>1020.6</ele>
        <time>2013-04-12T11:17:34Z</time>
      </trkpt>
      <trkpt lat="43.90012" lon="7.22501">
        <ele>1023.4</ele>
        <time>2013-04-12T11:17:52Z</time>
      </trkpt>
      <trkpt lat="43.90009" lon="7.22517">
        <ele>1026.7</ele>
        <time>2013-04-12T11:18:05Z</time>
      </trkpt>
      <trkpt lat="43.90005" lon="7.22528">
        <ele>1027.4</ele>
        <time>2013-04-12T11:18:15Z</time>
      </trkpt>
      <trkpt lat="43.89999" lon="7.22539">
        <ele>1031.1</ele>
        <time>2013-04-12T11:18:24Z</time>
      </trkpt>
      <trkpt lat="43.89998" lon="7.2255">
        <ele>1033.3</ele>
        <time>2013-04-12T11:18:34Z</time>
      </trkpt>
      <trkpt lat="43.89991" lon="7.22569">
        <ele>1033.8</ele>
        <time>2013-04-12T11:18:46Z</time>
      </trkpt>
      <trkpt lat="43.89985" lon="7.22579">
        <ele>1035</ele>
        <time>2013-04-12T11:18:55Z</time>
      </trkpt>
      <trkpt lat="43.89982" lon="7.22593">
        <ele>1034.4</ele>
        <time>2013-04-12T11:19:04Z</time>
      </trkpt>
      <trkpt lat="43.89977" lon="7.22602">
        <ele>1031.7</ele>
        <time>2013-04-12T11:19:13Z</time>
      </trkpt>
      <trkpt lat="43.89971" lon="7.22611">
        <ele>1033.4</ele>
        <time>2013-04-12T11:19:23Z</time>
      </trkpt>
      <trkpt lat="43.89964" lon="7.22617">
        <ele>1032.9</ele>
        <time>2013-04-12T11:19:37Z</time>
      </trkpt>
      <trkpt lat="43.89956" lon="7.22623">
        <ele>1035.5</ele>
        <time>2013-04-12T11:19:45Z</time>
      </trkpt>
      <trkpt lat="43.89942" lon="7.22641">
        <ele>1040.2</ele>
        <time>2013-04-12T11:20:02Z</time>
      </trkpt>
      <trkpt lat="43.89936" lon="7.22649">
        <ele>1041.1</ele>
        <time>2013-04-12T11:20:12Z</time>
      </trkpt>
      <trkpt lat="43.89927" lon="7.22661">
        <ele>1039.6</ele>
        <time>2013-04-12T11:20:28Z</time>
      </trkpt>
      <trkpt lat="43.8992" lon="7.2267">
        <ele>1040.8</ele>
        <time>2013-04-12T11:20:35Z</time>
      </trkpt>
      <trkpt lat="43.89915" lon="7.2268">
        <ele>1042.3</ele>
        <time>2013-04-12T11:20:43Z</time>
      </trkpt>
      <trkpt lat="43.89903" lon="7.22689">
        <ele>1042.6</ele>
        <time>2013-04-12T11:20:59Z</time>
      </trkpt>
      <trkpt lat="43.89892" lon="7.22693">
        <ele>1042.8</ele>
        <time>2013-04-12T11:21:10Z</time>
      </trkpt>
      <trkpt lat="43.89879" lon="7.22692">
        <ele>1041.9</ele>
        <time>2013-04-12T11:21:21Z</time>
      </trkpt>
      <trkpt lat="43.89871" lon="7.22689">
        <ele>1042.1</ele>
        <time>2013-04-12T11:21:31Z</time>
      </trkpt>
      <trkpt lat="43.89864" lon="7.22684">
        <ele>1042.9</ele>
        <time>2013-04-12T11:21:39Z</time>
      </trkpt>
      <trkpt lat="43.89856" lon="7.22675">
        <ele>1043.1</ele>
        <time>2013-04-12T11:21:49Z</time>
      </trkpt>
      <trkpt lat="43.89851" lon="7.22664">
        <ele>1042.5</ele>
        <time>2013-04-12T11:21:57Z</time>
      </trkpt>
      <trkpt lat="43.89856" lon="7.22653">
        <ele>1044</ele>
        <time>2013-04-12T11:23:18Z</time>
      </trkpt>
      <trkpt lat="43.8986" lon="7.22642">
        <ele>1045.5</ele>
        <time>2013-04-12T11:23:26Z</time>
      </trkpt>
      <trkpt lat="43.89867" lon="7.22628">
        <ele>1045.3</ele>
        <time>2013-04-12T11:23:36Z</time>
      </trkpt>
      <trkpt lat="43.89871" lon="7.22613">
        <ele>1047.1</ele>
        <time>2013-04-12T11:23:57Z</time>
      </trkpt>
      <trkpt lat="43.89872" lon="7.22598">
        <ele>1047.9</ele>
        <time>2013-04-12T11:24:06Z</time>
      </trkpt>
      <trkpt lat="43.89873" lon="7.22587">
        <ele>1048.3</ele>
        <time>2013-04-12T11:24:13Z</time>
      </trkpt>
      <trkpt lat="43.89873" lon="7.22574">
        <ele>1048.5</ele>
        <time>2013-04-12T11:24:22Z</time>
      </trkpt>
      <trkpt lat="43.89875" lon="7.22561">
        <ele>1050</ele>
        <time>2013-04-12T11:24:50Z</time>
      </trkpt>
      <trkpt lat="43.89879" lon="7.22547">
        <ele>1050.2</ele>
        <time>2013-04-12T11:24:58Z</time>
      </trkpt>
      <trkpt lat="43.89882" lon="7.22536">
        <ele>1051.5</ele>
        <time>2013-04-12T11:25:05Z</time>
      </trkpt>
      <trkpt lat="43.89884" lon="7.22524">
        <ele>1052.7</ele>
        <time>2013-04-12T11:25:12Z</time>
      </trkpt>
      <trkpt lat="43.89888" lon="7.22503">
        <ele>1053.2</ele>
        <time>2013-04-12T11:25:25Z</time>
      </trkpt>
      <trkpt lat="43.89887" lon="7.22491">
        <ele>1053.6</ele>
        <time>2013-04-12T11:25:32Z</time>
      </trkpt>
      <trkpt lat="43.89886" lon="7.22479">
        <ele>1054.4</ele>
        <time>2013-04-12T11:25:40Z</time>
      </trkpt>
      <trkpt lat="43.89884" lon="7.22468">
        <ele>1055.4</ele>
        <time>2013-04-12T11:25:48Z</time>
      </trkpt>
      <trkpt lat="43.89882" lon="7.2248">
        <ele>1056.4</ele>
        <time>2013-04-12T11:26:13Z</time>
      </trkpt>
      <trkpt lat="43.89878" lon="7.2247">
        <ele>1057.2</ele>
        <time>2013-04-12T11:26:32Z</time>
      </trkpt>
      <trkpt lat="43.89879" lon="7.22458">
        <ele>1058.9</ele>
        <time>2013-04-12T11:26:41Z</time>
      </trkpt>
      <trkpt lat="43.8988" lon="7.22446">
        <ele>1058.8</ele>
        <time>2013-04-12T11:26:49Z</time>
      </trkpt>
      <trkpt lat="43.89878" lon="7.22434">
        <ele>1058.8</ele>
        <time>2013-04-12T11:26:57Z</time>
      </trkpt>
      <trkpt lat="43.89877" lon="7.22421">
        <ele>1058.2</ele>
        <time>2013-04-12T11:27:06Z</time>
      </trkpt>
      <trkpt lat="43.89876" lon="7.22409">
        <ele>1058.6</ele>
        <time>2013-04-12T11:27:14Z</time>
      </trkpt>
      <trkpt lat="43.89875" lon="7.22398">
        <ele>1058.8</ele>
        <time>2013-04-12T11:27:21Z</time>
      </trkpt>
      <trkpt lat="43.89871" lon="7.22387">
        <ele>1058.9</ele>
        <time>2013-04-12T11:27:29Z</time>
      </trkpt>
      <trkpt lat="43.89868" lon="7.22375">
        <ele>1059.1</ele>
        <time>2013-04-12T11:27:37Z</time>
      </trkpt>
      <trkpt lat="43.89864" lon="7.22363">
        <ele>1059.6</ele>
        <time>2013-04-12T11:27:45Z</time>
      </trkpt>
      <trkpt lat="43.8986" lon="7.22351">
        <ele>1061.2</ele>
        <time>2013-04-12T11:27:53Z</time>
      </trkpt>
      <trkpt lat="43.89857" lon="7.22337">
        <ele>1061.6</ele>
        <time>2013-04-12T11:28:03Z</time>
      </trkpt>
      <trkpt lat="43.89851" lon="7.22327">
        <ele>1062.4</ele>
        <time>2013-04-12T11:28:11Z</time>
      </trkpt>
      <trkpt lat="43.89844" lon="7.22319">
        <ele>1062.7</ele>
        <time>2013-04-12T11:28:18Z</time>
      </trkpt>
      <trkpt lat="43.89843" lon="7.22307">
        <ele>1061.1</ele>
        <time>2013-04-12T11:28:26Z</time>
      </trkpt>
      <trkpt lat="43.89841" lon="7.22295">
        <ele>1061</ele>
        <time>2013-04-12T11:28:33Z</time>
      </trkpt>
      <trkpt lat="43.89836" lon="7.22283">
        <ele>1060</ele>
        <time>2013-04-12T11:28:46Z</time>
      </trkpt>
      <trkpt lat="43.8983" lon="7.22271">
        <ele>1059.7</ele>
        <time>2013-04-12T11:28:54Z</time>
      </trkpt>
      <trkpt lat="43.89829" lon="7.22259">
        <ele>1059.1</ele>
        <time>2013-04-12T11:29:06Z</time>
      </trkpt>
      <trkpt lat="43.89824" lon="7.22235">
        <ele>1058.7</ele>
        <time>2013-04-12T11:29:19Z</time>
      </trkpt>
      <trkpt lat="43.89823" lon="7.22222">
        <ele>1059.9</ele>
        <time>2013-04-12T11:29:27Z</time>
      </trkpt>
      <trkpt lat="43.89823" lon="7.22208">
        <ele>1059.9</ele>
        <time>2013-04-12T11:29:35Z</time>
      </trkpt>
      <trkpt lat="43.89818" lon="7.22195">
        <ele>1059.9</ele>
        <time>2013-04-12T11:29:43Z</time>
      </trkpt>
      <trkpt lat="43.89815" lon="7.22182">
        <ele>1060.2</ele>
        <time>2013-04-12T11:29:51Z</time>
      </trkpt>
      <trkpt lat="43.89808" lon="7.2217">
        <ele>1060.9</ele>
        <time>2013-04-12T11:29:59Z</time>
      </trkpt>
      <trkpt lat="43.89804" lon="7.2216">
        <ele>1060.8</ele>
        <time>2013-04-12T11:30:07Z</time>
      </trkpt>
      <trkpt lat="43.89801" lon="7.2215">
        <ele>1060.1</ele>
        <time>2013-04-12T11:30:20Z</time>
      </trkpt>
      <trkpt lat="43.89793" lon="7.22137">
        <ele>1058.9</ele>
        <time>2013-04-12T11:30:29Z</time>
      </trkpt>
      <trkpt lat="43.89789" lon="7.22127">
        <ele>1059.7</ele>
        <time>2013-04-12T11:30:36Z</time>
      </trkpt>
      <trkpt lat="43.89787" lon="7.22115">
        <ele>1060</ele>
        <time>2013-04-12T11:30:43Z</time>
      </trkpt>
      <trkpt lat="43.89784" lon="7.22104">
        <ele>1060.3</ele>
        <time>2013-04-12T11:30:50Z</time>
      </trkpt>
      <trkpt lat="43.89782" lon="7.22087">
        <ele>1060.5</ele>
        <time>2013-04-12T11:31:00Z</time>
      </trkpt>
      <trkpt lat="43.89779" lon="7.22076">
        <ele>1060.5</ele>
        <time>2013-04-12T11:31:07Z</time>
      </trkpt>
      <trkpt lat="43.89777" lon="7.2206">
        <ele>1061.1</ele>
        <time>2013-04-12T11:31:18Z</time>
      </trkpt>
      <trkpt lat="43.89775" lon="7.22049">
        <ele>1061</ele>
        <time>2013-04-12T11:31:25Z</time>
      </trkpt>
      <trkpt lat="43.89773" lon="7.22037">
        <ele>1061.3</ele>
        <time>2013-04-12T11:31:32Z</time>
      </trkpt>
      <trkpt lat="43.89771" lon="7.22026">
        <ele>1061.5</ele>
        <time>2013-04-12T11:32:19Z</time>
      </trkpt>
      <trkpt lat="43.89764" lon="7.22013">
        <ele>1061.6</ele>
        <time>2013-04-12T11:32:28Z</time>
      </trkpt>
      <trkpt lat="43.89759" lon="7.22002">
        <ele>1062.4</ele>
        <time>2013-04-12T11:32:35Z</time>
      </trkpt>
      <trkpt lat="43.89754" lon="7.21988">
        <ele>1063.3</ele>
        <time>2013-04-12T11:32:44Z</time>
      </trkpt>
      <trkpt lat="43.89749" lon="7.21974">
        <ele>1064</ele>
        <time>2013-04-12T11:32:52Z</time>
      </trkpt>
      <trkpt lat="43.89743" lon="7.21963">
        <ele>1064</ele>
        <time>2013-04-12T11:32:59Z</time>
      </trkpt>
      <trkpt lat="43.89737" lon="7.2195">
        <ele>1063.8</ele>
        <time>2013-04-12T11:33:07Z</time>
      </trkpt>
      <trkpt lat="43.89733" lon="7.21939">
        <ele>1064.5</ele>
        <time>2013-04-12T11:33:14Z</time>
      </trkpt>
      <trkpt lat="43.89728" lon="7.21926">
        <ele>1064.1</ele>
        <time>2013-04-12T11:33:22Z</time>
      </trkpt>
      <trkpt lat="43.89719" lon="7.21903">
        <ele>1062.9</ele>
        <time>2013-04-12T11:33:36Z</time>
      </trkpt>
      <trkpt lat="43.89715" lon="7.21892">
        <ele>1063.4</ele>
        <time>2013-04-12T11:33:43Z</time>
      </trkpt>
      <trkpt lat="43.89707" lon="7.21875">
        <ele>1063</ele>
        <time>2013-04-12T11:33:55Z</time>
      </trkpt>
      <trkpt lat="43.89705" lon="7.21861">
        <ele>1061.6</ele>
        <time>2013-04-12T11:34:04Z</time>
      </trkpt>
      <trkpt lat="43.89705" lon="7.21848">
        <ele>1061.4</ele>
        <time>2013-04-12T11:34:14Z</time>
      </trkpt>
      <trkpt lat="43.89701" lon="7.21837">
        <ele>1060.7</ele>
        <time>2013-04-12T11:34:22Z</time>
      </trkpt>
      <trkpt lat="43.89695" lon="7.21829">
        <ele>1059.3</ele>
        <time>2013-04-12T11:34:30Z</time>
      </trkpt>
      <trkpt lat="43.89689" lon="7.21821">
        <ele>1058.4</ele>
        <time>2013-04-12T11:34:40Z</time>
      </trkpt>
      <trkpt lat="43.89683" lon="7.21809">
        <ele>1058.7</ele>
        <time>2013-04-12T11:34:54Z</time>
      </trkpt>
      <trkpt lat="43.89682" lon="7.21797">
        <ele>1058</ele>
        <time>2013-04-12T11:35:01Z</time>
      </trkpt>
      <trkpt lat="43.89682" lon="7.21785">
        <ele>1057.9</ele>
        <time>2013-04-12T11:35:07Z</time>
      </trkpt>
      <trkpt lat="43.89684" lon="7.21774">
        <ele>1056.8</ele>
        <time>2013-04-12T11:35:24Z</time>
      </trkpt>
      <trkpt lat="43.89675" lon="7.21768">
        <ele>1055.3</ele>
        <time>2013-04-12T11:35:53Z</time>
      </trkpt>
      <trkpt lat="43.89666" lon="7.21763">
        <ele>1054.5</ele>
        <time>2013-04-12T11:36:11Z</time>
      </trkpt>
      <trkpt lat="43.89658" lon="7.21761">
        <ele>1052.3</ele>
        <time>2013-04-12T11:36:25Z</time>
      </trkpt>
      <trkpt lat="43.89648" lon="7.21757">
        <ele>1052.4</ele>
        <time>2013-04-12T11:37:09Z</time>
      </trkpt>
      <trkpt lat="43.8964" lon="7.21753">
        <ele>1052</ele>
        <time>2013-04-12T11:37:17Z</time>
      </trkpt>
      <trkpt lat="43.89632" lon="7.21751">
        <ele>1052.2</ele>
        <time>2013-04-12T11:37:26Z</time>
      </trkpt>
      <trkpt lat="43.89623" lon="7.21747">
        <ele>1052.1</ele>
        <time>2013-04-12T11:37:32Z</time>
      </trkpt>
      <trkpt lat="43.89611" lon="7.21739">
        <ele>1050.8</ele>
        <time>2013-04-12T11:37:45Z</time>
      </trkpt>
      <trkpt lat="43.89604" lon="7.21732">
        <ele>1050.1</ele>
        <time>2013-04-12T11:37:55Z</time>
      </trkpt>
      <trkpt lat="43.89601" lon="7.21719">
        <ele>1046.7</ele>
        <time>2013-04-12T11:38:04Z</time>
      </trkpt>
      <trkpt lat="43.89594" lon="7.2171">
        <ele>1043.2</ele>
        <time>2013-04-12T11:38:14Z</time>
      </trkpt>
      <trkpt lat="43.89588" lon="7.21702">
        <ele>1041.1</ele>
        <time>2013-04-12T11:38:22Z</time>
      </trkpt>
      <trkpt lat="43.89581" lon="7.21695">
        <ele>1040.3</ele>
        <time>2013-04-12T11:38:30Z</time>
      </trkpt>
      <trkpt lat="43.89575" lon="7.21687">
        <ele>1039.2</ele>
        <time>2013-04-12T11:38:39Z</time>
      </trkpt>
      <trkpt lat="43.8957" lon="7.2167">
        <ele>1040.2</ele>
        <time>2013-04-12T11:38:59Z</time>
      </trkpt>
      <trkpt lat="43.89566" lon="7.2166">
        <ele>1040.4</ele>
        <time>2013-04-12T11:39:09Z</time>
      </trkpt>
      <trkpt lat="43.89564" lon="7.21647">
        <ele>1038</ele>
        <time>2013-04-12T11:39:22Z</time>
      </trkpt>
      <trkpt lat="43.89559" lon="7.2163">
        <ele>1035.2</ele>
        <time>2013-04-12T11:39:36Z</time>
      </trkpt>
      <trkpt lat="43.89557" lon="7.21611">
        <ele>1031</ele>
        <time>2013-04-12T11:39:54Z</time>
      </trkpt>
      <trkpt lat="43.89553" lon="7.216">
        <ele>1030.8</ele>
        <time>2013-04-12T11:40:05Z</time>
      </trkpt>
      <trkpt lat="43.89544" lon="7.21587">
        <ele>1032.7</ele>
        <time>2013-04-12T11:40:19Z</time>
      </trkpt>
      <trkpt lat="43.89541" lon="7.21576">
        <ele>1031.8</ele>
        <time>2013-04-12T11:40:27Z</time>
      </trkpt>
      <trkpt lat="43.89537" lon="7.21564">
        <ele>1031.7</ele>
        <time>2013-04-12T11:40:34Z</time>
      </trkpt>
      <trkpt lat="43.89533" lon="7.21549">
        <ele>1028.4</ele>
        <time>2013-04-12T11:40:55Z</time>
      </trkpt>
      <trkpt lat="43.89531" lon="7.21538">
        <ele>1025.9</ele>
        <time>2013-04-12T11:41:08Z</time>
      </trkpt>
      <trkpt lat="43.89528" lon="7.21523">
        <ele>1023.9</ele>
        <time>2013-04-12T11:41:15Z</time>
      </trkpt>
      <trkpt lat="43.89527" lon="7.21507">
        <ele>1022.9</ele>
        <time>2013-04-12T11:41:25Z</time>
      </trkpt>
      <trkpt lat="43.89525" lon="7.21487">
        <ele>1021.4</ele>
        <time>2013-04-12T11:41:42Z</time>
      </trkpt>
      <trkpt lat="43.89526" lon="7.21476">
        <ele>1021.9</ele>
        <time>2013-04-12T11:41:51Z</time>
      </trkpt>
      <trkpt lat="43.89525" lon="7.21462">
        <ele>1020.8</ele>
        <time>2013-04-12T11:41:59Z</time>
      </trkpt>
      <trkpt lat="43.89524" lon="7.2145">
        <ele>1018.4</ele>
        <time>2013-04-12T11:42:05Z</time>
      </trkpt>
      <trkpt lat="43.89523" lon="7.21438">
        <ele>1015.8</ele>
        <time>2013-04-12T11:42:11Z</time>
      </trkpt>
      <trkpt lat="43.89523" lon="7.21424">
        <ele>1015.4</ele>
        <time>2013-04-12T11:42:20Z</time>
      </trkpt>
      <trkpt lat="43.89522" lon="7.2141">
        <ele>1010</ele>
        <time>2013-04-12T11:42:30Z</time>
      </trkpt>
      <trkpt lat="43.89518" lon="7.21399">
        <ele>1009.6</ele>
        <time>2013-04-12T11:42:36Z</time>
      </trkpt>
      <trkpt lat="43.89516" lon="7.21388">
        <ele>1007.1</ele>
        <time>2013-04-12T11:42:42Z</time>
      </trkpt>
      <trkpt lat="43.89512" lon="7.21376">
        <ele>1007.8</ele>
        <time>2013-04-12T11:42:48Z</time>
      </trkpt>
      <trkpt lat="43.89513" lon="7.21356">
        <ele>1001.8</ele>
        <time>2013-04-12T11:44:28Z</time>
      </trkpt>
      <trkpt lat="43.89512" lon="7.21335">
        <ele>1000.6</ele>
        <time>2013-04-12T11:44:42Z</time>
      </trkpt>
      <trkpt lat="43.89513" lon="7.2132">
        <ele>999.9</ele>
        <time>2013-04-12T11:44:51Z</time>
      </trkpt>
      <trkpt lat="43.89513" lon="7.21309">
        <ele>998.2</ele>
        <time>2013-04-12T11:44:57Z</time>
      </trkpt>
      <trkpt lat="43.89515" lon="7.21296">
        <ele>998.6</ele>
        <time>2013-04-12T11:45:03Z</time>
      </trkpt>
      <trkpt lat="43.89516" lon="7.21273">
        <ele>999.3</ele>
        <time>2013-04-12T11:45:54Z</time>
      </trkpt>
      <trkpt lat="43.89513" lon="7.2126">
        <ele>996.9</ele>
        <time>2013-04-12T11:46:08Z</time>
      </trkpt>
      <trkpt lat="43.89511" lon="7.21246">
        <ele>995.7</ele>
        <time>2013-04-12T11:46:17Z</time>
      </trkpt>
      <trkpt lat="43.89503" lon="7.21228">
        <ele>993.3</ele>
        <time>2013-04-12T11:46:57Z</time>
      </trkpt>
      <trkpt lat="43.89496" lon="7.21221">
        <ele>991.2</ele>
        <time>2013-04-12T11:47:03Z</time>
      </trkpt>
      <trkpt lat="43.89491" lon="7.21211">
        <ele>989.8</ele>
        <time>2013-04-12T11:47:15Z</time>
      </trkpt>
      <trkpt lat="43.89484" lon="7.21203">
        <ele>989.4</ele>
        <time>2013-04-12T11:47:24Z</time>
      </trkpt>
      <trkpt lat="43.89478" lon="7.21189">
        <ele>986.8</ele>
        <time>2013-04-12T11:47:33Z</time>
      </trkpt>
      <trkpt lat="43.8947" lon="7.21184">
        <ele>986.6</ele>
        <time>2013-04-12T11:47:39Z</time>
      </trkpt>
      <trkpt lat="43.89465" lon="7.21173">
        <ele>984.1</ele>
        <time>2013-04-12T11:47:47Z</time>
      </trkpt>
      <trkpt lat="43.89457" lon="7.21168">
        <ele>982</ele>
        <time>2013-04-12T11:47:54Z</time>
      </trkpt>
      <trkpt lat="43.89449" lon="7.21162">
        <ele>979.3</ele>
        <time>2013-04-12T11:48:01Z</time>
      </trkpt>
      <trkpt lat="43.89438" lon="7.21155">
        <ele>977</ele>
        <time>2013-04-12T11:48:17Z</time>
      </trkpt>
      <trkpt lat="43.89428" lon="7.21146">
        <ele>975.9</ele>
        <time>2013-04-12T11:48:26Z</time>
      </trkpt>
      <trkpt lat="43.89421" lon="7.21137">
        <ele>975</ele>
        <time>2013-04-12T11:48:53Z</time>
      </trkpt>
      <trkpt lat="43.89414" lon="7.2113">
        <ele>974.4</ele>
        <time>2013-04-12T11:49:01Z</time>
      </trkpt>
      <trkpt lat="43.89408" lon="7.21122">
        <ele>974.2</ele>
        <time>2013-04-12T11:49:11Z</time>
      </trkpt>
      <trkpt lat="43.89401" lon="7.21114">
        <ele>972.8</ele>
        <time>2013-04-12T11:49:18Z</time>
      </trkpt>
      <trkpt lat="43.89392" lon="7.21105">
        <ele>969</ele>
        <time>2013-04-12T11:49:29Z</time>
      </trkpt>
      <trkpt lat="43.89374" lon="7.21088">
        <ele>964.3</ele>
        <time>2013-04-12T11:49:44Z</time>
      </trkpt>
      <trkpt lat="43.89365" lon="7.2108">
        <ele>965.1</ele>
        <time>2013-04-12T11:49:52Z</time>
      </trkpt>
      <trkpt lat="43.89355" lon="7.21074">
        <ele>964.8</ele>
        <time>2013-04-12T11:50:00Z</time>
      </trkpt>
      <trkpt lat="43.89342" lon="7.21065">
        <ele>963.2</ele>
        <time>2013-04-12T11:50:11Z</time>
      </trkpt>
      <trkpt lat="43.89334" lon="7.21061">
        <ele>962</ele>
        <time>2013-04-12T11:50:23Z</time>
      </trkpt>
      <trkpt lat="43.89323" lon="7.21053">
        <ele>961.1</ele>
        <time>2013-04-12T11:50:32Z</time>
      </trkpt>
      <trkpt lat="43.89315" lon="7.21048">
        <ele>959</ele>
        <time>2013-04-12T11:50:38Z</time>
      </trkpt>
      <trkpt lat="43.89308" lon="7.21041">
        <ele>957.2</ele>
        <time>2013-04-12T11:50:46Z</time>
      </trkpt>
      <trkpt lat="43.89297" lon="7.21034">
        <ele>953.7</ele>
        <time>2013-04-12T11:50:55Z</time>
      </trkpt>
      <trkpt lat="43.89288" lon="7.21029">
        <ele>951.9</ele>
        <time>2013-04-12T11:51:02Z</time>
      </trkpt>
      <trkpt lat="43.89281" lon="7.21025">
        <ele>951.9</ele>
        <time>2013-04-12T11:51:21Z</time>
      </trkpt>
      <trkpt lat="43.89262" lon="7.21015">
        <ele>949.9</ele>
        <time>2013-04-12T11:51:36Z</time>
      </trkpt>
      <trkpt lat="43.89253" lon="7.21009">
        <ele>948.8</ele>
        <time>2013-04-12T11:51:44Z</time>
      </trkpt>
      <trkpt lat="43.89243" lon="7.21005">
        <ele>947.8</ele>
        <time>2013-04-12T11:51:53Z</time>
      </trkpt>
      <trkpt lat="43.89237" lon="7.20997">
        <ele>947.8</ele>
        <time>2013-04-12T11:51:59Z</time>
      </trkpt>
      <trkpt lat="43.89229" lon="7.20991">
        <ele>946.6</ele>
        <time>2013-04-12T11:52:07Z</time>
      </trkpt>
      <trkpt lat="43.89219" lon="7.20982">
        <ele>945.9</ele>
        <time>2013-04-12T11:52:23Z</time>
      </trkpt>
      <trkpt lat="43.89207" lon="7.20972">
        <ele>943.9</ele>
        <time>2013-04-12T11:52:33Z</time>
      </trkpt>
      <trkpt lat="43.892" lon="7.20966">
        <ele>942.7</ele>
        <time>2013-04-12T11:52:39Z</time>
      </trkpt>
      <trkpt lat="43.89193" lon="7.2096">
        <ele>940.1</ele>
        <time>2013-04-12T11:52:46Z</time>
      </trkpt>
      <trkpt lat="43.89184" lon="7.20954">
        <ele>937.9</ele>
        <time>2013-04-12T11:52:53Z</time>
      </trkpt>
      <trkpt lat="43.8917" lon="7.20949">
        <ele>936.5</ele>
        <time>2013-04-12T11:53:03Z</time>
      </trkpt>
      <trkpt lat="43.89159" lon="7.20949">
        <ele>933.9</ele>
        <time>2013-04-12T11:53:11Z</time>
      </trkpt>
      <trkpt lat="43.89149" lon="7.20947">
        <ele>933.1</ele>
        <time>2013-04-12T11:53:18Z</time>
      </trkpt>
      <trkpt lat="43.89141" lon="7.20942">
        <ele>933.2</ele>
        <time>2013-04-12T11:53:24Z</time>
      </trkpt>
      <trkpt lat="43.89125" lon="7.20939">
        <ele>933</ele>
        <time>2013-04-12T11:53:38Z</time>
      </trkpt>
      <trkpt lat="43.89116" lon="7.20941">
        <ele>932.2</ele>
        <time>2013-04-12T11:53:44Z</time>
      </trkpt>
      <trkpt lat="43.89107" lon="7.20933">
        <ele>932.7</ele>
        <time>2013-04-12T11:53:53Z</time>
      </trkpt>
      <trkpt lat="43.89095" lon="7.20924">
        <ele>931.8</ele>
        <time>2013-04-12T11:54:03Z</time>
      </trkpt>
      <trkpt lat="43.89086" lon="7.20917">
        <ele>931.1</ele>
        <time>2013-04-12T11:54:11Z</time>
      </trkpt>
      <trkpt lat="43.89078" lon="7.20912">
        <ele>929.8</ele>
        <time>2013-04-12T11:54:17Z</time>
      </trkpt>
      <trkpt lat="43.89071" lon="7.20901">
        <ele>928.4</ele>
        <time>2013-04-12T11:54:25Z</time>
      </trkpt>
      <trkpt lat="43.89065" lon="7.20893">
        <ele>928.4</ele>
        <time>2013-04-12T11:54:32Z</time>
      </trkpt>
      <trkpt lat="43.89057" lon="7.20883">
        <ele>928.4</ele>
        <time>2013-04-12T11:54:40Z</time>
      </trkpt>
      <trkpt lat="43.89053" lon="7.20873">
        <ele>927.6</ele>
        <time>2013-04-12T11:54:47Z</time>
      </trkpt>
      <trkpt lat="43.8905" lon="7.20858">
        <ele>927.6</ele>
        <time>2013-04-12T11:54:55Z</time>
      </trkpt>
      <trkpt lat="43.89048" lon="7.20847">
        <ele>926.2</ele>
        <time>2013-04-12T11:55:15Z</time>
      </trkpt>
      <trkpt lat="43.89043" lon="7.20836">
        <ele>927.2</ele>
        <time>2013-04-12T11:55:25Z</time>
      </trkpt>
      <trkpt lat="43.89038" lon="7.20828">
        <ele>926.8</ele>
        <time>2013-04-12T11:55:39Z</time>
      </trkpt>
      <trkpt lat="43.89034" lon="7.20815">
        <ele>926.5</ele>
        <time>2013-04-12T11:56:00Z</time>
      </trkpt>
      <trkpt lat="43.89028" lon="7.20804">
        <ele>926.1</ele>
        <time>2013-04-12T11:56:09Z</time>
      </trkpt>
      <trkpt lat="43.89021" lon="7.20797">
        <ele>924.5</ele>
        <time>2013-04-12T11:56:29Z</time>
      </trkpt>
      <trkpt lat="43.89012" lon="7.20791">
        <ele>923.6</ele>
        <time>2013-04-12T11:56:37Z</time>
      </trkpt>
      <trkpt lat="43.89003" lon="7.20786">
        <ele>923.9</ele>
        <time>2013-04-12T11:56:48Z</time>
      </trkpt>
      <trkpt lat="43.88993" lon="7.20781">
        <ele>921.6</ele>
        <time>2013-04-12T11:57:00Z</time>
      </trkpt>
      <trkpt lat="43.88984" lon="7.20778">
        <ele>920.5</ele>
        <time>2013-04-12T11:57:09Z</time>
      </trkpt>
      <trkpt lat="43.88974" lon="7.20773">
        <ele>918.6</ele>
        <time>2013-04-12T11:57:18Z</time>
      </trkpt>
      <trkpt lat="43.88967" lon="7.20766">
        <ele>914.8</ele>
        <time>2013-04-12T11:57:27Z</time>
      </trkpt>
      <trkpt lat="43.88959" lon="7.20762">
        <ele>914.6</ele>
        <time>2013-04-12T11:57:33Z</time>
      </trkpt>
      <trkpt lat="43.88948" lon="7.20754">
        <ele>912.4</ele>
        <time>2013-04-12T11:57:44Z</time>
      </trkpt>
      <trkpt lat="43.88942" lon="7.20746">
        <ele>911.7</ele>
        <time>2013-04-12T11:57:51Z</time>
      </trkpt>
      <trkpt lat="43.88931" lon="7.20735">
        <ele>909.5</ele>
        <time>2013-04-12T11:58:48Z</time>
      </trkpt>
      <trkpt lat="43.88924" lon="7.20729">
        <ele>908.7</ele>
        <time>2013-04-12T11:58:57Z</time>
      </trkpt>
      <trkpt lat="43.88918" lon="7.20719">
        <ele>905.7</ele>
        <time>2013-04-12T11:59:11Z</time>
      </trkpt>
      <trkpt lat="43.88909" lon="7.20711">
        <ele>902.3</ele>
        <time>2013-04-12T11:59:19Z</time>
      </trkpt>
      <trkpt lat="43.88902" lon="7.20706">
        <ele>899.9</ele>
        <time>2013-04-12T11:59:25Z</time>
      </trkpt>
      <trkpt lat="43.88894" lon="7.207">
        <ele>898.2</ele>
        <time>2013-04-12T11:59:34Z</time>
      </trkpt>
      <trkpt lat="43.88886" lon="7.20696">
        <ele>895.9</ele>
        <time>2013-04-12T11:59:42Z</time>
      </trkpt>
      <trkpt lat="43.88874" lon="7.20687">
        <ele>891.9</ele>
        <time>2013-04-12T11:59:55Z</time>
      </trkpt>
      <trkpt lat="43.88866" lon="7.20685">
        <ele>890.3</ele>
        <time>2013-04-12T12:00:02Z</time>
      </trkpt>
      <trkpt lat="43.88858" lon="7.20683">
        <ele>888.9</ele>
        <time>2013-04-12T12:00:09Z</time>
      </trkpt>
      <trkpt lat="43.88851" lon="7.20677">
        <ele>886.1</ele>
        <time>2013-04-12T12:00:17Z</time>
      </trkpt>
      <trkpt lat="43.8885" lon="7.20666">
        <ele>883.6</ele>
        <time>2013-04-12T12:00:25Z</time>
      </trkpt>
      <trkpt lat="43.8885" lon="7.20653">
        <ele>882</ele>
        <time>2013-04-12T12:00:34Z</time>
      </trkpt>
      <trkpt lat="43.88848" lon="7.20642">
        <ele>880</ele>
        <time>2013-04-12T12:00:40Z</time>
      </trkpt>
      <trkpt lat="43.88849" lon="7.2063">
        <ele>878.7</ele>
        <time>2013-04-12T12:00:51Z</time>
      </trkpt>
      <trkpt lat="43.88849" lon="7.20618">
        <ele>879.8</ele>
        <time>2013-04-12T12:00:58Z</time>
      </trkpt>
      <trkpt lat="43.88853" lon="7.20607">
        <ele>880.1</ele>
        <time>2013-04-12T12:01:05Z</time>
      </trkpt>
      <trkpt lat="43.88854" lon="7.20595">
        <ele>881.1</ele>
        <time>2013-04-12T12:01:11Z</time>
      </trkpt>
      <trkpt lat="43.88857" lon="7.20583">
        <ele>881.2</ele>
        <time>2013-04-12T12:01:18Z</time>
      </trkpt>
      <trkpt lat="43.8886" lon="7.20571">
        <ele>882</ele>
        <time>2013-04-12T12:01:27Z</time>
      </trkpt>
      <trkpt lat="43.88862" lon="7.20556">
        <ele>881.1</ele>
        <time>2013-04-12T12:01:37Z</time>
      </trkpt>
      <trkpt lat="43.88861" lon="7.20544">
        <ele>881.8</ele>
        <time>2013-04-12T12:01:42Z</time>
      </trkpt>
      <trkpt lat="43.88858" lon="7.20532">
        <ele>878.7</ele>
        <time>2013-04-12T12:01:49Z</time>
      </trkpt>
      <trkpt lat="43.88853" lon="7.20522">
        <ele>876.5</ele>
        <time>2013-04-12T12:01:56Z</time>
      </trkpt>
      <trkpt lat="43.88846" lon="7.20515">
        <ele>874.6</ele>
        <time>2013-04-12T12:02:03Z</time>
      </trkpt>
      <trkpt lat="43.88839" lon="7.20506">
        <ele>871.8</ele>
        <time>2013-04-12T12:02:12Z</time>
      </trkpt>
      <trkpt lat="43.8883" lon="7.20498">
        <ele>867.2</ele>
        <time>2013-04-12T12:02:21Z</time>
      </trkpt>
      <trkpt lat="43.88823" lon="7.20491">
        <ele>865.5</ele>
        <time>2013-04-12T12:02:27Z</time>
      </trkpt>
      <trkpt lat="43.88816" lon="7.20484">
        <ele>864.3</ele>
        <time>2013-04-12T12:02:33Z</time>
      </trkpt>
      <trkpt lat="43.88806" lon="7.20476">
        <ele>860.8</ele>
        <time>2013-04-12T12:02:42Z</time>
      </trkpt>
      <trkpt lat="43.88797" lon="7.2047">
        <ele>860</ele>
        <time>2013-04-12T12:02:50Z</time>
      </trkpt>
      <trkpt lat="43.88786" lon="7.20462">
        <ele>858.5</ele>
        <time>2013-04-12T12:03:01Z</time>
      </trkpt>
      <trkpt lat="43.88778" lon="7.2046">
        <ele>858.7</ele>
        <time>2013-04-12T12:03:08Z</time>
      </trkpt>
      <trkpt lat="43.88769" lon="7.20457">
        <ele>857.5</ele>
        <time>2013-04-12T12:03:14Z</time>
      </trkpt>
      <trkpt lat="43.8876" lon="7.20452">
        <ele>859</ele>
        <time>2013-04-12T12:03:22Z</time>
      </trkpt>
      <trkpt lat="43.88751" lon="7.20449">
        <ele>858.8</ele>
        <time>2013-04-12T12:03:29Z</time>
      </trkpt>
      <trkpt lat="43.88757" lon="7.20436">
        <ele>856.3</ele>
        <time>2013-04-12T12:04:48Z</time>
      </trkpt>
      <trkpt lat="43.88767" lon="7.20435">
        <ele>855.2</ele>
        <time>2013-04-12T12:04:58Z</time>
      </trkpt>
      <trkpt lat="43.88776" lon="7.20433">
        <ele>855.3</ele>
        <time>2013-04-12T12:05:07Z</time>
      </trkpt>
      <trkpt lat="43.88787" lon="7.20434">
        <ele>850</ele>
        <time>2013-04-12T12:05:15Z</time>
      </trkpt>
      <trkpt lat="43.88798" lon="7.20432">
        <ele>848.4</ele>
        <time>2013-04-12T12:05:25Z</time>
      </trkpt>
      <trkpt lat="43.88808" lon="7.20431">
        <ele>846.5</ele>
        <time>2013-04-12T12:05:34Z</time>
      </trkpt>
      <trkpt lat="43.88821" lon="7.2043">
        <ele>846.5</ele>
        <time>2013-04-12T12:05:44Z</time>
      </trkpt>
      <trkpt lat="43.88833" lon="7.20431">
        <ele>842</ele>
        <time>2013-04-12T12:05:56Z</time>
      </trkpt>
      <trkpt lat="43.88842" lon="7.20436">
        <ele>840.1</ele>
        <time>2013-04-12T12:06:04Z</time>
      </trkpt>
      <trkpt lat="43.88852" lon="7.20441">
        <ele>839.6</ele>
        <time>2013-04-12T12:06:13Z</time>
      </trkpt>
      <trkpt lat="43.8886" lon="7.20443">
        <ele>838.1</ele>
        <time>2013-04-12T12:06:19Z</time>
      </trkpt>
      <trkpt lat="43.88868" lon="7.20448">
        <ele>835.6</ele>
        <time>2013-04-12T12:06:25Z</time>
      </trkpt>
      <trkpt lat="43.88876" lon="7.20452">
        <ele>834.3</ele>
        <time>2013-04-12T12:06:32Z</time>
      </trkpt>
      <trkpt lat="43.88885" lon="7.20456">
        <ele>832.8</ele>
        <time>2013-04-12T12:06:43Z</time>
      </trkpt>
      <trkpt lat="43.88893" lon="7.20463">
        <ele>830.7</ele>
        <time>2013-04-12T12:06:52Z</time>
      </trkpt>
      <trkpt lat="43.88902" lon="7.20469">
        <ele>830.5</ele>
        <time>2013-04-12T12:07:02Z</time>
      </trkpt>
      <trkpt lat="43.88909" lon="7.20486">
        <ele>831.1</ele>
        <time>2013-04-12T12:07:16Z</time>
      </trkpt>
      <trkpt lat="43.88914" lon="7.20496">
        <ele>830.8</ele>
        <time>2013-04-12T12:07:22Z</time>
      </trkpt>
      <trkpt lat="43.8892" lon="7.20506">
        <ele>830.6</ele>
        <time>2013-04-12T12:07:28Z</time>
      </trkpt>
      <trkpt lat="43.88924" lon="7.20516">
        <ele>829.2</ele>
        <time>2013-04-12T12:07:35Z</time>
      </trkpt>
      <trkpt lat="43.88925" lon="7.20527">
        <ele>828.8</ele>
        <time>2013-04-12T12:07:46Z</time>
      </trkpt>
      <trkpt lat="43.88927" lon="7.20538">
        <ele>827.2</ele>
        <time>2013-04-12T12:07:55Z</time>
      </trkpt>
      <trkpt lat="43.8893" lon="7.20553">
        <ele>826.6</ele>
        <time>2013-04-12T12:08:05Z</time>
      </trkpt>
      <trkpt lat="43.88943" lon="7.20564">
        <ele>826.4</ele>
        <time>2013-04-12T12:08:20Z</time>
      </trkpt>
      <trkpt lat="43.88951" lon="7.20571">
        <ele>825</ele>
        <time>2013-04-12T12:08:28Z</time>
      </trkpt>
      <trkpt lat="43.88959" lon="7.2057">
        <ele>825.3</ele>
        <time>2013-04-12T12:08:40Z</time>
      </trkpt>
      <trkpt lat="43.88968" lon="7.20567">
        <ele>826.1</ele>
        <time>2013-04-12T12:08:48Z</time>
      </trkpt>
      <trkpt lat="43.88977" lon="7.20566">
        <ele>823.7</ele>
        <time>2013-04-12T12:08:55Z</time>
      </trkpt>
      <trkpt lat="43.88989" lon="7.20564">
        <ele>824.2</ele>
        <time>2013-04-12T12:09:04Z</time>
      </trkpt>
      <trkpt lat="43.88997" lon="7.2056">
        <ele>825.1</ele>
        <time>2013-04-12T12:09:28Z</time>
      </trkpt>
      <trkpt lat="43.89003" lon="7.20551">
        <ele>824.9</ele>
        <time>2013-04-12T12:09:34Z</time>
      </trkpt>
      <trkpt lat="43.89011" lon="7.20542">
        <ele>824.1</ele>
        <time>2013-04-12T12:09:43Z</time>
      </trkpt>
      <trkpt lat="43.89017" lon="7.20534">
        <ele>823.2</ele>
        <time>2013-04-12T12:09:50Z</time>
      </trkpt>
      <trkpt lat="43.89026" lon="7.20531">
        <ele>820.8</ele>
        <time>2013-04-12T12:09:57Z</time>
      </trkpt>
      <trkpt lat="43.89036" lon="7.20528">
        <ele>821.8</ele>
        <time>2013-04-12T12:10:06Z</time>
      </trkpt>
      <trkpt lat="43.89046" lon="7.20533">
        <ele>819</ele>
        <time>2013-04-12T12:10:16Z</time>
      </trkpt>
      <trkpt lat="43.89053" lon="7.20541">
        <ele>818.3</ele>
        <time>2013-04-12T12:10:23Z</time>
      </trkpt>
      <trkpt lat="43.8906" lon="7.20548">
        <ele>816</ele>
        <time>2013-04-12T12:10:31Z</time>
      </trkpt>
      <trkpt lat="43.89067" lon="7.20552">
        <ele>814.7</ele>
        <time>2013-04-12T12:10:42Z</time>
      </trkpt>
      <trkpt lat="43.89078" lon="7.20556">
        <ele>812.5</ele>
        <time>2013-04-12T12:10:49Z</time>
      </trkpt>
      <trkpt lat="43.89086" lon="7.20559">
        <ele>811.8</ele>
        <time>2013-04-12T12:10:57Z</time>
      </trkpt>
      <trkpt lat="43.89095" lon="7.20562">
        <ele>811.6</ele>
        <time>2013-04-12T12:11:09Z</time>
      </trkpt>
      <trkpt lat="43.89104" lon="7.20566">
        <ele>810.1</ele>
        <time>2013-04-12T12:11:16Z</time>
      </trkpt>
      <trkpt lat="43.89113" lon="7.20568">
        <ele>809.3</ele>
        <time>2013-04-12T12:11:23Z</time>
      </trkpt>
      <trkpt lat="43.89121" lon="7.20569">
        <ele>808.1</ele>
        <time>2013-04-12T12:11:29Z</time>
      </trkpt>
      <trkpt lat="43.89131" lon="7.20572">
        <ele>806</ele>
        <time>2013-04-12T12:11:39Z</time>
      </trkpt>
      <trkpt lat="43.89144" lon="7.20575">
        <ele>804.1</ele>
        <time>2013-04-12T12:11:52Z</time>
      </trkpt>
      <trkpt lat="43.89152" lon="7.20571">
        <ele>802.5</ele>
        <time>2013-04-12T12:12:01Z</time>
      </trkpt>
      <trkpt lat="43.89158" lon="7.2056">
        <ele>801.9</ele>
        <time>2013-04-12T12:12:10Z</time>
      </trkpt>
      <trkpt lat="43.89166" lon="7.20553">
        <ele>801.2</ele>
        <time>2013-04-12T12:12:19Z</time>
      </trkpt>
      <trkpt lat="43.89171" lon="7.20543">
        <ele>801</ele>
        <time>2013-04-12T12:12:26Z</time>
      </trkpt>
      <trkpt lat="43.8918" lon="7.20533">
        <ele>801</ele>
        <time>2013-04-12T12:12:39Z</time>
      </trkpt>
      <trkpt lat="43.89187" lon="7.20526">
        <ele>801.5</ele>
        <time>2013-04-12T12:12:46Z</time>
      </trkpt>
      <trkpt lat="43.89191" lon="7.20515">
        <ele>800.2</ele>
        <time>2013-04-12T12:12:53Z</time>
      </trkpt>
      <trkpt lat="43.89196" lon="7.20505">
        <ele>799.7</ele>
        <time>2013-04-12T12:13:01Z</time>
      </trkpt>
      <trkpt lat="43.89203" lon="7.20498">
        <ele>798.1</ele>
        <time>2013-04-12T12:13:09Z</time>
      </trkpt>
      <trkpt lat="43.8921" lon="7.20491">
        <ele>794.3</ele>
        <time>2013-04-12T12:13:17Z</time>
      </trkpt>
      <trkpt lat="43.89218" lon="7.20486">
        <ele>790.4</ele>
        <time>2013-04-12T12:13:25Z</time>
      </trkpt>
      <trkpt lat="43.89226" lon="7.20481">
        <ele>788.6</ele>
        <time>2013-04-12T12:13:32Z</time>
      </trkpt>
      <trkpt lat="43.89236" lon="7.20478">
        <ele>785.2</ele>
        <time>2013-04-12T12:13:47Z</time>
      </trkpt>
      <trkpt lat="43.89245" lon="7.20474">
        <ele>782.9</ele>
        <time>2013-04-12T12:14:05Z</time>
      </trkpt>
      <trkpt lat="43.89257" lon="7.20468">
        <ele>782</ele>
        <time>2013-04-12T12:14:27Z</time>
      </trkpt>
      <trkpt lat="43.89269" lon="7.20462">
        <ele>780.9</ele>
        <time>2013-04-12T12:14:38Z</time>
      </trkpt>
      <trkpt lat="43.89277" lon="7.20457">
        <ele>780.7</ele>
        <time>2013-04-12T12:14:46Z</time>
      </trkpt>
      <trkpt lat="43.89285" lon="7.20451">
        <ele>780.5</ele>
        <time>2013-04-12T12:14:53Z</time>
      </trkpt>
      <trkpt lat="43.89293" lon="7.20443">
        <ele>781.6</ele>
        <time>2013-04-12T12:15:01Z</time>
      </trkpt>
      <trkpt lat="43.893" lon="7.20436">
        <ele>780.7</ele>
        <time>2013-04-12T12:15:08Z</time>
      </trkpt>
      <trkpt lat="43.8931" lon="7.20434">
        <ele>778.9</ele>
        <time>2013-04-12T12:15:15Z</time>
      </trkpt>
      <trkpt lat="43.89319" lon="7.2043">
        <ele>776.2</ele>
        <time>2013-04-12T12:15:21Z</time>
      </trkpt>
      <trkpt lat="43.89328" lon="7.20427">
        <ele>774.2</ele>
        <time>2013-04-12T12:15:30Z</time>
      </trkpt>
      <trkpt lat="43.89337" lon="7.20422">
        <ele>771.6</ele>
        <time>2013-04-12T12:15:40Z</time>
      </trkpt>
      <trkpt lat="43.89344" lon="7.20418">
        <ele>769.1</ele>
        <time>2013-04-12T12:15:46Z</time>
      </trkpt>
      <trkpt lat="43.89351" lon="7.20412">
        <ele>766.2</ele>
        <time>2013-04-12T12:15:53Z</time>
      </trkpt>
      <trkpt lat="43.89357" lon="7.20403">
        <ele>764.6</ele>
        <time>2013-04-12T12:16:01Z</time>
      </trkpt>
      <trkpt lat="43.89363" lon="7.20393">
        <ele>763.8</ele>
        <time>2013-04-12T12:16:10Z</time>
      </trkpt>
      <trkpt lat="43.89373" lon="7.20392">
        <ele>758.2</ele>
        <time>2013-04-12T12:16:22Z</time>
      </trkpt>
      <trkpt lat="43.89382" lon="7.20389">
        <ele>755.8</ele>
        <time>2013-04-12T12:16:30Z</time>
      </trkpt>
      <trkpt lat="43.8939" lon="7.20385">
        <ele>752.3</ele>
        <time>2013-04-12T12:16:38Z</time>
      </trkpt>
      <trkpt lat="43.89399" lon="7.20381">
        <ele>750.2</ele>
        <time>2013-04-12T12:16:49Z</time>
      </trkpt>
      <trkpt lat="43.89407" lon="7.20375">
        <ele>749.2</ele>
        <time>2013-04-12T12:16:58Z</time>
      </trkpt>
      <trkpt lat="43.89419" lon="7.20372">
        <ele>747.1</ele>
        <time>2013-04-12T12:17:12Z</time>
      </trkpt>
      <trkpt lat="43.89418" lon="7.2036">
        <ele>743.9</ele>
        <time>2013-04-12T12:17:23Z</time>
      </trkpt>
      <trkpt lat="43.8943" lon="7.20351">
        <ele>741</ele>
        <time>2013-04-12T12:17:41Z</time>
      </trkpt>
      <trkpt lat="43.89432" lon="7.20339">
        <ele>734.6</ele>
        <time>2013-04-12T12:17:52Z</time>
      </trkpt>
      <trkpt lat="43.8944" lon="7.20335">
        <ele>729.8</ele>
        <time>2013-04-12T12:18:37Z</time>
      </trkpt>
      <trkpt lat="43.89445" lon="7.20326">
        <ele>726</ele>
        <time>2013-04-12T12:18:49Z</time>
      </trkpt>
      <trkpt lat="43.89455" lon="7.20325">
        <ele>723.9</ele>
        <time>2013-04-12T12:19:00Z</time>
      </trkpt>
      <trkpt lat="43.89464" lon="7.20326">
        <ele>721.3</ele>
        <time>2013-04-12T12:19:12Z</time>
      </trkpt>
      <trkpt lat="43.89477" lon="7.20322">
        <ele>717.4</ele>
        <time>2013-04-12T12:19:29Z</time>
      </trkpt>
      <trkpt lat="43.89484" lon="7.20314">
        <ele>714.4</ele>
        <time>2013-04-12T12:19:41Z</time>
      </trkpt>
      <trkpt lat="43.89492" lon="7.2031">
        <ele>711.7</ele>
        <time>2013-04-12T12:20:11Z</time>
      </trkpt>
      <trkpt lat="43.89502" lon="7.20305">
        <ele>709.1</ele>
        <time>2013-04-12T12:20:20Z</time>
      </trkpt>
      <trkpt lat="43.89508" lon="7.20296">
        <ele>707.1</ele>
        <time>2013-04-12T12:20:34Z</time>
      </trkpt>
      <trkpt lat="43.89516" lon="7.20293">
        <ele>705.1</ele>
        <time>2013-04-12T12:20:42Z</time>
      </trkpt>
      <trkpt lat="43.89524" lon="7.20296">
        <ele>701.6</ele>
        <time>2013-04-12T12:20:51Z</time>
      </trkpt>
      <trkpt lat="43.89532" lon="7.20291">
        <ele>698.7</ele>
        <time>2013-04-12T12:21:03Z</time>
      </trkpt>
      <trkpt lat="43.89538" lon="7.203">
        <ele>695.1</ele>
        <time>2013-04-12T12:21:16Z</time>
      </trkpt>
      <trkpt lat="43.89545" lon="7.20294">
        <ele>692.8</ele>
        <time>2013-04-12T12:21:29Z</time>
      </trkpt>
      <trkpt lat="43.89551" lon="7.20281">
        <ele>692.2</ele>
        <time>2013-04-12T12:21:43Z</time>
      </trkpt>
      <trkpt lat="43.89563" lon="7.20277">
        <ele>686.2</ele>
        <time>2013-04-12T12:22:07Z</time>
      </trkpt>
      <trkpt lat="43.89568" lon="7.20268">
        <ele>683.4</ele>
        <time>2013-04-12T12:22:15Z</time>
      </trkpt>
      <trkpt lat="43.89576" lon="7.20274">
        <ele>676.8</ele>
        <time>2013-04-12T12:22:35Z</time>
      </trkpt>
      <trkpt lat="43.89579" lon="7.20285">
        <ele>673.9</ele>
        <time>2013-04-12T12:22:50Z</time>
      </trkpt>
      <trkpt lat="43.89583" lon="7.20297">
        <ele>672</ele>
        <time>2013-04-12T12:23:02Z</time>
      </trkpt>
      <trkpt lat="43.89603" lon="7.20304">
        <ele>664.1</ele>
        <time>2013-04-12T12:23:26Z</time>
      </trkpt>
      <trkpt lat="43.89611" lon="7.203">
        <ele>656.7</ele>
        <time>2013-04-12T12:23:44Z</time>
      </trkpt>
      <trkpt lat="43.89623" lon="7.20301">
        <ele>651.8</ele>
        <time>2013-04-12T12:24:01Z</time>
      </trkpt>
      <trkpt lat="43.89628" lon="7.20292">
        <ele>646.7</ele>
        <time>2013-04-12T12:24:19Z</time>
      </trkpt>
      <trkpt lat="43.89636" lon="7.20285">
        <ele>641.5</ele>
        <time>2013-04-12T12:24:45Z</time>
      </trkpt>
      <trkpt lat="43.89643" lon="7.20291">
        <ele>640.5</ele>
        <time>2013-04-12T12:25:01Z</time>
      </trkpt>
      <trkpt lat="43.89654" lon="7.20297">
        <ele>634.6</ele>
        <time>2013-04-12T12:31:29Z</time>
      </trkpt>
      <trkpt lat="43.8966" lon="7.20305">
        <ele>631.4</ele>
        <time>2013-04-12T12:32:29Z</time>
      </trkpt>
      <trkpt lat="43.89669" lon="7.20305">
        <ele>632.5</ele>
        <time>2013-04-12T12:32:38Z</time>
      </trkpt>
      <trkpt lat="43.8968" lon="7.20305">
        <ele>631.5</ele>
        <time>2013-04-12T12:32:46Z</time>
      </trkpt>
      <trkpt lat="43.89692" lon="7.20296">
        <ele>629.2</ele>
        <time>2013-04-12T12:32:59Z</time>
      </trkpt>
      <trkpt lat="43.897" lon="7.20291">
        <ele>628.5</ele>
        <time>2013-04-12T12:33:06Z</time>
      </trkpt>
      <trkpt lat="43.89704" lon="7.20281">
        <ele>626.4</ele>
        <time>2013-04-12T12:33:15Z</time>
      </trkpt>
      <trkpt lat="43.89711" lon="7.2027">
        <ele>621.8</ele>
        <time>2013-04-12T12:33:27Z</time>
      </trkpt>
      <trkpt lat="43.89719" lon="7.20266">
        <ele>620.9</ele>
        <time>2013-04-12T12:33:33Z</time>
      </trkpt>
      <trkpt lat="43.89727" lon="7.20259">
        <ele>617.5</ele>
        <time>2013-04-12T12:33:44Z</time>
      </trkpt>
      <trkpt lat="43.89739" lon="7.20254">
        <ele>609.8</ele>
        <time>2013-04-12T12:33:58Z</time>
      </trkpt>
      <trkpt lat="43.89748" lon="7.20254">
        <ele>608.4</ele>
        <time>2013-04-12T12:34:05Z</time>
      </trkpt>
      <trkpt lat="43.89756" lon="7.20254">
        <ele>604.4</ele>
        <time>2013-04-12T12:34:13Z</time>
      </trkpt>
      <trkpt lat="43.89765" lon="7.20254">
        <ele>599.4</ele>
        <time>2013-04-12T12:34:22Z</time>
      </trkpt>
      <trkpt lat="43.89784" lon="7.20268">
        <ele>590.5</ele>
        <time>2013-04-12T12:34:48Z</time>
      </trkpt>
      <trkpt lat="43.89793" lon="7.20272">
        <ele>589.3</ele>
        <time>2013-04-12T12:34:55Z</time>
      </trkpt>
      <trkpt lat="43.89799" lon="7.20281">
        <ele>587.9</ele>
        <time>2013-04-12T12:35:04Z</time>
      </trkpt>
      <trkpt lat="43.89803" lon="7.20292">
        <ele>585.8</ele>
        <time>2013-04-12T12:35:12Z</time>
      </trkpt>
      <trkpt lat="43.89807" lon="7.20303">
        <ele>583.7</ele>
        <time>2013-04-12T12:35:39Z</time>
      </trkpt>
      <trkpt lat="43.89812" lon="7.20313">
        <ele>582.3</ele>
        <time>2013-04-12T12:35:46Z</time>
      </trkpt>
      <trkpt lat="43.89817" lon="7.20323">
        <ele>581.2</ele>
        <time>2013-04-12T12:36:02Z</time>
      </trkpt>
      <trkpt lat="43.89823" lon="7.20332">
        <ele>580.2</ele>
        <time>2013-04-12T12:36:24Z</time>
      </trkpt>
      <trkpt lat="43.89829" lon="7.20342">
        <ele>578.5</ele>
        <time>2013-04-12T12:36:29Z</time>
      </trkpt>
      <trkpt lat="43.8984" lon="7.20351">
        <ele>575.6</ele>
        <time>2013-04-12T12:36:42Z</time>
      </trkpt>
      <trkpt lat="43.89846" lon="7.20359">
        <ele>572</ele>
        <time>2013-04-12T12:37:01Z</time>
      </trkpt>
      <trkpt lat="43.89852" lon="7.20367">
        <ele>571.9</ele>
        <time>2013-04-12T12:37:07Z</time>
      </trkpt>
      <trkpt lat="43.89856" lon="7.20378">
        <ele>570.8</ele>
        <time>2013-04-12T12:37:16Z</time>
      </trkpt>
      <trkpt lat="43.89862" lon="7.20386">
        <ele>569.3</ele>
        <time>2013-04-12T12:37:24Z</time>
      </trkpt>
      <trkpt lat="43.89868" lon="7.20395">
        <ele>569.3</ele>
        <time>2013-04-12T12:37:31Z</time>
      </trkpt>
      <trkpt lat="43.8987" lon="7.20406">
        <ele>568.9</ele>
        <time>2013-04-12T12:37:42Z</time>
      </trkpt>
      <trkpt lat="43.89881" lon="7.20417">
        <ele>567.9</ele>
        <time>2013-04-12T12:37:55Z</time>
      </trkpt>
      <trkpt lat="43.89889" lon="7.20405">
        <ele>558.1</ele>
        <time>2013-04-12T12:38:48Z</time>
      </trkpt>
      <trkpt lat="43.8989" lon="7.20393">
        <ele>553</ele>
        <time>2013-04-12T12:39:21Z</time>
      </trkpt>
      <trkpt lat="43.89897" lon="7.20386">
        <ele>547.5</ele>
        <time>2013-04-12T12:40:36Z</time>
      </trkpt>
      <trkpt lat="43.89903" lon="7.20378">
        <ele>551.1</ele>
        <time>2013-04-12T12:40:54Z</time>
      </trkpt>
      <trkpt lat="43.89902" lon="7.20367">
        <ele>552</ele>
        <time>2013-04-12T12:41:13Z</time>
      </trkpt>
      <trkpt lat="43.89904" lon="7.20355">
        <ele>553.9</ele>
        <time>2013-04-12T12:41:22Z</time>
      </trkpt>
      <trkpt lat="43.89907" lon="7.20344">
        <ele>552</ele>
        <time>2013-04-12T12:41:34Z</time>
      </trkpt>
      <trkpt lat="43.89909" lon="7.20333">
        <ele>553.4</ele>
        <time>2013-04-12T12:41:42Z</time>
      </trkpt>
      <trkpt lat="43.89916" lon="7.20326">
        <ele>547.9</ele>
        <time>2013-04-12T12:42:03Z</time>
      </trkpt>
      <trkpt lat="43.89923" lon="7.20318">
        <ele>545.9</ele>
        <time>2013-04-12T12:42:11Z</time>
      </trkpt>
      <trkpt lat="43.89931" lon="7.20316">
        <ele>542.4</ele>
        <time>2013-04-12T12:42:25Z</time>
      </trkpt>
      <trkpt lat="43.89939" lon="7.20317">
        <ele>540.7</ele>
        <time>2013-04-12T12:42:38Z</time>
      </trkpt>
      <trkpt lat="43.89947" lon="7.20319">
        <ele>540.1</ele>
        <time>2013-04-12T12:42:59Z</time>
      </trkpt>
      <trkpt lat="43.89958" lon="7.20322">
        <ele>541.1</ele>
        <time>2013-04-12T12:43:06Z</time>
      </trkpt>
      <trkpt lat="43.89972" lon="7.20323">
        <ele>539.8</ele>
        <time>2013-04-12T12:43:17Z</time>
      </trkpt>
      <trkpt lat="43.89984" lon="7.20326">
        <ele>538.2</ele>
        <time>2013-04-12T12:43:27Z</time>
      </trkpt>
      <trkpt lat="43.89994" lon="7.20332">
        <ele>538.7</ele>
        <time>2013-04-12T12:43:51Z</time>
      </trkpt>
      <trkpt lat="43.90003" lon="7.20336">
        <ele>539.5</ele>
        <time>2013-04-12T12:44:07Z</time>
      </trkpt>
      <trkpt lat="43.90013" lon="7.20339">
        <ele>537.6</ele>
        <time>2013-04-12T12:44:14Z</time>
      </trkpt>
      <trkpt lat="43.90021" lon="7.20339">
        <ele>536.7</ele>
        <time>2013-04-12T12:44:20Z</time>
      </trkpt>
      <trkpt lat="43.9003" lon="7.20342">
        <ele>536.8</ele>
        <time>2013-04-12T12:44:26Z</time>
      </trkpt>
      <trkpt lat="43.90039" lon="7.20344">
        <ele>537.7</ele>
        <time>2013-04-12T12:44:38Z</time>
      </trkpt>
      <trkpt lat="43.90047" lon="7.20351">
        <ele>533.5</ele>
        <time>2013-04-12T12:44:52Z</time>
      </trkpt>
      <trkpt lat="43.90055" lon="7.20354">
        <ele>532.8</ele>
        <time>2013-04-12T12:45:08Z</time>
      </trkpt>
      <trkpt lat="43.9006" lon="7.20364">
        <ele>532.1</ele>
        <time>2013-04-12T12:45:19Z</time>
      </trkpt>
      <trkpt lat="43.90061" lon="7.20377">
        <ele>531.6</ele>
        <time>2013-04-12T12:45:25Z</time>
      </trkpt>
      <trkpt lat="43.90065" lon="7.20389">
        <ele>532.2</ele>
        <time>2013-04-12T12:45:32Z</time>
      </trkpt>
      <trkpt lat="43.9007" lon="7.20404">
        <ele>531.5</ele>
        <time>2013-04-12T12:45:41Z</time>
      </trkpt>
      <trkpt lat="43.90077" lon="7.20411">
        <ele>530.8</ele>
        <time>2013-04-12T12:45:49Z</time>
      </trkpt>
      <trkpt lat="43.90084" lon="7.20418">
        <ele>528.1</ele>
        <time>2013-04-12T12:45:58Z</time>
      </trkpt>
      <trkpt lat="43.90094" lon="7.20423">
        <ele>525</ele>
        <time>2013-04-12T12:46:05Z</time>
      </trkpt>
      <trkpt lat="43.90102" lon="7.20426">
        <ele>521.4</ele>
        <time>2013-04-12T12:46:21Z</time>
      </trkpt>
      <trkpt lat="43.90108" lon="7.20415">
        <ele>524</ele>
        <time>2013-04-12T12:46:36Z</time>
      </trkpt>
      <trkpt lat="43.90116" lon="7.20409">
        <ele>524.5</ele>
        <time>2013-04-12T12:46:45Z</time>
      </trkpt>
      <trkpt lat="43.90121" lon="7.20399">
        <ele>526.5</ele>
        <time>2013-04-12T12:46:52Z</time>
      </trkpt>
      <trkpt lat="43.90126" lon="7.2039">
        <ele>526.6</ele>
        <time>2013-04-12T12:46:58Z</time>
      </trkpt>
      <trkpt lat="43.90133" lon="7.20382">
        <ele>528.9</ele>
        <time>2013-04-12T12:47:05Z</time>
      </trkpt>
      <trkpt lat="43.90144" lon="7.20375">
        <ele>532.7</ele>
        <time>2013-04-12T12:47:44Z</time>
      </trkpt>
      <trkpt lat="43.90155" lon="7.20371">
        <ele>529.3</ele>
        <time>2013-04-12T12:47:54Z</time>
      </trkpt>
      <trkpt lat="43.90164" lon="7.20367">
        <ele>525</ele>
        <time>2013-04-12T12:48:09Z</time>
      </trkpt>
      <trkpt lat="43.90173" lon="7.20362">
        <ele>523.1</ele>
        <time>2013-04-12T12:48:16Z</time>
      </trkpt>
      <trkpt lat="43.90181" lon="7.20357">
        <ele>521</ele>
        <time>2013-04-12T12:48:23Z</time>
      </trkpt>
      <trkpt lat="43.90189" lon="7.20354">
        <ele>520.1</ele>
        <time>2013-04-12T12:48:48Z</time>
      </trkpt>
      <trkpt lat="43.902" lon="7.2035">
        <ele>520.1</ele>
        <time>2013-04-12T12:48:55Z</time>
      </trkpt>
      <trkpt lat="43.90209" lon="7.20346">
        <ele>518</ele>
        <time>2013-04-12T12:49:02Z</time>
      </trkpt>
      <trkpt lat="43.90218" lon="7.20343">
        <ele>518.1</ele>
        <time>2013-04-12T12:49:08Z</time>
      </trkpt>
      <trkpt lat="43.9023" lon="7.2034">
        <ele>515.6</ele>
        <time>2013-04-12T12:49:18Z</time>
      </trkpt>
      <trkpt lat="43.90238" lon="7.20337">
        <ele>514.6</ele>
        <time>2013-04-12T12:49:25Z</time>
      </trkpt>
      <trkpt lat="43.90246" lon="7.20337">
        <ele>511.5</ele>
        <time>2013-04-12T12:49:31Z</time>
      </trkpt>
      <trkpt lat="43.90255" lon="7.20336">
        <ele>510.1</ele>
        <time>2013-04-12T12:49:38Z</time>
      </trkpt>
      <trkpt lat="43.90264" lon="7.20337">
        <ele>508.6</ele>
        <time>2013-04-12T12:49:47Z</time>
      </trkpt>
      <trkpt lat="43.90272" lon="7.20334">
        <ele>507.4</ele>
        <time>2013-04-12T12:49:57Z</time>
      </trkpt>
      <trkpt lat="43.90278" lon="7.20327">
        <ele>508</ele>
        <time>2013-04-12T12:50:06Z</time>
      </trkpt>
      <trkpt lat="43.90285" lon="7.20321">
        <ele>509.8</ele>
        <time>2013-04-12T12:50:15Z</time>
      </trkpt>
      <trkpt lat="43.9029" lon="7.20312">
        <ele>510.3</ele>
        <time>2013-04-12T12:50:22Z</time>
      </trkpt>
      <trkpt lat="43.90299" lon="7.20305">
        <ele>510.2</ele>
        <time>2013-04-12T12:50:30Z</time>
      </trkpt>
      <trkpt lat="43.90307" lon="7.20301">
        <ele>507.3</ele>
        <time>2013-04-12T12:50:39Z</time>
      </trkpt>
      <trkpt lat="43.90316" lon="7.20302">
        <ele>503.3</ele>
        <time>2013-04-12T12:51:03Z</time>
      </trkpt>
      <trkpt lat="43.90324" lon="7.20307">
        <ele>499.4</ele>
        <time>2013-04-12T12:51:12Z</time>
      </trkpt>
      <trkpt lat="43.90332" lon="7.2031">
        <ele>498.6</ele>
        <time>2013-04-12T12:51:26Z</time>
      </trkpt>
      <trkpt lat="43.90342" lon="7.20311">
        <ele>497.5</ele>
        <time>2013-04-12T12:51:37Z</time>
      </trkpt>
      <trkpt lat="43.90352" lon="7.20315">
        <ele>497.2</ele>
        <time>2013-04-12T12:52:01Z</time>
      </trkpt>
      <trkpt lat="43.90362" lon="7.20318">
        <ele>496.2</ele>
        <time>2013-04-12T12:52:08Z</time>
      </trkpt>
      <trkpt lat="43.90373" lon="7.20319">
        <ele>494.6</ele>
        <time>2013-04-12T12:52:14Z</time>
      </trkpt>
      <trkpt lat="43.90386" lon="7.2032">
        <ele>491.4</ele>
        <time>2013-04-12T12:52:24Z</time>
      </trkpt>
      <trkpt lat="43.90395" lon="7.20322">
        <ele>489.3</ele>
        <time>2013-04-12T12:52:33Z</time>
      </trkpt>
      <trkpt lat="43.90405" lon="7.20322">
        <ele>488.4</ele>
        <time>2013-04-12T12:52:42Z</time>
      </trkpt>
      <trkpt lat="43.90413" lon="7.20319">
        <ele>486.9</ele>
        <time>2013-04-12T12:52:50Z</time>
      </trkpt>
      <trkpt lat="43.90423" lon="7.20311">
        <ele>485.3</ele>
        <time>2013-04-12T12:53:01Z</time>
      </trkpt>
      <trkpt lat="43.90429" lon="7.20303">
        <ele>486</ele>
        <time>2013-04-12T12:53:31Z</time>
      </trkpt>
      <trkpt lat="43.90435" lon="7.20289">
        <ele>486.8</ele>
        <time>2013-04-12T12:53:53Z</time>
      </trkpt>
      <trkpt lat="43.90446" lon="7.20281">
        <ele>486.5</ele>
        <time>2013-04-12T12:54:01Z</time>
      </trkpt>
      <trkpt lat="43.90453" lon="7.20274">
        <ele>484.8</ele>
        <time>2013-04-12T12:54:08Z</time>
      </trkpt>
      <trkpt lat="43.90461" lon="7.20265">
        <ele>485.8</ele>
        <time>2013-04-12T12:54:16Z</time>
      </trkpt>
      <trkpt lat="43.90469" lon="7.2026">
        <ele>486.1</ele>
        <time>2013-04-12T12:54:22Z</time>
      </trkpt>
      <trkpt lat="43.90479" lon="7.20259">
        <ele>484</ele>
        <time>2013-04-12T12:54:28Z</time>
      </trkpt>
      <trkpt lat="43.90487" lon="7.20256">
        <ele>481.4</ele>
        <time>2013-04-12T12:54:34Z</time>
      </trkpt>
      <trkpt lat="43.90494" lon="7.20251">
        <ele>481.5</ele>
        <time>2013-04-12T12:54:40Z</time>
      </trkpt>
      <trkpt lat="43.90504" lon="7.20247">
        <ele>481.1</ele>
        <time>2013-04-12T12:54:47Z</time>
      </trkpt>
      <trkpt lat="43.90513" lon="7.20242">
        <ele>479.4</ele>
        <time>2013-04-12T12:54:55Z</time>
      </trkpt>
      <trkpt lat="43.90522" lon="7.20236">
        <ele>478.5</ele>
        <time>2013-04-12T12:55:03Z</time>
      </trkpt>
      <trkpt lat="43.9053" lon="7.20232">
        <ele>479.4</ele>
        <time>2013-04-12T12:55:10Z</time>
      </trkpt>
      <trkpt lat="43.90539" lon="7.20228">
        <ele>478.3</ele>
        <time>2013-04-12T12:55:16Z</time>
      </trkpt>
      <trkpt lat="43.90547" lon="7.20222">
        <ele>478.7</ele>
        <time>2013-04-12T12:55:22Z</time>
      </trkpt>
      <trkpt lat="43.90554" lon="7.20215">
        <ele>477</ele>
        <time>2013-04-12T12:55:28Z</time>
      </trkpt>
      <trkpt lat="43.9056" lon="7.20207">
        <ele>475.5</ele>
        <time>2013-04-12T12:55:36Z</time>
      </trkpt>
      <trkpt lat="43.90568" lon="7.20197">
        <ele>476.5</ele>
        <time>2013-04-12T12:55:47Z</time>
      </trkpt>
      <trkpt lat="43.90572" lon="7.20185">
        <ele>477.9</ele>
        <time>2013-04-12T12:55:54Z</time>
      </trkpt>
      <trkpt lat="43.90577" lon="7.20175">
        <ele>480</ele>
        <time>2013-04-12T12:56:02Z</time>
      </trkpt>
      <trkpt lat="43.90583" lon="7.20167">
        <ele>481.8</ele>
        <time>2013-04-12T12:56:09Z</time>
      </trkpt>
      <trkpt lat="43.90593" lon="7.20151">
        <ele>480.3</ele>
        <time>2013-04-12T12:56:21Z</time>
      </trkpt>
      <trkpt lat="43.90602" lon="7.20145">
        <ele>481.2</ele>
        <time>2013-04-12T12:56:32Z</time>
      </trkpt>
      <trkpt lat="43.90607" lon="7.20134">
        <ele>480.2</ele>
        <time>2013-04-12T12:56:41Z</time>
      </trkpt>
      <trkpt lat="43.9061" lon="7.20123">
        <ele>478.4</ele>
        <time>2013-04-12T12:57:10Z</time>
      </trkpt>
      <trkpt lat="43.90617" lon="7.20116">
        <ele>475.8</ele>
        <time>2013-04-12T12:57:25Z</time>
      </trkpt>
      <trkpt lat="43.90624" lon="7.20109">
        <ele>475</ele>
        <time>2013-04-12T12:57:33Z</time>
      </trkpt>
      <trkpt lat="43.90632" lon="7.201">
        <ele>473.9</ele>
        <time>2013-04-12T12:57:45Z</time>
      </trkpt>
      <trkpt lat="43.90638" lon="7.20091">
        <ele>474.3</ele>
        <time>2013-04-12T12:57:51Z</time>
      </trkpt>
      <trkpt lat="43.90645" lon="7.20083">
        <ele>474.3</ele>
        <time>2013-04-12T12:57:57Z</time>
      </trkpt>
      <trkpt lat="43.90656" lon="7.20077">
        <ele>473.5</ele>
        <time>2013-04-12T12:58:05Z</time>
      </trkpt>
      <trkpt lat="43.90665" lon="7.2007">
        <ele>473.8</ele>
        <time>2013-04-12T12:58:15Z</time>
      </trkpt>
      <trkpt lat="43.90673" lon="7.20062">
        <ele>472.3</ele>
        <time>2013-04-12T12:58:23Z</time>
      </trkpt>
      <trkpt lat="43.90681" lon="7.20058">
        <ele>470.5</ele>
        <time>2013-04-12T12:58:31Z</time>
      </trkpt>
      <trkpt lat="43.90689" lon="7.2005">
        <ele>470.7</ele>
        <time>2013-04-12T12:58:39Z</time>
      </trkpt>
      <trkpt lat="43.90698" lon="7.20044">
        <ele>468</ele>
        <time>2013-04-12T12:58:45Z</time>
      </trkpt>
      <trkpt lat="43.9071" lon="7.20038">
        <ele>463.8</ele>
        <time>2013-04-12T12:58:57Z</time>
      </trkpt>
      <trkpt lat="43.90718" lon="7.20034">
        <ele>461.6</ele>
        <time>2013-04-12T12:59:03Z</time>
      </trkpt>
      <trkpt lat="43.90725" lon="7.20026">
        <ele>454.7</ele>
        <time>2013-04-12T12:59:31Z</time>
      </trkpt>
      <trkpt lat="43.90727" lon="7.20014">
        <ele>453.7</ele>
        <time>2013-04-12T12:59:40Z</time>
      </trkpt>
      <trkpt lat="43.90725" lon="7.20001">
        <ele>452.3</ele>
        <time>2013-04-12T12:59:47Z</time>
      </trkpt>
      <trkpt lat="43.90723" lon="7.19989">
        <ele>448.3</ele>
        <time>2013-04-12T12:59:55Z</time>
      </trkpt>
      <trkpt lat="43.90716" lon="7.19982">
        <ele>446.4</ele>
        <time>2013-04-12T13:00:05Z</time>
      </trkpt>
      <trkpt lat="43.9071" lon="7.19972">
        <ele>445.3</ele>
        <time>2013-04-12T13:00:12Z</time>
      </trkpt>
      <trkpt lat="43.90704" lon="7.19961">
        <ele>442.4</ele>
        <time>2013-04-12T13:00:23Z</time>
      </trkpt>
      <trkpt lat="43.90702" lon="7.19949">
        <ele>440.5</ele>
        <time>2013-04-12T13:00:29Z</time>
      </trkpt>
      <trkpt lat="43.90704" lon="7.19938">
        <ele>438</ele>
        <time>2013-04-12T13:00:36Z</time>
      </trkpt>
      <trkpt lat="43.90707" lon="7.19928">
        <ele>437.1</ele>
        <time>2013-04-12T13:00:54Z</time>
      </trkpt>
      <trkpt lat="43.90712" lon="7.19918">
        <ele>436.5</ele>
        <time>2013-04-12T13:01:01Z</time>
      </trkpt>
      <trkpt lat="43.90719" lon="7.19912">
        <ele>434.7</ele>
        <time>2013-04-12T13:01:08Z</time>
      </trkpt>
      <trkpt lat="43.90727" lon="7.19906">
        <ele>432.4</ele>
        <time>2013-04-12T13:01:16Z</time>
      </trkpt>
      <trkpt lat="43.90719" lon="7.19899">
        <ele>429.7</ele>
        <time>2013-04-12T13:01:25Z</time>
      </trkpt>
      <trkpt lat="43.9071" lon="7.19898">
        <ele>427.6</ele>
        <time>2013-04-12T13:01:32Z</time>
      </trkpt>
      <trkpt lat="43.90701" lon="7.199">
        <ele>423.5</ele>
        <time>2013-04-12T13:01:40Z</time>
      </trkpt>
      <trkpt lat="43.90692" lon="7.19902">
        <ele>419.7</ele>
        <time>2013-04-12T13:01:48Z</time>
      </trkpt>
      <trkpt lat="43.90684" lon="7.19908">
        <ele>416.4</ele>
        <time>2013-04-12T13:01:57Z</time>
      </trkpt>
      <trkpt lat="43.90688" lon="7.19893">
        <ele>415.7</ele>
        <time>2013-04-12T13:02:07Z</time>
      </trkpt>
      <trkpt lat="43.90694" lon="7.19884">
        <ele>415.6</ele>
        <time>2013-04-12T13:02:19Z</time>
      </trkpt>
      <trkpt lat="43.90704" lon="7.19864">
        <ele>414.2</ele>
        <time>2013-04-12T13:02:38Z</time>
      </trkpt>
      <trkpt lat="43.90713" lon="7.19851">
        <ele>412.1</ele>
        <time>2013-04-12T13:02:50Z</time>
      </trkpt>
      <trkpt lat="43.9072" lon="7.19841">
        <ele>407.9</ele>
        <time>2013-04-12T13:03:00Z</time>
      </trkpt>
      <trkpt lat="43.90727" lon="7.19833">
        <ele>404.6</ele>
        <time>2013-04-12T13:03:08Z</time>
      </trkpt>
      <trkpt lat="43.90731" lon="7.19822">
        <ele>398.8</ele>
        <time>2013-04-12T13:03:18Z</time>
      </trkpt>
      <trkpt lat="43.90722" lon="7.19822">
        <ele>393.9</ele>
        <time>2013-04-12T13:03:37Z</time>
      </trkpt>
      <trkpt lat="43.90713" lon="7.19824">
        <ele>392.5</ele>
        <time>2013-04-12T13:03:45Z</time>
      </trkpt>
      <trkpt lat="43.907" lon="7.19826">
        <ele>390.3</ele>
        <time>2013-04-12T13:03:54Z</time>
      </trkpt>
      <trkpt lat="43.9069" lon="7.19831">
        <ele>388.3</ele>
        <time>2013-04-12T13:04:02Z</time>
      </trkpt>
      <trkpt lat="43.90682" lon="7.19835">
        <ele>385.8</ele>
        <time>2013-04-12T13:04:13Z</time>
      </trkpt>
      <trkpt lat="43.90673" lon="7.19838">
        <ele>383.3</ele>
        <time>2013-04-12T13:04:26Z</time>
      </trkpt>
      <trkpt lat="43.90665" lon="7.19843">
        <ele>381.5</ele>
        <time>2013-04-12T13:04:34Z</time>
      </trkpt>
      <trkpt lat="43.90658" lon="7.19848">
        <ele>380</ele>
        <time>2013-04-12T13:04:40Z</time>
      </trkpt>
      <trkpt lat="43.90659" lon="7.19836">
        <ele>376.6</ele>
        <time>2013-04-12T13:05:01Z</time>
      </trkpt>
      <trkpt lat="43.90648" lon="7.1984">
        <ele>371.4</ele>
        <time>2013-04-12T13:06:02Z</time>
      </trkpt>
      <trkpt lat="43.9064" lon="7.19846">
        <ele>368.7</ele>
        <time>2013-04-12T13:06:13Z</time>
      </trkpt>
      <trkpt lat="43.90631" lon="7.19856">
        <ele>366.3</ele>
        <time>2013-04-12T13:06:22Z</time>
      </trkpt>
      <trkpt lat="43.90625" lon="7.19867">
        <ele>364.5</ele>
        <time>2013-04-12T13:06:31Z</time>
      </trkpt>
      <trkpt lat="43.90617" lon="7.19864">
        <ele>360.1</ele>
        <time>2013-04-12T13:06:56Z</time>
      </trkpt>
      <trkpt lat="43.90609" lon="7.19879">
        <ele>357.1</ele>
        <time>2013-04-12T13:07:05Z</time>
      </trkpt>
      <trkpt lat="43.90601" lon="7.1988">
        <ele>354.9</ele>
        <time>2013-04-12T13:07:17Z</time>
      </trkpt>
      <trkpt lat="43.90592" lon="7.1987">
        <ele>352.9</ele>
        <time>2013-04-12T13:07:26Z</time>
      </trkpt>
      <trkpt lat="43.90585" lon="7.19864">
        <ele>352.4</ele>
        <time>2013-04-12T13:07:32Z</time>
      </trkpt>
      <trkpt lat="43.90577" lon="7.1986">
        <ele>346.1</ele>
        <time>2013-04-12T13:07:44Z</time>
      </trkpt>
      <trkpt lat="43.90586" lon="7.19856">
        <ele>337</ele>
        <time>2013-04-12T13:08:10Z</time>
      </trkpt>
      <trkpt lat="43.90581" lon="7.19845">
        <ele>334.5</ele>
        <time>2013-04-12T13:08:31Z</time>
      </trkpt>
      <trkpt lat="43.90574" lon="7.19838">
        <ele>330.7</ele>
        <time>2013-04-12T13:08:44Z</time>
      </trkpt>
      <trkpt lat="43.90568" lon="7.19829">
        <ele>327.4</ele>
        <time>2013-04-12T13:08:55Z</time>
      </trkpt>
      <trkpt lat="43.90559" lon="7.19829">
        <ele>323.4</ele>
        <time>2013-04-12T13:09:04Z</time>
      </trkpt>
      <trkpt lat="43.90555" lon="7.19819">
        <ele>320.1</ele>
        <time>2013-04-12T13:09:24Z</time>
      </trkpt>
      <trkpt lat="43.90564" lon="7.19815">
        <ele>309.9</ele>
        <time>2013-04-12T13:10:09Z</time>
      </trkpt>
      <trkpt lat="43.90573" lon="7.19819">
        <ele>305.9</ele>
        <time>2013-04-12T13:10:25Z</time>
      </trkpt>
      <trkpt lat="43.9058" lon="7.1981">
        <ele>305.6</ele>
        <time>2013-04-12T13:10:35Z</time>
      </trkpt>
      <trkpt lat="43.90586" lon="7.19803">
        <ele>305.4</ele>
        <time>2013-04-12T13:10:43Z</time>
      </trkpt>
      <trkpt lat="43.90589" lon="7.19791">
        <ele>306.5</ele>
        <time>2013-04-12T13:10:54Z</time>
      </trkpt>
      <trkpt lat="43.9059" lon="7.1978">
        <ele>301.2</ele>
        <time>2013-04-12T13:11:22Z</time>
      </trkpt>
      <trkpt lat="43.90594" lon="7.19767">
        <ele>300.7</ele>
        <time>2013-04-12T13:11:30Z</time>
      </trkpt>
      <trkpt lat="43.90595" lon="7.19752">
        <ele>301</ele>
        <time>2013-04-12T13:11:42Z</time>
      </trkpt>
      <trkpt lat="43.90599" lon="7.19742">
        <ele>300.4</ele>
        <time>2013-04-12T13:11:50Z</time>
      </trkpt>
      <trkpt lat="43.90602" lon="7.19731">
        <ele>300.1</ele>
        <time>2013-04-12T13:11:59Z</time>
      </trkpt>
      <trkpt lat="43.90594" lon="7.19735">
        <ele>293.4</ele>
        <time>2013-04-12T13:12:11Z</time>
      </trkpt>
      <trkpt lat="43.90587" lon="7.19746">
        <ele>287.1</ele>
        <time>2013-04-12T13:12:21Z</time>
      </trkpt>
      <trkpt lat="43.90591" lon="7.19735">
        <ele>281.4</ele>
        <time>2013-04-12T13:12:45Z</time>
      </trkpt>
      <trkpt lat="43.9059" lon="7.19722">
        <ele>282</ele>
        <time>2013-04-12T13:12:56Z</time>
      </trkpt>
      <trkpt lat="43.90588" lon="7.1971">
        <ele>277.9</ele>
        <time>2013-04-12T13:13:03Z</time>
      </trkpt>
      <trkpt lat="43.90587" lon="7.19697">
        <ele>274.7</ele>
        <time>2013-04-12T13:13:10Z</time>
      </trkpt>
      <trkpt lat="43.90585" lon="7.19685">
        <ele>271.1</ele>
        <time>2013-04-12T13:13:17Z</time>
      </trkpt>
      <trkpt lat="43.90584" lon="7.19673">
        <ele>267.4</ele>
        <time>2013-04-12T13:13:28Z</time>
      </trkpt>
      <trkpt lat="43.90576" lon="7.19677">
        <ele>261.6</ele>
        <time>2013-04-12T13:13:42Z</time>
      </trkpt>
      <trkpt lat="43.90573" lon="7.19688">
        <ele>259.4</ele>
        <time>2013-04-12T13:13:53Z</time>
      </trkpt>
      <trkpt lat="43.9057" lon="7.19677">
        <ele>258.9</ele>
        <time>2013-04-12T13:14:03Z</time>
      </trkpt>
      <trkpt lat="43.90563" lon="7.19683">
        <ele>255.1</ele>
        <time>2013-04-12T13:14:28Z</time>
      </trkpt>
      <trkpt lat="43.90556" lon="7.19673">
        <ele>247.4</ele>
        <time>2013-04-12T13:14:50Z</time>
      </trkpt>
      <trkpt lat="43.90553" lon="7.19662">
        <ele>247.9</ele>
        <time>2013-04-12T13:14:57Z</time>
      </trkpt>
      <trkpt lat="43.90559" lon="7.19653">
        <ele>244.2</ele>
        <time>2013-04-12T13:15:13Z</time>
      </trkpt>
      <trkpt lat="43.90567" lon="7.19648">
        <ele>244.8</ele>
        <time>2013-04-12T13:15:20Z</time>
      </trkpt>
      <trkpt lat="43.90562" lon="7.19638">
        <ele>240</ele>
        <time>2013-04-12T13:15:44Z</time>
      </trkpt>
      <trkpt lat="43.90565" lon="7.19627">
        <ele>232.9</ele>
        <time>2013-04-12T13:16:23Z</time>
      </trkpt>
      <trkpt lat="43.90571" lon="7.19618">
        <ele>231.1</ele>
        <time>2013-04-12T13:16:31Z</time>
      </trkpt>
      <trkpt lat="43.90576" lon="7.19608">
        <ele>231.8</ele>
        <time>2013-04-12T13:16:38Z</time>
      </trkpt>
      <trkpt lat="43.90583" lon="7.196">
        <ele>229.3</ele>
        <time>2013-04-12T13:16:45Z</time>
      </trkpt>
      <trkpt lat="43.90575" lon="7.19601">
        <ele>223.1</ele>
        <time>2013-04-12T13:17:11Z</time>
      </trkpt>
      <trkpt lat="43.90567" lon="7.19604">
        <ele>223.1</ele>
        <time>2013-04-12T13:17:18Z</time>
      </trkpt>
      <trkpt lat="43.90558" lon="7.1961">
        <ele>218.3</ele>
        <time>2013-04-12T13:17:30Z</time>
      </trkpt>
      <trkpt lat="43.9055" lon="7.19608">
        <ele>211.7</ele>
        <time>2013-04-12T13:18:06Z</time>
      </trkpt>
      <trkpt lat="43.90547" lon="7.19618">
        <ele>210.1</ele>
        <time>2013-04-12T13:18:16Z</time>
      </trkpt>
      <trkpt lat="43.90538" lon="7.19625">
        <ele>203.7</ele>
        <time>2013-04-12T13:18:35Z</time>
      </trkpt>
      <trkpt lat="43.90532" lon="7.19633">
        <ele>199.6</ele>
        <time>2013-04-12T13:18:41Z</time>
      </trkpt>
      <trkpt lat="43.90536" lon="7.1962">
        <ele>193.9</ele>
        <time>2013-04-12T13:18:53Z</time>
      </trkpt>
      <trkpt lat="43.90528" lon="7.19624">
        <ele>188.4</ele>
        <time>2013-04-12T13:19:06Z</time>
      </trkpt>
      <trkpt lat="43.90523" lon="7.19635">
        <ele>183.2</ele>
        <time>2013-04-12T13:19:15Z</time>
      </trkpt>
      <trkpt lat="43.90515" lon="7.19632">
        <ele>183.5</ele>
        <time>2013-04-12T13:19:28Z</time>
      </trkpt>
      <trkpt lat="43.90511" lon="7.19622">
        <ele>185.7</ele>
        <time>2013-04-12T13:19:47Z</time>
      </trkpt>
      <trkpt lat="43.90517" lon="7.19614">
        <ele>184.5</ele>
        <time>2013-04-12T13:19:57Z</time>
      </trkpt>
      <trkpt lat="43.90524" lon="7.19605">
        <ele>182.4</ele>
        <time>2013-04-12T13:20:20Z</time>
      </trkpt>
      <trkpt lat="43.90527" lon="7.19602">
        <ele>181.1</ele>
        <time>2013-04-12T13:21:44Z</time>
      </trkpt>
    </trkseg>
  </trk>
</gpx>